<?xml version="1.0" encoding="UTF-8" standalone="no" ?>
<gpx xmlns="http://www.topografix.com/GPX/1/1" xmlns:xsi="http://www.w3.org/2001/XMLSchema-instance" xsi:schemaLocation="http://www.topografix.com/GPX/1/1 http://www.topografix.com/GPX/1/1/gpx.xsd" version="1.1" creator="VisuGPX - https://www.visugpx.com">
  <metadata>
    <name>Rando st Thibaud-St Laurent</name>
    <desc><![CDATA[Rando st Thibaud-St Laurent]]></desc>
  </metadata>
  <trk>
    <name><![CDATA[Parcours 2012-06-16 10:32]]></name>
    <trkseg>
      <trkpt lat="45.40072" lon="5.73932">
        <ele>458.90002441406</ele>
        <time>2012-06-16T08:33:20Z</time>
      </trkpt>
      <trkpt lat="45.40068" lon="5.7392">
        <ele>462.09997558594</ele>
        <time>2012-06-16T08:35:21Z</time>
      </trkpt>
      <trkpt lat="45.40062" lon="5.73909">
        <ele>462.5</ele>
        <time>2012-06-16T08:35:31Z</time>
      </trkpt>
      <trkpt lat="45.40059" lon="5.73895">
        <ele>463.5</ele>
        <time>2012-06-16T08:35:39Z</time>
      </trkpt>
      <trkpt lat="45.40059" lon="5.73882">
        <ele>465.29998779297</ele>
        <time>2012-06-16T08:35:46Z</time>
      </trkpt>
      <trkpt lat="45.40058" lon="5.73868">
        <ele>466.59997558594</ele>
        <time>2012-06-16T08:35:56Z</time>
      </trkpt>
      <trkpt lat="45.40059" lon="5.73855">
        <ele>465.59997558594</ele>
        <time>2012-06-16T08:36:08Z</time>
      </trkpt>
      <trkpt lat="45.40063" lon="5.73843">
        <ele>465.79998779297</ele>
        <time>2012-06-16T08:36:20Z</time>
      </trkpt>
      <trkpt lat="45.40064" lon="5.73829">
        <ele>464.5</ele>
        <time>2012-06-16T08:36:27Z</time>
      </trkpt>
      <trkpt lat="45.40067" lon="5.73817">
        <ele>465.29998779297</ele>
        <time>2012-06-16T08:36:36Z</time>
      </trkpt>
      <trkpt lat="45.40071" lon="5.73804">
        <ele>466.09997558594</ele>
        <time>2012-06-16T08:36:44Z</time>
      </trkpt>
      <trkpt lat="45.40076" lon="5.73793">
        <ele>466.09997558594</ele>
        <time>2012-06-16T08:36:51Z</time>
      </trkpt>
      <trkpt lat="45.40082" lon="5.73783">
        <ele>465.40002441406</ele>
        <time>2012-06-16T08:36:59Z</time>
      </trkpt>
      <trkpt lat="45.40092" lon="5.73785">
        <ele>464.5</ele>
        <time>2012-06-16T08:37:06Z</time>
      </trkpt>
      <trkpt lat="45.40111" lon="5.73793">
        <ele>464.5</ele>
        <time>2012-06-16T08:37:21Z</time>
      </trkpt>
      <trkpt lat="45.4012" lon="5.73794">
        <ele>464.70001220703</ele>
        <time>2012-06-16T08:37:28Z</time>
      </trkpt>
      <trkpt lat="45.40138" lon="5.73802">
        <ele>463.5</ele>
        <time>2012-06-16T08:37:44Z</time>
      </trkpt>
      <trkpt lat="45.40148" lon="5.73806">
        <ele>464.20001220703</ele>
        <time>2012-06-16T08:37:52Z</time>
      </trkpt>
      <trkpt lat="45.40156" lon="5.73813">
        <ele>463.59997558594</ele>
        <time>2012-06-16T08:37:59Z</time>
      </trkpt>
      <trkpt lat="45.40166" lon="5.73816">
        <ele>464.90002441406</ele>
        <time>2012-06-16T08:38:08Z</time>
      </trkpt>
      <trkpt lat="45.40177" lon="5.73821">
        <ele>464</ele>
        <time>2012-06-16T08:38:17Z</time>
      </trkpt>
      <trkpt lat="45.40186" lon="5.73824">
        <ele>463.29998779297</ele>
        <time>2012-06-16T08:38:23Z</time>
      </trkpt>
      <trkpt lat="45.40194" lon="5.73829">
        <ele>463.59997558594</ele>
        <time>2012-06-16T08:38:32Z</time>
      </trkpt>
      <trkpt lat="45.40204" lon="5.73832">
        <ele>463.09997558594</ele>
        <time>2012-06-16T08:38:39Z</time>
      </trkpt>
      <trkpt lat="45.40213" lon="5.73833">
        <ele>463.29998779297</ele>
        <time>2012-06-16T08:38:46Z</time>
      </trkpt>
      <trkpt lat="45.40222" lon="5.73839">
        <ele>464.29998779297</ele>
        <time>2012-06-16T08:38:58Z</time>
      </trkpt>
      <trkpt lat="45.40241" lon="5.73846">
        <ele>471.09997558594</ele>
        <time>2012-06-16T08:41:58Z</time>
      </trkpt>
      <trkpt lat="45.40259" lon="5.73855">
        <ele>470.90002441406</ele>
        <time>2012-06-16T08:42:12Z</time>
      </trkpt>
      <trkpt lat="45.40278" lon="5.73865">
        <ele>471.29998779297</ele>
        <time>2012-06-16T08:42:21Z</time>
      </trkpt>
      <trkpt lat="45.40295" lon="5.73876">
        <ele>472.09997558594</ele>
        <time>2012-06-16T08:42:32Z</time>
      </trkpt>
      <trkpt lat="45.40303" lon="5.73883">
        <ele>471.20001220703</ele>
        <time>2012-06-16T08:42:38Z</time>
      </trkpt>
      <trkpt lat="45.4031" lon="5.73893">
        <ele>469.5</ele>
        <time>2012-06-16T08:42:45Z</time>
      </trkpt>
      <trkpt lat="45.40316" lon="5.73903">
        <ele>469.70001220703</ele>
        <time>2012-06-16T08:42:53Z</time>
      </trkpt>
      <trkpt lat="45.40318" lon="5.73916">
        <ele>469.5</ele>
        <time>2012-06-16T08:43:01Z</time>
      </trkpt>
      <trkpt lat="45.40321" lon="5.73929">
        <ele>466.29998779297</ele>
        <time>2012-06-16T08:43:08Z</time>
      </trkpt>
      <trkpt lat="45.40325" lon="5.73942">
        <ele>465.70001220703</ele>
        <time>2012-06-16T08:43:18Z</time>
      </trkpt>
      <trkpt lat="45.4033" lon="5.73953">
        <ele>465.09997558594</ele>
        <time>2012-06-16T08:43:24Z</time>
      </trkpt>
      <trkpt lat="45.40334" lon="5.73966">
        <ele>465.59997558594</ele>
        <time>2012-06-16T08:43:32Z</time>
      </trkpt>
      <trkpt lat="45.40339" lon="5.73979">
        <ele>463.40002441406</ele>
        <time>2012-06-16T08:43:39Z</time>
      </trkpt>
      <trkpt lat="45.40343" lon="5.73992">
        <ele>464.29998779297</ele>
        <time>2012-06-16T08:43:46Z</time>
      </trkpt>
      <trkpt lat="45.40346" lon="5.74005">
        <ele>466.20001220703</ele>
        <time>2012-06-16T08:43:53Z</time>
      </trkpt>
      <trkpt lat="45.40349" lon="5.74017">
        <ele>466.70001220703</ele>
        <time>2012-06-16T08:44:01Z</time>
      </trkpt>
      <trkpt lat="45.40354" lon="5.74031">
        <ele>466.09997558594</ele>
        <time>2012-06-16T08:44:08Z</time>
      </trkpt>
      <trkpt lat="45.40357" lon="5.74044">
        <ele>466.79998779297</ele>
        <time>2012-06-16T08:44:15Z</time>
      </trkpt>
      <trkpt lat="45.40362" lon="5.74057">
        <ele>466.59997558594</ele>
        <time>2012-06-16T08:44:22Z</time>
      </trkpt>
      <trkpt lat="45.40367" lon="5.74068">
        <ele>464.79998779297</ele>
        <time>2012-06-16T08:44:28Z</time>
      </trkpt>
      <trkpt lat="45.40372" lon="5.7408">
        <ele>464.5</ele>
        <time>2012-06-16T08:44:34Z</time>
      </trkpt>
      <trkpt lat="45.40377" lon="5.74092">
        <ele>465.40002441406</ele>
        <time>2012-06-16T08:44:41Z</time>
      </trkpt>
      <trkpt lat="45.40383" lon="5.74103">
        <ele>465.5</ele>
        <time>2012-06-16T08:44:48Z</time>
      </trkpt>
      <trkpt lat="45.4039" lon="5.74112">
        <ele>464.90002441406</ele>
        <time>2012-06-16T08:44:55Z</time>
      </trkpt>
      <trkpt lat="45.40399" lon="5.74121">
        <ele>463.70001220703</ele>
        <time>2012-06-16T08:45:03Z</time>
      </trkpt>
      <trkpt lat="45.40408" lon="5.74128">
        <ele>464.70001220703</ele>
        <time>2012-06-16T08:45:09Z</time>
      </trkpt>
      <trkpt lat="45.40415" lon="5.74135">
        <ele>465.09997558594</ele>
        <time>2012-06-16T08:45:15Z</time>
      </trkpt>
      <trkpt lat="45.40425" lon="5.74137">
        <ele>464.40002441406</ele>
        <time>2012-06-16T08:45:22Z</time>
      </trkpt>
      <trkpt lat="45.40434" lon="5.74139">
        <ele>463.5</ele>
        <time>2012-06-16T08:45:28Z</time>
      </trkpt>
      <trkpt lat="45.40443" lon="5.7414">
        <ele>463.70001220703</ele>
        <time>2012-06-16T08:45:34Z</time>
      </trkpt>
      <trkpt lat="45.40462" lon="5.74139">
        <ele>465.09997558594</ele>
        <time>2012-06-16T08:45:48Z</time>
      </trkpt>
      <trkpt lat="45.40472" lon="5.74137">
        <ele>464.79998779297</ele>
        <time>2012-06-16T08:45:55Z</time>
      </trkpt>
      <trkpt lat="45.40481" lon="5.74132">
        <ele>464.79998779297</ele>
        <time>2012-06-16T08:46:04Z</time>
      </trkpt>
      <trkpt lat="45.40499" lon="5.74123">
        <ele>464.40002441406</ele>
        <time>2012-06-16T08:46:19Z</time>
      </trkpt>
      <trkpt lat="45.40509" lon="5.74119">
        <ele>464</ele>
        <time>2012-06-16T08:46:25Z</time>
      </trkpt>
      <trkpt lat="45.40518" lon="5.74116">
        <ele>463.29998779297</ele>
        <time>2012-06-16T08:46:32Z</time>
      </trkpt>
      <trkpt lat="45.40528" lon="5.74112">
        <ele>462.70001220703</ele>
        <time>2012-06-16T08:46:39Z</time>
      </trkpt>
      <trkpt lat="45.40538" lon="5.7411">
        <ele>462.40002441406</ele>
        <time>2012-06-16T08:46:47Z</time>
      </trkpt>
      <trkpt lat="45.40547" lon="5.74108">
        <ele>463.09997558594</ele>
        <time>2012-06-16T08:46:54Z</time>
      </trkpt>
      <trkpt lat="45.40567" lon="5.74098">
        <ele>462.09997558594</ele>
        <time>2012-06-16T08:47:03Z</time>
      </trkpt>
      <trkpt lat="45.40586" lon="5.74092">
        <ele>462.5</ele>
        <time>2012-06-16T08:47:14Z</time>
      </trkpt>
      <trkpt lat="45.40596" lon="5.74091">
        <ele>462.09997558594</ele>
        <time>2012-06-16T08:47:22Z</time>
      </trkpt>
      <trkpt lat="45.40616" lon="5.74092">
        <ele>462.59997558594</ele>
        <time>2012-06-16T08:47:38Z</time>
      </trkpt>
      <trkpt lat="45.40626" lon="5.74094">
        <ele>463.29998779297</ele>
        <time>2012-06-16T08:47:45Z</time>
      </trkpt>
      <trkpt lat="45.40644" lon="5.74098">
        <ele>464.20001220703</ele>
        <time>2012-06-16T08:48:00Z</time>
      </trkpt>
      <trkpt lat="45.40663" lon="5.74104">
        <ele>462.70001220703</ele>
        <time>2012-06-16T08:48:17Z</time>
      </trkpt>
      <trkpt lat="45.40683" lon="5.74111">
        <ele>463.20001220703</ele>
        <time>2012-06-16T08:48:29Z</time>
      </trkpt>
      <trkpt lat="45.40701" lon="5.74121">
        <ele>459.70001220703</ele>
        <time>2012-06-16T08:48:42Z</time>
      </trkpt>
      <trkpt lat="45.40711" lon="5.74125">
        <ele>459.5</ele>
        <time>2012-06-16T08:48:49Z</time>
      </trkpt>
      <trkpt lat="45.40721" lon="5.74127">
        <ele>459.90002441406</ele>
        <time>2012-06-16T08:48:55Z</time>
      </trkpt>
      <trkpt lat="45.40731" lon="5.74129">
        <ele>460.20001220703</ele>
        <time>2012-06-16T08:49:01Z</time>
      </trkpt>
      <trkpt lat="45.4074" lon="5.74131">
        <ele>461.59997558594</ele>
        <time>2012-06-16T08:49:07Z</time>
      </trkpt>
      <trkpt lat="45.40749" lon="5.74135">
        <ele>461.70001220703</ele>
        <time>2012-06-16T08:49:16Z</time>
      </trkpt>
      <trkpt lat="45.40759" lon="5.74138">
        <ele>460.09997558594</ele>
        <time>2012-06-16T08:49:22Z</time>
      </trkpt>
      <trkpt lat="45.40769" lon="5.74142">
        <ele>459.79998779297</ele>
        <time>2012-06-16T08:49:29Z</time>
      </trkpt>
      <trkpt lat="45.40786" lon="5.74151">
        <ele>459.90002441406</ele>
        <time>2012-06-16T08:49:45Z</time>
      </trkpt>
      <trkpt lat="45.40795" lon="5.74155">
        <ele>459.40002441406</ele>
        <time>2012-06-16T08:49:53Z</time>
      </trkpt>
      <trkpt lat="45.40805" lon="5.7416">
        <ele>458.90002441406</ele>
        <time>2012-06-16T08:49:59Z</time>
      </trkpt>
      <trkpt lat="45.40814" lon="5.74162">
        <ele>458.20001220703</ele>
        <time>2012-06-16T08:50:06Z</time>
      </trkpt>
      <trkpt lat="45.40832" lon="5.74168">
        <ele>460.40002441406</ele>
        <time>2012-06-16T08:50:21Z</time>
      </trkpt>
      <trkpt lat="45.40852" lon="5.74173">
        <ele>461.29998779297</ele>
        <time>2012-06-16T08:50:37Z</time>
      </trkpt>
      <trkpt lat="45.40872" lon="5.74175">
        <ele>460.59997558594</ele>
        <time>2012-06-16T08:50:47Z</time>
      </trkpt>
      <trkpt lat="45.4089" lon="5.74183">
        <ele>461.09997558594</ele>
        <time>2012-06-16T08:51:00Z</time>
      </trkpt>
      <trkpt lat="45.4091" lon="5.74189">
        <ele>460.79998779297</ele>
        <time>2012-06-16T08:51:13Z</time>
      </trkpt>
      <trkpt lat="45.40929" lon="5.742">
        <ele>458.20001220703</ele>
        <time>2012-06-16T08:51:23Z</time>
      </trkpt>
      <trkpt lat="45.40948" lon="5.74207">
        <ele>455.29998779297</ele>
        <time>2012-06-16T08:51:33Z</time>
      </trkpt>
      <trkpt lat="45.40967" lon="5.74213">
        <ele>456.29998779297</ele>
        <time>2012-06-16T08:51:49Z</time>
      </trkpt>
      <trkpt lat="45.40986" lon="5.74222">
        <ele>454.29998779297</ele>
        <time>2012-06-16T08:52:01Z</time>
      </trkpt>
      <trkpt lat="45.41005" lon="5.74229">
        <ele>453.90002441406</ele>
        <time>2012-06-16T08:52:18Z</time>
      </trkpt>
      <trkpt lat="45.41024" lon="5.74235">
        <ele>454</ele>
        <time>2012-06-16T08:52:28Z</time>
      </trkpt>
      <trkpt lat="45.41043" lon="5.74243">
        <ele>454</ele>
        <time>2012-06-16T08:52:43Z</time>
      </trkpt>
      <trkpt lat="45.41063" lon="5.7425">
        <ele>452.79998779297</ele>
        <time>2012-06-16T08:52:58Z</time>
      </trkpt>
      <trkpt lat="45.41081" lon="5.74257">
        <ele>452.59997558594</ele>
        <time>2012-06-16T08:53:12Z</time>
      </trkpt>
      <trkpt lat="45.41101" lon="5.74259">
        <ele>453.09997558594</ele>
        <time>2012-06-16T08:53:26Z</time>
      </trkpt>
      <trkpt lat="45.4112" lon="5.74269">
        <ele>452</ele>
        <time>2012-06-16T08:53:33Z</time>
      </trkpt>
      <trkpt lat="45.41139" lon="5.7427">
        <ele>452.59997558594</ele>
        <time>2012-06-16T08:53:44Z</time>
      </trkpt>
      <trkpt lat="45.41159" lon="5.74279">
        <ele>452.09997558594</ele>
        <time>2012-06-16T08:53:57Z</time>
      </trkpt>
      <trkpt lat="45.41179" lon="5.74285">
        <ele>452</ele>
        <time>2012-06-16T08:54:12Z</time>
      </trkpt>
      <trkpt lat="45.41189" lon="5.74286">
        <ele>452.20001220703</ele>
        <time>2012-06-16T08:54:18Z</time>
      </trkpt>
      <trkpt lat="45.41199" lon="5.74289">
        <ele>452.40002441406</ele>
        <time>2012-06-16T08:54:25Z</time>
      </trkpt>
      <trkpt lat="45.41217" lon="5.74295">
        <ele>453.09997558594</ele>
        <time>2012-06-16T08:54:39Z</time>
      </trkpt>
      <trkpt lat="45.41227" lon="5.74297">
        <ele>452.79998779297</ele>
        <time>2012-06-16T08:54:46Z</time>
      </trkpt>
      <trkpt lat="45.41237" lon="5.74301">
        <ele>453</ele>
        <time>2012-06-16T08:54:53Z</time>
      </trkpt>
      <trkpt lat="45.41246" lon="5.74304">
        <ele>453</ele>
        <time>2012-06-16T08:55:00Z</time>
      </trkpt>
      <trkpt lat="45.41256" lon="5.74305">
        <ele>453</ele>
        <time>2012-06-16T08:55:06Z</time>
      </trkpt>
      <trkpt lat="45.41265" lon="5.74308">
        <ele>452.70001220703</ele>
        <time>2012-06-16T08:55:13Z</time>
      </trkpt>
      <trkpt lat="45.41275" lon="5.7431">
        <ele>452.70001220703</ele>
        <time>2012-06-16T08:55:20Z</time>
      </trkpt>
      <trkpt lat="45.41285" lon="5.74312">
        <ele>452.70001220703</ele>
        <time>2012-06-16T08:55:27Z</time>
      </trkpt>
      <trkpt lat="45.41303" lon="5.74316">
        <ele>452.40002441406</ele>
        <time>2012-06-16T08:55:40Z</time>
      </trkpt>
      <trkpt lat="45.41313" lon="5.74317">
        <ele>452.79998779297</ele>
        <time>2012-06-16T08:55:46Z</time>
      </trkpt>
      <trkpt lat="45.41332" lon="5.74314">
        <ele>452.40002441406</ele>
        <time>2012-06-16T08:56:01Z</time>
      </trkpt>
      <trkpt lat="45.41336" lon="5.74287">
        <ele>452.70001220703</ele>
        <time>2012-06-16T08:56:15Z</time>
      </trkpt>
      <trkpt lat="45.41349" lon="5.74272">
        <ele>451.09997558594</ele>
        <time>2012-06-16T08:56:29Z</time>
      </trkpt>
      <trkpt lat="45.41369" lon="5.7428">
        <ele>451.09997558594</ele>
        <time>2012-06-16T08:56:43Z</time>
      </trkpt>
      <trkpt lat="45.41388" lon="5.74284">
        <ele>452.79998779297</ele>
        <time>2012-06-16T08:57:01Z</time>
      </trkpt>
      <trkpt lat="45.41401" lon="5.74266">
        <ele>454.29998779297</ele>
        <time>2012-06-16T08:57:13Z</time>
      </trkpt>
      <trkpt lat="45.41402" lon="5.74236">
        <ele>454.90002441406</ele>
        <time>2012-06-16T08:57:23Z</time>
      </trkpt>
      <trkpt lat="45.41405" lon="5.74209">
        <ele>455.29998779297</ele>
        <time>2012-06-16T08:57:32Z</time>
      </trkpt>
      <trkpt lat="45.41409" lon="5.74182">
        <ele>454.90002441406</ele>
        <time>2012-06-16T08:57:45Z</time>
      </trkpt>
      <trkpt lat="45.41412" lon="5.74156">
        <ele>453.90002441406</ele>
        <time>2012-06-16T08:57:58Z</time>
      </trkpt>
      <trkpt lat="45.41409" lon="5.74144">
        <ele>453.70001220703</ele>
        <time>2012-06-16T08:58:04Z</time>
      </trkpt>
      <trkpt lat="45.41401" lon="5.74136">
        <ele>454.40002441406</ele>
        <time>2012-06-16T08:58:10Z</time>
      </trkpt>
      <trkpt lat="45.41392" lon="5.7413">
        <ele>454.59997558594</ele>
        <time>2012-06-16T08:58:17Z</time>
      </trkpt>
      <trkpt lat="45.41375" lon="5.74114">
        <ele>454.59997558594</ele>
        <time>2012-06-16T08:58:30Z</time>
      </trkpt>
      <trkpt lat="45.41358" lon="5.74099">
        <ele>455.29998779297</ele>
        <time>2012-06-16T08:58:44Z</time>
      </trkpt>
      <trkpt lat="45.41342" lon="5.74083">
        <ele>454.5</ele>
        <time>2012-06-16T08:58:57Z</time>
      </trkpt>
      <trkpt lat="45.41326" lon="5.74069">
        <ele>455</ele>
        <time>2012-06-16T08:59:10Z</time>
      </trkpt>
      <trkpt lat="45.4131" lon="5.74053">
        <ele>454.70001220703</ele>
        <time>2012-06-16T08:59:22Z</time>
      </trkpt>
      <trkpt lat="45.41292" lon="5.74038">
        <ele>454.5</ele>
        <time>2012-06-16T08:59:35Z</time>
      </trkpt>
      <trkpt lat="45.41295" lon="5.74003">
        <ele>454.29998779297</ele>
        <time>2012-06-16T08:59:56Z</time>
      </trkpt>
      <trkpt lat="45.41307" lon="5.7398">
        <ele>453</ele>
        <time>2012-06-16T09:00:08Z</time>
      </trkpt>
      <trkpt lat="45.41318" lon="5.73961">
        <ele>452.20001220703</ele>
        <time>2012-06-16T09:00:19Z</time>
      </trkpt>
      <trkpt lat="45.41329" lon="5.7394">
        <ele>451</ele>
        <time>2012-06-16T09:00:32Z</time>
      </trkpt>
      <trkpt lat="45.4134" lon="5.73918">
        <ele>451.20001220703</ele>
        <time>2012-06-16T09:00:45Z</time>
      </trkpt>
      <trkpt lat="45.41346" lon="5.73907">
        <ele>451.20001220703</ele>
        <time>2012-06-16T09:00:52Z</time>
      </trkpt>
      <trkpt lat="45.41352" lon="5.73897">
        <ele>452.20001220703</ele>
        <time>2012-06-16T09:00:59Z</time>
      </trkpt>
      <trkpt lat="45.41362" lon="5.73873">
        <ele>453.90002441406</ele>
        <time>2012-06-16T09:01:09Z</time>
      </trkpt>
      <trkpt lat="45.41372" lon="5.73851">
        <ele>454.40002441406</ele>
        <time>2012-06-16T09:01:19Z</time>
      </trkpt>
      <trkpt lat="45.4136" lon="5.73819">
        <ele>458.59997558594</ele>
        <time>2012-06-16T09:01:42Z</time>
      </trkpt>
      <trkpt lat="45.41359" lon="5.73792">
        <ele>457</ele>
        <time>2012-06-16T09:01:53Z</time>
      </trkpt>
      <trkpt lat="45.41344" lon="5.73776">
        <ele>457.40002441406</ele>
        <time>2012-06-16T09:02:05Z</time>
      </trkpt>
      <trkpt lat="45.41321" lon="5.73752">
        <ele>459.20001220703</ele>
        <time>2012-06-16T09:02:25Z</time>
      </trkpt>
      <trkpt lat="45.41305" lon="5.73735">
        <ele>458.59997558594</ele>
        <time>2012-06-16T09:02:37Z</time>
      </trkpt>
      <trkpt lat="45.4129" lon="5.73719">
        <ele>459.90002441406</ele>
        <time>2012-06-16T09:02:49Z</time>
      </trkpt>
      <trkpt lat="45.41275" lon="5.73702">
        <ele>460.79998779297</ele>
        <time>2012-06-16T09:03:03Z</time>
      </trkpt>
      <trkpt lat="45.41255" lon="5.73672">
        <ele>461.29998779297</ele>
        <time>2012-06-16T09:03:24Z</time>
      </trkpt>
      <trkpt lat="45.41235" lon="5.73644">
        <ele>463.09997558594</ele>
        <time>2012-06-16T09:03:42Z</time>
      </trkpt>
      <trkpt lat="45.41222" lon="5.73623">
        <ele>463.20001220703</ele>
        <time>2012-06-16T09:03:54Z</time>
      </trkpt>
      <trkpt lat="45.41208" lon="5.73604">
        <ele>463</ele>
        <time>2012-06-16T09:04:07Z</time>
      </trkpt>
      <trkpt lat="45.41196" lon="5.73582">
        <ele>459.70001220703</ele>
        <time>2012-06-16T09:04:21Z</time>
      </trkpt>
      <trkpt lat="45.41185" lon="5.73561">
        <ele>457.79998779297</ele>
        <time>2012-06-16T09:04:32Z</time>
      </trkpt>
      <trkpt lat="45.41172" lon="5.73539">
        <ele>457.29998779297</ele>
        <time>2012-06-16T09:04:44Z</time>
      </trkpt>
      <trkpt lat="45.41159" lon="5.73519">
        <ele>457.09997558594</ele>
        <time>2012-06-16T09:04:50Z</time>
      </trkpt>
      <trkpt lat="45.41146" lon="5.73497">
        <ele>456.29998779297</ele>
        <time>2012-06-16T09:05:01Z</time>
      </trkpt>
      <trkpt lat="45.41133" lon="5.73476">
        <ele>457.40002441406</ele>
        <time>2012-06-16T09:05:16Z</time>
      </trkpt>
      <trkpt lat="45.41119" lon="5.73457">
        <ele>458.29998779297</ele>
        <time>2012-06-16T09:05:28Z</time>
      </trkpt>
      <trkpt lat="45.41104" lon="5.73439">
        <ele>459.59997558594</ele>
        <time>2012-06-16T09:05:40Z</time>
      </trkpt>
      <trkpt lat="45.41091" lon="5.7342">
        <ele>459.20001220703</ele>
        <time>2012-06-16T09:05:54Z</time>
      </trkpt>
      <trkpt lat="45.4108" lon="5.73398">
        <ele>458.5</ele>
        <time>2012-06-16T09:06:04Z</time>
      </trkpt>
      <trkpt lat="45.41064" lon="5.73374">
        <ele>457.5</ele>
        <time>2012-06-16T09:06:10Z</time>
      </trkpt>
      <trkpt lat="45.41048" lon="5.73352">
        <ele>457.09997558594</ele>
        <time>2012-06-16T09:06:16Z</time>
      </trkpt>
      <trkpt lat="45.41032" lon="5.73326">
        <ele>457.29998779297</ele>
        <time>2012-06-16T09:06:22Z</time>
      </trkpt>
      <trkpt lat="45.41016" lon="5.73303">
        <ele>457.90002441406</ele>
        <time>2012-06-16T09:06:28Z</time>
      </trkpt>
      <trkpt lat="45.41002" lon="5.7328">
        <ele>458.79998779297</ele>
        <time>2012-06-16T09:06:34Z</time>
      </trkpt>
      <trkpt lat="45.4098" lon="5.73248">
        <ele>459.70001220703</ele>
        <time>2012-06-16T09:06:43Z</time>
      </trkpt>
      <trkpt lat="45.40968" lon="5.73223">
        <ele>460.20001220703</ele>
        <time>2012-06-16T09:06:49Z</time>
      </trkpt>
      <trkpt lat="45.40958" lon="5.73194">
        <ele>459.70001220703</ele>
        <time>2012-06-16T09:06:55Z</time>
      </trkpt>
      <trkpt lat="45.40947" lon="5.73163">
        <ele>459.09997558594</ele>
        <time>2012-06-16T09:07:01Z</time>
      </trkpt>
      <trkpt lat="45.40937" lon="5.73135">
        <ele>458.90002441406</ele>
        <time>2012-06-16T09:07:07Z</time>
      </trkpt>
      <trkpt lat="45.40928" lon="5.73106">
        <ele>458.20001220703</ele>
        <time>2012-06-16T09:07:13Z</time>
      </trkpt>
      <trkpt lat="45.40919" lon="5.73079">
        <ele>457.29998779297</ele>
        <time>2012-06-16T09:07:19Z</time>
      </trkpt>
      <trkpt lat="45.4091" lon="5.73052">
        <ele>456.90002441406</ele>
        <time>2012-06-16T09:07:25Z</time>
      </trkpt>
      <trkpt lat="45.409" lon="5.73022">
        <ele>456.59997558594</ele>
        <time>2012-06-16T09:07:31Z</time>
      </trkpt>
      <trkpt lat="45.4089" lon="5.72993">
        <ele>457.20001220703</ele>
        <time>2012-06-16T09:07:37Z</time>
      </trkpt>
      <trkpt lat="45.40877" lon="5.72956">
        <ele>458.40002441406</ele>
        <time>2012-06-16T09:07:48Z</time>
      </trkpt>
      <trkpt lat="45.40869" lon="5.72931">
        <ele>458.40002441406</ele>
        <time>2012-06-16T09:08:03Z</time>
      </trkpt>
      <trkpt lat="45.4086" lon="5.72907">
        <ele>458.59997558594</ele>
        <time>2012-06-16T09:08:17Z</time>
      </trkpt>
      <trkpt lat="45.40851" lon="5.72884">
        <ele>458.5</ele>
        <time>2012-06-16T09:08:30Z</time>
      </trkpt>
      <trkpt lat="45.40846" lon="5.72856">
        <ele>456.59997558594</ele>
        <time>2012-06-16T09:08:44Z</time>
      </trkpt>
      <trkpt lat="45.40838" lon="5.72831">
        <ele>457</ele>
        <time>2012-06-16T09:08:54Z</time>
      </trkpt>
      <trkpt lat="45.40829" lon="5.72805">
        <ele>456.5</ele>
        <time>2012-06-16T09:09:05Z</time>
      </trkpt>
      <trkpt lat="45.40818" lon="5.72786">
        <ele>456.90002441406</ele>
        <time>2012-06-16T09:09:17Z</time>
      </trkpt>
      <trkpt lat="45.40795" lon="5.72778">
        <ele>459.5</ele>
        <time>2012-06-16T09:09:36Z</time>
      </trkpt>
      <trkpt lat="45.40775" lon="5.72741">
        <ele>461.20001220703</ele>
        <time>2012-06-16T09:09:46Z</time>
      </trkpt>
      <trkpt lat="45.40762" lon="5.72711">
        <ele>461.79998779297</ele>
        <time>2012-06-16T09:09:52Z</time>
      </trkpt>
      <trkpt lat="45.40747" lon="5.72682">
        <ele>461.5</ele>
        <time>2012-06-16T09:09:58Z</time>
      </trkpt>
      <trkpt lat="45.40734" lon="5.72656">
        <ele>461.29998779297</ele>
        <time>2012-06-16T09:10:04Z</time>
      </trkpt>
      <trkpt lat="45.40723" lon="5.72629">
        <ele>461.29998779297</ele>
        <time>2012-06-16T09:10:10Z</time>
      </trkpt>
      <trkpt lat="45.40709" lon="5.72601">
        <ele>461.79998779297</ele>
        <time>2012-06-16T09:10:16Z</time>
      </trkpt>
      <trkpt lat="45.40694" lon="5.72574">
        <ele>462.09997558594</ele>
        <time>2012-06-16T09:10:22Z</time>
      </trkpt>
      <trkpt lat="45.40684" lon="5.72552">
        <ele>462</ele>
        <time>2012-06-16T09:10:29Z</time>
      </trkpt>
      <trkpt lat="45.40673" lon="5.7253">
        <ele>461.90002441406</ele>
        <time>2012-06-16T09:10:39Z</time>
      </trkpt>
      <trkpt lat="45.40664" lon="5.72507">
        <ele>461.29998779297</ele>
        <time>2012-06-16T09:10:54Z</time>
      </trkpt>
      <trkpt lat="45.40652" lon="5.72486">
        <ele>460.5</ele>
        <time>2012-06-16T09:11:06Z</time>
      </trkpt>
      <trkpt lat="45.40638" lon="5.72467">
        <ele>462.29998779297</ele>
        <time>2012-06-16T09:11:20Z</time>
      </trkpt>
      <trkpt lat="45.40622" lon="5.72449">
        <ele>460.79998779297</ele>
        <time>2012-06-16T09:11:35Z</time>
      </trkpt>
      <trkpt lat="45.40608" lon="5.72429">
        <ele>463.20001220703</ele>
        <time>2012-06-16T09:11:49Z</time>
      </trkpt>
      <trkpt lat="45.40593" lon="5.7241">
        <ele>465.20001220703</ele>
        <time>2012-06-16T09:12:01Z</time>
      </trkpt>
      <trkpt lat="45.40575" lon="5.72391">
        <ele>466.29998779297</ele>
        <time>2012-06-16T09:12:10Z</time>
      </trkpt>
      <trkpt lat="45.4056" lon="5.72373">
        <ele>469.09997558594</ele>
        <time>2012-06-16T09:12:19Z</time>
      </trkpt>
      <trkpt lat="45.40545" lon="5.72354">
        <ele>467.90002441406</ele>
        <time>2012-06-16T09:12:34Z</time>
      </trkpt>
      <trkpt lat="45.40533" lon="5.72334">
        <ele>465.70001220703</ele>
        <time>2012-06-16T09:12:47Z</time>
      </trkpt>
      <trkpt lat="45.40518" lon="5.72313">
        <ele>466.29998779297</ele>
        <time>2012-06-16T09:12:57Z</time>
      </trkpt>
      <trkpt lat="45.40504" lon="5.72295">
        <ele>465.59997558594</ele>
        <time>2012-06-16T09:13:09Z</time>
      </trkpt>
      <trkpt lat="45.40491" lon="5.72277">
        <ele>464.5</ele>
        <time>2012-06-16T09:13:21Z</time>
      </trkpt>
      <trkpt lat="45.40476" lon="5.72258">
        <ele>464.29998779297</ele>
        <time>2012-06-16T09:13:36Z</time>
      </trkpt>
      <trkpt lat="45.40461" lon="5.72239">
        <ele>464.09997558594</ele>
        <time>2012-06-16T09:13:48Z</time>
      </trkpt>
      <trkpt lat="45.40446" lon="5.7222">
        <ele>462.5</ele>
        <time>2012-06-16T09:14:01Z</time>
      </trkpt>
      <trkpt lat="45.40431" lon="5.72202">
        <ele>463.5</ele>
        <time>2012-06-16T09:14:13Z</time>
      </trkpt>
      <trkpt lat="45.40407" lon="5.72177">
        <ele>464.70001220703</ele>
        <time>2012-06-16T09:14:32Z</time>
      </trkpt>
      <trkpt lat="45.40394" lon="5.72157">
        <ele>464.59997558594</ele>
        <time>2012-06-16T09:14:42Z</time>
      </trkpt>
      <trkpt lat="45.40381" lon="5.72137">
        <ele>463.90002441406</ele>
        <time>2012-06-16T09:14:55Z</time>
      </trkpt>
      <trkpt lat="45.40366" lon="5.7212">
        <ele>463.70001220703</ele>
        <time>2012-06-16T09:15:06Z</time>
      </trkpt>
      <trkpt lat="45.4037" lon="5.72094">
        <ele>460.20001220703</ele>
        <time>2012-06-16T09:15:20Z</time>
      </trkpt>
      <trkpt lat="45.40354" lon="5.72073">
        <ele>460.20001220703</ele>
        <time>2012-06-16T09:15:28Z</time>
      </trkpt>
      <trkpt lat="45.4034" lon="5.72055">
        <ele>460.59997558594</ele>
        <time>2012-06-16T09:15:32Z</time>
      </trkpt>
      <trkpt lat="45.40332" lon="5.72045">
        <ele>460.79998779297</ele>
        <time>2012-06-16T09:15:34Z</time>
      </trkpt>
      <trkpt lat="45.40325" lon="5.72036">
        <ele>460.79998779297</ele>
        <time>2012-06-16T09:15:36Z</time>
      </trkpt>
      <trkpt lat="45.40309" lon="5.72016">
        <ele>460.79998779297</ele>
        <time>2012-06-16T09:15:41Z</time>
      </trkpt>
      <trkpt lat="45.40294" lon="5.71995">
        <ele>461.09997558594</ele>
        <time>2012-06-16T09:15:46Z</time>
      </trkpt>
      <trkpt lat="45.40281" lon="5.71977">
        <ele>461.29998779297</ele>
        <time>2012-06-16T09:15:50Z</time>
      </trkpt>
      <trkpt lat="45.40263" lon="5.71953">
        <ele>462.70001220703</ele>
        <time>2012-06-16T09:15:56Z</time>
      </trkpt>
      <trkpt lat="45.40249" lon="5.71933">
        <ele>462.5</ele>
        <time>2012-06-16T09:16:02Z</time>
      </trkpt>
      <trkpt lat="45.40232" lon="5.71912">
        <ele>462.20001220703</ele>
        <time>2012-06-16T09:16:08Z</time>
      </trkpt>
      <trkpt lat="45.40215" lon="5.71891">
        <ele>462.5</ele>
        <time>2012-06-16T09:16:14Z</time>
      </trkpt>
      <trkpt lat="45.40206" lon="5.71881">
        <ele>462.70001220703</ele>
        <time>2012-06-16T09:16:17Z</time>
      </trkpt>
      <trkpt lat="45.40197" lon="5.7187">
        <ele>463.70001220703</ele>
        <time>2012-06-16T09:16:20Z</time>
      </trkpt>
      <trkpt lat="45.40183" lon="5.71851">
        <ele>464.59997558594</ele>
        <time>2012-06-16T09:16:30Z</time>
      </trkpt>
      <trkpt lat="45.40176" lon="5.71841">
        <ele>463.90002441406</ele>
        <time>2012-06-16T09:16:38Z</time>
      </trkpt>
      <trkpt lat="45.40168" lon="5.71831">
        <ele>463.29998779297</ele>
        <time>2012-06-16T09:16:44Z</time>
      </trkpt>
      <trkpt lat="45.40161" lon="5.71822">
        <ele>462.5</ele>
        <time>2012-06-16T09:16:50Z</time>
      </trkpt>
      <trkpt lat="45.40154" lon="5.71814">
        <ele>462</ele>
        <time>2012-06-16T09:16:56Z</time>
      </trkpt>
      <trkpt lat="45.40147" lon="5.71803">
        <ele>462.59997558594</ele>
        <time>2012-06-16T09:17:02Z</time>
      </trkpt>
      <trkpt lat="45.4014" lon="5.71795">
        <ele>463.59997558594</ele>
        <time>2012-06-16T09:17:08Z</time>
      </trkpt>
      <trkpt lat="45.40132" lon="5.71786">
        <ele>463.59997558594</ele>
        <time>2012-06-16T09:17:13Z</time>
      </trkpt>
      <trkpt lat="45.40125" lon="5.71777">
        <ele>464</ele>
        <time>2012-06-16T09:17:17Z</time>
      </trkpt>
      <trkpt lat="45.40117" lon="5.71767">
        <ele>464.09997558594</ele>
        <time>2012-06-16T09:17:22Z</time>
      </trkpt>
      <trkpt lat="45.4011" lon="5.71758">
        <ele>464.90002441406</ele>
        <time>2012-06-16T09:17:28Z</time>
      </trkpt>
      <trkpt lat="45.40102" lon="5.71748">
        <ele>464.5</ele>
        <time>2012-06-16T09:17:34Z</time>
      </trkpt>
      <trkpt lat="45.40095" lon="5.71739">
        <ele>464.20001220703</ele>
        <time>2012-06-16T09:17:40Z</time>
      </trkpt>
      <trkpt lat="45.40088" lon="5.7173">
        <ele>462.79998779297</ele>
        <time>2012-06-16T09:17:47Z</time>
      </trkpt>
      <trkpt lat="45.4008" lon="5.71721">
        <ele>461.59997558594</ele>
        <time>2012-06-16T09:17:54Z</time>
      </trkpt>
      <trkpt lat="45.40077" lon="5.71708">
        <ele>461.90002441406</ele>
        <time>2012-06-16T09:18:00Z</time>
      </trkpt>
      <trkpt lat="45.40084" lon="5.71699">
        <ele>461.20001220703</ele>
        <time>2012-06-16T09:18:06Z</time>
      </trkpt>
      <trkpt lat="45.40091" lon="5.7169">
        <ele>461.20001220703</ele>
        <time>2012-06-16T09:18:12Z</time>
      </trkpt>
      <trkpt lat="45.40099" lon="5.71681">
        <ele>461.20001220703</ele>
        <time>2012-06-16T09:18:18Z</time>
      </trkpt>
      <trkpt lat="45.40107" lon="5.71673">
        <ele>461.20001220703</ele>
        <time>2012-06-16T09:18:24Z</time>
      </trkpt>
      <trkpt lat="45.40114" lon="5.71664">
        <ele>460.90002441406</ele>
        <time>2012-06-16T09:18:30Z</time>
      </trkpt>
      <trkpt lat="45.4012" lon="5.71653">
        <ele>461</ele>
        <time>2012-06-16T09:18:36Z</time>
      </trkpt>
      <trkpt lat="45.40126" lon="5.71643">
        <ele>460.90002441406</ele>
        <time>2012-06-16T09:18:42Z</time>
      </trkpt>
      <trkpt lat="45.40132" lon="5.71632">
        <ele>460.5</ele>
        <time>2012-06-16T09:18:48Z</time>
      </trkpt>
      <trkpt lat="45.40138" lon="5.71622">
        <ele>460.40002441406</ele>
        <time>2012-06-16T09:18:54Z</time>
      </trkpt>
      <trkpt lat="45.40143" lon="5.71611">
        <ele>460.20001220703</ele>
        <time>2012-06-16T09:19:00Z</time>
      </trkpt>
      <trkpt lat="45.40146" lon="5.71598">
        <ele>460.59997558594</ele>
        <time>2012-06-16T09:19:06Z</time>
      </trkpt>
      <trkpt lat="45.40146" lon="5.71583">
        <ele>460.79998779297</ele>
        <time>2012-06-16T09:19:10Z</time>
      </trkpt>
      <trkpt lat="45.40141" lon="5.7157">
        <ele>461</ele>
        <time>2012-06-16T09:19:14Z</time>
      </trkpt>
      <trkpt lat="45.40135" lon="5.71558">
        <ele>461.29998779297</ele>
        <time>2012-06-16T09:19:19Z</time>
      </trkpt>
      <trkpt lat="45.40133" lon="5.71545">
        <ele>461.79998779297</ele>
        <time>2012-06-16T09:19:25Z</time>
      </trkpt>
      <trkpt lat="45.40137" lon="5.71532">
        <ele>461.40002441406</ele>
        <time>2012-06-16T09:19:32Z</time>
      </trkpt>
      <trkpt lat="45.40142" lon="5.71519">
        <ele>462</ele>
        <time>2012-06-16T09:19:39Z</time>
      </trkpt>
      <trkpt lat="45.40152" lon="5.71496">
        <ele>462.59997558594</ele>
        <time>2012-06-16T09:19:51Z</time>
      </trkpt>
      <trkpt lat="45.40156" lon="5.71483">
        <ele>463.90002441406</ele>
        <time>2012-06-16T09:19:57Z</time>
      </trkpt>
      <trkpt lat="45.40161" lon="5.71471">
        <ele>466</ele>
        <time>2012-06-16T09:20:03Z</time>
      </trkpt>
      <trkpt lat="45.40167" lon="5.71444">
        <ele>467.20001220703</ele>
        <time>2012-06-16T09:20:14Z</time>
      </trkpt>
      <trkpt lat="45.40174" lon="5.71432">
        <ele>466.90002441406</ele>
        <time>2012-06-16T09:20:18Z</time>
      </trkpt>
      <trkpt lat="45.4018" lon="5.71422">
        <ele>467.20001220703</ele>
        <time>2012-06-16T09:20:22Z</time>
      </trkpt>
      <trkpt lat="45.40189" lon="5.71398">
        <ele>466.40002441406</ele>
        <time>2012-06-16T09:20:34Z</time>
      </trkpt>
      <trkpt lat="45.40194" lon="5.71373">
        <ele>466.29998779297</ele>
        <time>2012-06-16T09:20:46Z</time>
      </trkpt>
      <trkpt lat="45.40203" lon="5.71348">
        <ele>469.70001220703</ele>
        <time>2012-06-16T09:20:57Z</time>
      </trkpt>
      <trkpt lat="45.40214" lon="5.71325">
        <ele>467.90002441406</ele>
        <time>2012-06-16T09:21:10Z</time>
      </trkpt>
      <trkpt lat="45.40224" lon="5.71301">
        <ele>469</ele>
        <time>2012-06-16T09:21:23Z</time>
      </trkpt>
      <trkpt lat="45.40239" lon="5.71287">
        <ele>471.70001220703</ele>
        <time>2012-06-16T09:21:37Z</time>
      </trkpt>
      <trkpt lat="45.40258" lon="5.71285">
        <ele>472.70001220703</ele>
        <time>2012-06-16T09:21:51Z</time>
      </trkpt>
      <trkpt lat="45.40285" lon="5.7127">
        <ele>476.29998779297</ele>
        <time>2012-06-16T09:22:15Z</time>
      </trkpt>
      <trkpt lat="45.40302" lon="5.71253">
        <ele>479.70001220703</ele>
        <time>2012-06-16T09:22:26Z</time>
      </trkpt>
      <trkpt lat="45.40322" lon="5.71251">
        <ele>482.29998779297</ele>
        <time>2012-06-16T09:22:38Z</time>
      </trkpt>
      <trkpt lat="45.40341" lon="5.71248">
        <ele>484.59997558594</ele>
        <time>2012-06-16T09:22:49Z</time>
      </trkpt>
      <trkpt lat="45.40357" lon="5.71236">
        <ele>487.70001220703</ele>
        <time>2012-06-16T09:23:00Z</time>
      </trkpt>
      <trkpt lat="45.40385" lon="5.71222">
        <ele>490</ele>
        <time>2012-06-16T09:23:22Z</time>
      </trkpt>
      <trkpt lat="45.40403" lon="5.71211">
        <ele>492.20001220703</ele>
        <time>2012-06-16T09:23:32Z</time>
      </trkpt>
      <trkpt lat="45.40423" lon="5.71206">
        <ele>495.79998779297</ele>
        <time>2012-06-16T09:23:44Z</time>
      </trkpt>
      <trkpt lat="45.40442" lon="5.71203">
        <ele>498.29998779297</ele>
        <time>2012-06-16T09:23:57Z</time>
      </trkpt>
      <trkpt lat="45.40461" lon="5.71199">
        <ele>502.5</ele>
        <time>2012-06-16T09:24:11Z</time>
      </trkpt>
      <trkpt lat="45.4049" lon="5.71186">
        <ele>504.29998779297</ele>
        <time>2012-06-16T09:24:31Z</time>
      </trkpt>
      <trkpt lat="45.4052" lon="5.71175">
        <ele>503.90002441406</ele>
        <time>2012-06-16T09:24:50Z</time>
      </trkpt>
      <trkpt lat="45.40538" lon="5.71166">
        <ele>507.20001220703</ele>
        <time>2012-06-16T09:25:04Z</time>
      </trkpt>
      <trkpt lat="45.40555" lon="5.71149">
        <ele>515.40002441406</ele>
        <time>2012-06-16T09:25:14Z</time>
      </trkpt>
      <trkpt lat="45.4057" lon="5.71134">
        <ele>518.70001220703</ele>
        <time>2012-06-16T09:25:26Z</time>
      </trkpt>
      <trkpt lat="45.40563" lon="5.7111">
        <ele>518.90002441406</ele>
        <time>2012-06-16T09:25:41Z</time>
      </trkpt>
      <trkpt lat="45.40566" lon="5.71082">
        <ele>522.79998779297</ele>
        <time>2012-06-16T09:25:56Z</time>
      </trkpt>
      <trkpt lat="45.40574" lon="5.71059">
        <ele>526.59997558594</ele>
        <time>2012-06-16T09:26:07Z</time>
      </trkpt>
      <trkpt lat="45.40584" lon="5.71056">
        <ele>530.30004882812</ele>
        <time>2012-06-16T09:26:14Z</time>
      </trkpt>
      <trkpt lat="45.40603" lon="5.71053">
        <ele>537.5</ele>
        <time>2012-06-16T09:26:29Z</time>
      </trkpt>
      <trkpt lat="45.40621" lon="5.71047">
        <ele>537.19995117188</ele>
        <time>2012-06-16T09:26:42Z</time>
      </trkpt>
      <trkpt lat="45.40637" lon="5.71028">
        <ele>539.5</ele>
        <time>2012-06-16T09:26:56Z</time>
      </trkpt>
      <trkpt lat="45.40643" lon="5.71003">
        <ele>541.19995117188</ele>
        <time>2012-06-16T09:27:06Z</time>
      </trkpt>
      <trkpt lat="45.4064" lon="5.70962">
        <ele>543.5</ele>
        <time>2012-06-16T09:27:26Z</time>
      </trkpt>
      <trkpt lat="45.40649" lon="5.70925">
        <ele>547</ele>
        <time>2012-06-16T09:27:59Z</time>
      </trkpt>
      <trkpt lat="45.40668" lon="5.70895">
        <ele>548.80004882812</ele>
        <time>2012-06-16T09:28:21Z</time>
      </trkpt>
      <trkpt lat="45.40651" lon="5.70878">
        <ele>552.5</ele>
        <time>2012-06-16T09:28:35Z</time>
      </trkpt>
      <trkpt lat="45.40634" lon="5.70867">
        <ele>551.40002441406</ele>
        <time>2012-06-16T09:28:48Z</time>
      </trkpt>
      <trkpt lat="45.4062" lon="5.70849">
        <ele>552.40002441406</ele>
        <time>2012-06-16T09:29:02Z</time>
      </trkpt>
      <trkpt lat="45.40603" lon="5.70835">
        <ele>554.5</ele>
        <time>2012-06-16T09:29:15Z</time>
      </trkpt>
      <trkpt lat="45.40565" lon="5.70804">
        <ele>558.69995117188</ele>
        <time>2012-06-16T09:29:30Z</time>
      </trkpt>
      <trkpt lat="45.40546" lon="5.70787">
        <ele>557.69995117188</ele>
        <time>2012-06-16T09:29:34Z</time>
      </trkpt>
      <trkpt lat="45.40526" lon="5.7077">
        <ele>556.90002441406</ele>
        <time>2012-06-16T09:29:38Z</time>
      </trkpt>
      <trkpt lat="45.40506" lon="5.70751">
        <ele>557.19995117188</ele>
        <time>2012-06-16T09:29:42Z</time>
      </trkpt>
      <trkpt lat="45.40486" lon="5.70724">
        <ele>558.80004882812</ele>
        <time>2012-06-16T09:29:46Z</time>
      </trkpt>
      <trkpt lat="45.40489" lon="5.70672">
        <ele>569.90002441406</ele>
        <time>2012-06-16T09:29:56Z</time>
      </trkpt>
      <trkpt lat="45.40474" lon="5.70657">
        <ele>575.80004882812</ele>
        <time>2012-06-16T09:30:02Z</time>
      </trkpt>
      <trkpt lat="45.40455" lon="5.70643">
        <ele>579</ele>
        <time>2012-06-16T09:30:06Z</time>
      </trkpt>
      <trkpt lat="45.40447" lon="5.70631">
        <ele>579.80004882812</ele>
        <time>2012-06-16T09:30:09Z</time>
      </trkpt>
      <trkpt lat="45.40437" lon="5.70619">
        <ele>580.59997558594</ele>
        <time>2012-06-16T09:30:12Z</time>
      </trkpt>
      <trkpt lat="45.40427" lon="5.70606">
        <ele>581.19995117188</ele>
        <time>2012-06-16T09:30:15Z</time>
      </trkpt>
      <trkpt lat="45.40421" lon="5.70597">
        <ele>581.80004882812</ele>
        <time>2012-06-16T09:30:17Z</time>
      </trkpt>
      <trkpt lat="45.40413" lon="5.70586">
        <ele>582.90002441406</ele>
        <time>2012-06-16T09:30:20Z</time>
      </trkpt>
      <trkpt lat="45.40406" lon="5.70575">
        <ele>585.30004882812</ele>
        <time>2012-06-16T09:30:25Z</time>
      </trkpt>
      <trkpt lat="45.40401" lon="5.70564">
        <ele>588.80004882812</ele>
        <time>2012-06-16T09:30:31Z</time>
      </trkpt>
      <trkpt lat="45.40397" lon="5.70552">
        <ele>590.09997558594</ele>
        <time>2012-06-16T09:30:36Z</time>
      </trkpt>
      <trkpt lat="45.40391" lon="5.7054">
        <ele>590.40002441406</ele>
        <time>2012-06-16T09:30:39Z</time>
      </trkpt>
      <trkpt lat="45.40376" lon="5.70523">
        <ele>592.69995117188</ele>
        <time>2012-06-16T09:30:43Z</time>
      </trkpt>
      <trkpt lat="45.40367" lon="5.70515">
        <ele>593.19995117188</ele>
        <time>2012-06-16T09:30:45Z</time>
      </trkpt>
      <trkpt lat="45.40359" lon="5.70507">
        <ele>593.40002441406</ele>
        <time>2012-06-16T09:30:47Z</time>
      </trkpt>
      <trkpt lat="45.40353" lon="5.70498">
        <ele>593.69995117188</ele>
        <time>2012-06-16T09:30:49Z</time>
      </trkpt>
      <trkpt lat="45.40347" lon="5.70487">
        <ele>594.30004882812</ele>
        <time>2012-06-16T09:30:51Z</time>
      </trkpt>
      <trkpt lat="45.40337" lon="5.70461">
        <ele>598.69995117188</ele>
        <time>2012-06-16T09:31:01Z</time>
      </trkpt>
      <trkpt lat="45.40335" lon="5.70449">
        <ele>600.90002441406</ele>
        <time>2012-06-16T09:31:06Z</time>
      </trkpt>
      <trkpt lat="45.4033" lon="5.70436">
        <ele>604.19995117188</ele>
        <time>2012-06-16T09:31:12Z</time>
      </trkpt>
      <trkpt lat="45.40324" lon="5.70424">
        <ele>606.80004882812</ele>
        <time>2012-06-16T09:31:19Z</time>
      </trkpt>
      <trkpt lat="45.40319" lon="5.70411">
        <ele>612.40002441406</ele>
        <time>2012-06-16T09:31:25Z</time>
      </trkpt>
      <trkpt lat="45.40314" lon="5.70399">
        <ele>615.90002441406</ele>
        <time>2012-06-16T09:31:32Z</time>
      </trkpt>
      <trkpt lat="45.40309" lon="5.70388">
        <ele>617.40002441406</ele>
        <time>2012-06-16T09:31:40Z</time>
      </trkpt>
      <trkpt lat="45.40302" lon="5.70378">
        <ele>618.80004882812</ele>
        <time>2012-06-16T09:31:47Z</time>
      </trkpt>
      <trkpt lat="45.40294" lon="5.70368">
        <ele>620.69995117188</ele>
        <time>2012-06-16T09:31:54Z</time>
      </trkpt>
      <trkpt lat="45.40287" lon="5.70359">
        <ele>622.09997558594</ele>
        <time>2012-06-16T09:32:03Z</time>
      </trkpt>
      <trkpt lat="45.4028" lon="5.7035">
        <ele>622.5</ele>
        <time>2012-06-16T09:32:11Z</time>
      </trkpt>
      <trkpt lat="45.40273" lon="5.7034">
        <ele>623.5</ele>
        <time>2012-06-16T09:32:20Z</time>
      </trkpt>
      <trkpt lat="45.40266" lon="5.7033">
        <ele>624.59997558594</ele>
        <time>2012-06-16T09:32:39Z</time>
      </trkpt>
      <trkpt lat="45.40259" lon="5.70319">
        <ele>624.09997558594</ele>
        <time>2012-06-16T09:32:46Z</time>
      </trkpt>
      <trkpt lat="45.40253" lon="5.70309">
        <ele>623.80004882812</ele>
        <time>2012-06-16T09:32:52Z</time>
      </trkpt>
      <trkpt lat="45.40246" lon="5.70298">
        <ele>624.19995117188</ele>
        <time>2012-06-16T09:32:58Z</time>
      </trkpt>
      <trkpt lat="45.40244" lon="5.70285">
        <ele>624.09997558594</ele>
        <time>2012-06-16T09:33:04Z</time>
      </trkpt>
      <trkpt lat="45.40246" lon="5.70272">
        <ele>624.5</ele>
        <time>2012-06-16T09:33:10Z</time>
      </trkpt>
      <trkpt lat="45.40248" lon="5.70259">
        <ele>624.19995117188</ele>
        <time>2012-06-16T09:33:16Z</time>
      </trkpt>
      <trkpt lat="45.40255" lon="5.70233">
        <ele>622.30004882812</ele>
        <time>2012-06-16T09:33:30Z</time>
      </trkpt>
      <trkpt lat="45.40256" lon="5.70205">
        <ele>622.5</ele>
        <time>2012-06-16T09:33:42Z</time>
      </trkpt>
      <trkpt lat="45.40255" lon="5.70191">
        <ele>623.59997558594</ele>
        <time>2012-06-16T09:33:48Z</time>
      </trkpt>
      <trkpt lat="45.40256" lon="5.70178">
        <ele>624.69995117188</ele>
        <time>2012-06-16T09:33:54Z</time>
      </trkpt>
      <trkpt lat="45.40256" lon="5.70164">
        <ele>625.30004882812</ele>
        <time>2012-06-16T09:34:00Z</time>
      </trkpt>
      <trkpt lat="45.40255" lon="5.70137">
        <ele>625.80004882812</ele>
        <time>2012-06-16T09:34:11Z</time>
      </trkpt>
      <trkpt lat="45.40257" lon="5.70123">
        <ele>625.40002441406</ele>
        <time>2012-06-16T09:34:14Z</time>
      </trkpt>
      <trkpt lat="45.40254" lon="5.70097">
        <ele>625.40002441406</ele>
        <time>2012-06-16T09:34:20Z</time>
      </trkpt>
      <trkpt lat="45.40255" lon="5.7007">
        <ele>627.59997558594</ele>
        <time>2012-06-16T09:34:32Z</time>
      </trkpt>
      <trkpt lat="45.40262" lon="5.70044">
        <ele>626.80004882812</ele>
        <time>2012-06-16T09:34:46Z</time>
      </trkpt>
      <trkpt lat="45.40261" lon="5.70017">
        <ele>626.90002441406</ele>
        <time>2012-06-16T09:35:01Z</time>
      </trkpt>
      <trkpt lat="45.40262" lon="5.70004">
        <ele>626.30004882812</ele>
        <time>2012-06-16T09:35:07Z</time>
      </trkpt>
      <trkpt lat="45.40267" lon="5.69979">
        <ele>626.40002441406</ele>
        <time>2012-06-16T09:35:20Z</time>
      </trkpt>
      <trkpt lat="45.40282" lon="5.69962">
        <ele>625.69995117188</ele>
        <time>2012-06-16T09:36:17Z</time>
      </trkpt>
      <trkpt lat="45.40298" lon="5.69949">
        <ele>623.69995117188</ele>
        <time>2012-06-16T09:36:32Z</time>
      </trkpt>
      <trkpt lat="45.40315" lon="5.69933">
        <ele>622.5</ele>
        <time>2012-06-16T09:36:45Z</time>
      </trkpt>
      <trkpt lat="45.40323" lon="5.69908">
        <ele>622.90002441406</ele>
        <time>2012-06-16T09:36:57Z</time>
      </trkpt>
      <trkpt lat="45.40331" lon="5.69867">
        <ele>623.80004882812</ele>
        <time>2012-06-16T09:37:16Z</time>
      </trkpt>
      <trkpt lat="45.40335" lon="5.69841">
        <ele>624.40002441406</ele>
        <time>2012-06-16T09:37:28Z</time>
      </trkpt>
      <trkpt lat="45.40322" lon="5.69821">
        <ele>625.09997558594</ele>
        <time>2012-06-16T09:37:39Z</time>
      </trkpt>
      <trkpt lat="45.40307" lon="5.69803">
        <ele>622.30004882812</ele>
        <time>2012-06-16T09:37:48Z</time>
      </trkpt>
      <trkpt lat="45.40294" lon="5.69783">
        <ele>622.09997558594</ele>
        <time>2012-06-16T09:37:56Z</time>
      </trkpt>
      <trkpt lat="45.40281" lon="5.6976">
        <ele>621.5</ele>
        <time>2012-06-16T09:38:09Z</time>
      </trkpt>
      <trkpt lat="45.40271" lon="5.69722">
        <ele>622.80004882812</ele>
        <time>2012-06-16T09:38:30Z</time>
      </trkpt>
      <trkpt lat="45.4025" lon="5.69702">
        <ele>619.19995117188</ele>
        <time>2012-06-16T09:38:50Z</time>
      </trkpt>
      <trkpt lat="45.40222" lon="5.69693">
        <ele>618.40002441406</ele>
        <time>2012-06-16T09:39:10Z</time>
      </trkpt>
      <trkpt lat="45.40194" lon="5.69677">
        <ele>615.90002441406</ele>
        <time>2012-06-16T09:39:28Z</time>
      </trkpt>
      <trkpt lat="45.40186" lon="5.69672">
        <ele>615</ele>
        <time>2012-06-16T09:39:35Z</time>
      </trkpt>
      <trkpt lat="45.40157" lon="5.69655">
        <ele>612.59997558594</ele>
        <time>2012-06-16T09:39:50Z</time>
      </trkpt>
      <trkpt lat="45.40144" lon="5.69632">
        <ele>612.5</ele>
        <time>2012-06-16T09:39:58Z</time>
      </trkpt>
      <trkpt lat="45.40132" lon="5.69612">
        <ele>612.19995117188</ele>
        <time>2012-06-16T09:40:10Z</time>
      </trkpt>
      <trkpt lat="45.40124" lon="5.69585">
        <ele>611.5</ele>
        <time>2012-06-16T09:40:23Z</time>
      </trkpt>
      <trkpt lat="45.40123" lon="5.69573">
        <ele>612.30004882812</ele>
        <time>2012-06-16T09:40:29Z</time>
      </trkpt>
      <trkpt lat="45.40131" lon="5.69549">
        <ele>611.80004882812</ele>
        <time>2012-06-16T09:40:42Z</time>
      </trkpt>
      <trkpt lat="45.40156" lon="5.69528">
        <ele>613.19995117188</ele>
        <time>2012-06-16T09:40:56Z</time>
      </trkpt>
      <trkpt lat="45.40177" lon="5.69496">
        <ele>615.19995117188</ele>
        <time>2012-06-16T09:41:09Z</time>
      </trkpt>
      <trkpt lat="45.40191" lon="5.69455">
        <ele>619.09997558594</ele>
        <time>2012-06-16T09:41:24Z</time>
      </trkpt>
      <trkpt lat="45.40199" lon="5.69422">
        <ele>621.5</ele>
        <time>2012-06-16T09:41:30Z</time>
      </trkpt>
      <trkpt lat="45.40208" lon="5.69389">
        <ele>622.69995117188</ele>
        <time>2012-06-16T09:41:36Z</time>
      </trkpt>
      <trkpt lat="45.40212" lon="5.6935">
        <ele>626.30004882812</ele>
        <time>2012-06-16T09:41:48Z</time>
      </trkpt>
      <trkpt lat="45.40197" lon="5.69333">
        <ele>627.69995117188</ele>
        <time>2012-06-16T09:42:00Z</time>
      </trkpt>
      <trkpt lat="45.40183" lon="5.69316">
        <ele>629.40002441406</ele>
        <time>2012-06-16T09:42:12Z</time>
      </trkpt>
      <trkpt lat="45.4017" lon="5.69294">
        <ele>631.90002441406</ele>
        <time>2012-06-16T09:42:28Z</time>
      </trkpt>
      <trkpt lat="45.40154" lon="5.69276">
        <ele>633</ele>
        <time>2012-06-16T09:42:36Z</time>
      </trkpt>
      <trkpt lat="45.40137" lon="5.6926">
        <ele>634.69995117188</ele>
        <time>2012-06-16T09:42:47Z</time>
      </trkpt>
      <trkpt lat="45.40121" lon="5.69244">
        <ele>636</ele>
        <time>2012-06-16T09:43:00Z</time>
      </trkpt>
      <trkpt lat="45.40106" lon="5.69227">
        <ele>637.80004882812</ele>
        <time>2012-06-16T09:43:16Z</time>
      </trkpt>
      <trkpt lat="45.40094" lon="5.69196">
        <ele>637.09997558594</ele>
        <time>2012-06-16T09:43:21Z</time>
      </trkpt>
      <trkpt lat="45.40091" lon="5.69163">
        <ele>636.40002441406</ele>
        <time>2012-06-16T09:43:25Z</time>
      </trkpt>
      <trkpt lat="45.40092" lon="5.69134">
        <ele>639.80004882812</ele>
        <time>2012-06-16T09:43:33Z</time>
      </trkpt>
      <trkpt lat="45.40089" lon="5.69122">
        <ele>640.5</ele>
        <time>2012-06-16T09:43:44Z</time>
      </trkpt>
      <trkpt lat="45.4008" lon="5.69098">
        <ele>644.09997558594</ele>
        <time>2012-06-16T09:43:55Z</time>
      </trkpt>
      <trkpt lat="45.40074" lon="5.69086">
        <ele>646.09997558594</ele>
        <time>2012-06-16T09:44:01Z</time>
      </trkpt>
      <trkpt lat="45.40069" lon="5.69075">
        <ele>647.90002441406</ele>
        <time>2012-06-16T09:44:07Z</time>
      </trkpt>
      <trkpt lat="45.40054" lon="5.69057">
        <ele>651.30004882812</ele>
        <time>2012-06-16T09:44:22Z</time>
      </trkpt>
      <trkpt lat="45.40038" lon="5.69022">
        <ele>653.5</ele>
        <time>2012-06-16T09:44:40Z</time>
      </trkpt>
      <trkpt lat="45.40031" lon="5.68997">
        <ele>654.5</ele>
        <time>2012-06-16T09:44:51Z</time>
      </trkpt>
      <trkpt lat="45.40038" lon="5.68968">
        <ele>655.40002441406</ele>
        <time>2012-06-16T09:44:57Z</time>
      </trkpt>
      <trkpt lat="45.40046" lon="5.68937">
        <ele>655.5</ele>
        <time>2012-06-16T09:45:02Z</time>
      </trkpt>
      <trkpt lat="45.4005" lon="5.68893">
        <ele>657</ele>
        <time>2012-06-16T09:45:09Z</time>
      </trkpt>
      <trkpt lat="45.40082" lon="5.68857">
        <ele>659.19995117188</ele>
        <time>2012-06-16T09:45:23Z</time>
      </trkpt>
      <trkpt lat="45.40101" lon="5.68875">
        <ele>660.40002441406</ele>
        <time>2012-06-16T09:45:30Z</time>
      </trkpt>
      <trkpt lat="45.4013" lon="5.68893">
        <ele>662.40002441406</ele>
        <time>2012-06-16T09:45:37Z</time>
      </trkpt>
      <trkpt lat="45.40152" lon="5.68896">
        <ele>663.69995117188</ele>
        <time>2012-06-16T09:45:41Z</time>
      </trkpt>
      <trkpt lat="45.40173" lon="5.689">
        <ele>663.80004882812</ele>
        <time>2012-06-16T09:45:45Z</time>
      </trkpt>
      <trkpt lat="45.40183" lon="5.68902">
        <ele>664.59997558594</ele>
        <time>2012-06-16T09:45:47Z</time>
      </trkpt>
      <trkpt lat="45.40195" lon="5.68904">
        <ele>665.09997558594</ele>
        <time>2012-06-16T09:45:49Z</time>
      </trkpt>
      <trkpt lat="45.40205" lon="5.68906">
        <ele>665.90002441406</ele>
        <time>2012-06-16T09:45:51Z</time>
      </trkpt>
      <trkpt lat="45.40226" lon="5.68909">
        <ele>667.19995117188</ele>
        <time>2012-06-16T09:45:56Z</time>
      </trkpt>
      <trkpt lat="45.40235" lon="5.68908">
        <ele>668.19995117188</ele>
        <time>2012-06-16T09:46:01Z</time>
      </trkpt>
      <trkpt lat="45.40245" lon="5.68908">
        <ele>670</ele>
        <time>2012-06-16T09:46:09Z</time>
      </trkpt>
      <trkpt lat="45.40255" lon="5.68914">
        <ele>670.30004882812</ele>
        <time>2012-06-16T09:46:17Z</time>
      </trkpt>
      <trkpt lat="45.40265" lon="5.68917">
        <ele>670.80004882812</ele>
        <time>2012-06-16T09:46:20Z</time>
      </trkpt>
      <trkpt lat="45.40274" lon="5.68921">
        <ele>671</ele>
        <time>2012-06-16T09:46:22Z</time>
      </trkpt>
      <trkpt lat="45.40283" lon="5.68924">
        <ele>671.40002441406</ele>
        <time>2012-06-16T09:46:24Z</time>
      </trkpt>
      <trkpt lat="45.40293" lon="5.68928">
        <ele>671.5</ele>
        <time>2012-06-16T09:46:26Z</time>
      </trkpt>
      <trkpt lat="45.40313" lon="5.68934">
        <ele>673</ele>
        <time>2012-06-16T09:46:30Z</time>
      </trkpt>
      <trkpt lat="45.40332" lon="5.68941">
        <ele>674.09997558594</ele>
        <time>2012-06-16T09:46:34Z</time>
      </trkpt>
      <trkpt lat="45.40353" lon="5.6895">
        <ele>675.09997558594</ele>
        <time>2012-06-16T09:46:38Z</time>
      </trkpt>
      <trkpt lat="45.40363" lon="5.68954">
        <ele>675.5</ele>
        <time>2012-06-16T09:46:40Z</time>
      </trkpt>
      <trkpt lat="45.40374" lon="5.68959">
        <ele>675.90002441406</ele>
        <time>2012-06-16T09:46:42Z</time>
      </trkpt>
      <trkpt lat="45.40386" lon="5.68964">
        <ele>676.09997558594</ele>
        <time>2012-06-16T09:46:44Z</time>
      </trkpt>
      <trkpt lat="45.40396" lon="5.68969">
        <ele>676.19995117188</ele>
        <time>2012-06-16T09:46:46Z</time>
      </trkpt>
      <trkpt lat="45.40407" lon="5.68974">
        <ele>676.30004882812</ele>
        <time>2012-06-16T09:46:48Z</time>
      </trkpt>
      <trkpt lat="45.40416" lon="5.68978">
        <ele>676.69995117188</ele>
        <time>2012-06-16T09:46:50Z</time>
      </trkpt>
      <trkpt lat="45.40427" lon="5.68981">
        <ele>677.09997558594</ele>
        <time>2012-06-16T09:46:53Z</time>
      </trkpt>
      <trkpt lat="45.40436" lon="5.68982">
        <ele>680.09997558594</ele>
        <time>2012-06-16T09:47:00Z</time>
      </trkpt>
      <trkpt lat="45.40446" lon="5.68983">
        <ele>683.09997558594</ele>
        <time>2012-06-16T09:47:08Z</time>
      </trkpt>
      <trkpt lat="45.40454" lon="5.68991">
        <ele>684.40002441406</ele>
        <time>2012-06-16T09:47:15Z</time>
      </trkpt>
      <trkpt lat="45.40463" lon="5.68997">
        <ele>685.5</ele>
        <time>2012-06-16T09:47:22Z</time>
      </trkpt>
      <trkpt lat="45.40471" lon="5.69003">
        <ele>685.69995117188</ele>
        <time>2012-06-16T09:47:29Z</time>
      </trkpt>
      <trkpt lat="45.4048" lon="5.69009">
        <ele>687</ele>
        <time>2012-06-16T09:47:47Z</time>
      </trkpt>
      <trkpt lat="45.40496" lon="5.69021">
        <ele>688.80004882812</ele>
        <time>2012-06-16T09:48:00Z</time>
      </trkpt>
      <trkpt lat="45.40514" lon="5.69031">
        <ele>689</ele>
        <time>2012-06-16T09:48:13Z</time>
      </trkpt>
      <trkpt lat="45.40533" lon="5.69042">
        <ele>689.09997558594</ele>
        <time>2012-06-16T09:48:27Z</time>
      </trkpt>
      <trkpt lat="45.40551" lon="5.69054">
        <ele>685.40002441406</ele>
        <time>2012-06-16T09:49:50Z</time>
      </trkpt>
      <trkpt lat="45.40571" lon="5.69061">
        <ele>684.5</ele>
        <time>2012-06-16T09:50:04Z</time>
      </trkpt>
      <trkpt lat="45.4058" lon="5.69055">
        <ele>685.09997558594</ele>
        <time>2012-06-16T09:50:08Z</time>
      </trkpt>
      <trkpt lat="45.40587" lon="5.69044">
        <ele>685.30004882812</ele>
        <time>2012-06-16T09:50:11Z</time>
      </trkpt>
      <trkpt lat="45.40594" lon="5.69032">
        <ele>686.19995117188</ele>
        <time>2012-06-16T09:50:15Z</time>
      </trkpt>
      <trkpt lat="45.406" lon="5.69021">
        <ele>686.80004882812</ele>
        <time>2012-06-16T09:50:19Z</time>
      </trkpt>
      <trkpt lat="45.40605" lon="5.69011">
        <ele>688.40002441406</ele>
        <time>2012-06-16T09:50:25Z</time>
      </trkpt>
      <trkpt lat="45.4061" lon="5.69">
        <ele>688.80004882812</ele>
        <time>2012-06-16T09:50:33Z</time>
      </trkpt>
      <trkpt lat="45.40615" lon="5.68989">
        <ele>689.19995117188</ele>
        <time>2012-06-16T09:50:40Z</time>
      </trkpt>
      <trkpt lat="45.4062" lon="5.68978">
        <ele>689.19995117188</ele>
        <time>2012-06-16T09:50:47Z</time>
      </trkpt>
      <trkpt lat="45.40636" lon="5.68958">
        <ele>688.5</ele>
        <time>2012-06-16T09:51:02Z</time>
      </trkpt>
      <trkpt lat="45.4065" lon="5.68938">
        <ele>690.69995117188</ele>
        <time>2012-06-16T09:51:15Z</time>
      </trkpt>
      <trkpt lat="45.40657" lon="5.68927">
        <ele>691.90002441406</ele>
        <time>2012-06-16T09:51:21Z</time>
      </trkpt>
      <trkpt lat="45.40664" lon="5.68919">
        <ele>692.80004882812</ele>
        <time>2012-06-16T09:51:26Z</time>
      </trkpt>
      <trkpt lat="45.40671" lon="5.68909">
        <ele>693.5</ele>
        <time>2012-06-16T09:51:32Z</time>
      </trkpt>
      <trkpt lat="45.40678" lon="5.68901">
        <ele>693.30004882812</ele>
        <time>2012-06-16T09:51:38Z</time>
      </trkpt>
      <trkpt lat="45.40685" lon="5.68891">
        <ele>693.5</ele>
        <time>2012-06-16T09:51:45Z</time>
      </trkpt>
      <trkpt lat="45.40692" lon="5.68881">
        <ele>692.80004882812</ele>
        <time>2012-06-16T09:51:52Z</time>
      </trkpt>
      <trkpt lat="45.407" lon="5.68871">
        <ele>691.80004882812</ele>
        <time>2012-06-16T09:51:59Z</time>
      </trkpt>
      <trkpt lat="45.40706" lon="5.68862">
        <ele>690.90002441406</ele>
        <time>2012-06-16T09:52:05Z</time>
      </trkpt>
      <trkpt lat="45.40713" lon="5.68851">
        <ele>690.09997558594</ele>
        <time>2012-06-16T09:52:12Z</time>
      </trkpt>
      <trkpt lat="45.40719" lon="5.68841">
        <ele>689.90002441406</ele>
        <time>2012-06-16T09:52:18Z</time>
      </trkpt>
      <trkpt lat="45.40725" lon="5.6883">
        <ele>689.59997558594</ele>
        <time>2012-06-16T09:52:25Z</time>
      </trkpt>
      <trkpt lat="45.40729" lon="5.68817">
        <ele>689.19995117188</ele>
        <time>2012-06-16T09:52:32Z</time>
      </trkpt>
      <trkpt lat="45.40733" lon="5.68804">
        <ele>688.59997558594</ele>
        <time>2012-06-16T09:52:39Z</time>
      </trkpt>
      <trkpt lat="45.40745" lon="5.68783">
        <ele>687.40002441406</ele>
        <time>2012-06-16T09:52:52Z</time>
      </trkpt>
      <trkpt lat="45.40758" lon="5.68763">
        <ele>687.90002441406</ele>
        <time>2012-06-16T09:53:04Z</time>
      </trkpt>
      <trkpt lat="45.40768" lon="5.68724">
        <ele>688</ele>
        <time>2012-06-16T09:53:24Z</time>
      </trkpt>
      <trkpt lat="45.40767" lon="5.68711">
        <ele>686.5</ele>
        <time>2012-06-16T09:53:53Z</time>
      </trkpt>
      <trkpt lat="45.40791" lon="5.68734">
        <ele>679</ele>
        <time>2012-06-16T09:54:03Z</time>
      </trkpt>
      <trkpt lat="45.40817" lon="5.68745">
        <ele>677.30004882812</ele>
        <time>2012-06-16T09:54:32Z</time>
      </trkpt>
      <trkpt lat="45.40826" lon="5.6874">
        <ele>677.69995117188</ele>
        <time>2012-06-16T09:54:41Z</time>
      </trkpt>
      <trkpt lat="45.40833" lon="5.68732">
        <ele>678.69995117188</ele>
        <time>2012-06-16T09:54:49Z</time>
      </trkpt>
      <trkpt lat="45.40843" lon="5.6873">
        <ele>679.40002441406</ele>
        <time>2012-06-16T09:54:56Z</time>
      </trkpt>
      <trkpt lat="45.40853" lon="5.68734">
        <ele>679.59997558594</ele>
        <time>2012-06-16T09:55:03Z</time>
      </trkpt>
      <trkpt lat="45.40872" lon="5.68742">
        <ele>682.19995117188</ele>
        <time>2012-06-16T09:55:16Z</time>
      </trkpt>
      <trkpt lat="45.40887" lon="5.68758">
        <ele>680.09997558594</ele>
        <time>2012-06-16T09:55:27Z</time>
      </trkpt>
      <trkpt lat="45.40904" lon="5.68748">
        <ele>681.59997558594</ele>
        <time>2012-06-16T09:55:41Z</time>
      </trkpt>
      <trkpt lat="45.40921" lon="5.68758">
        <ele>675.80004882812</ele>
        <time>2012-06-16T09:55:55Z</time>
      </trkpt>
      <trkpt lat="45.40936" lon="5.68775">
        <ele>673.30004882812</ele>
        <time>2012-06-16T09:56:10Z</time>
      </trkpt>
      <trkpt lat="45.40962" lon="5.68798">
        <ele>669.30004882812</ele>
        <time>2012-06-16T09:56:24Z</time>
      </trkpt>
      <trkpt lat="45.40987" lon="5.68816">
        <ele>666</ele>
        <time>2012-06-16T09:56:44Z</time>
      </trkpt>
      <trkpt lat="45.41015" lon="5.68813">
        <ele>663.59997558594</ele>
        <time>2012-06-16T09:57:03Z</time>
      </trkpt>
      <trkpt lat="45.4103" lon="5.68797">
        <ele>662.40002441406</ele>
        <time>2012-06-16T09:57:18Z</time>
      </trkpt>
      <trkpt lat="45.41049" lon="5.68807">
        <ele>655.30004882812</ele>
        <time>2012-06-16T09:57:30Z</time>
      </trkpt>
      <trkpt lat="45.41068" lon="5.68807">
        <ele>655</ele>
        <time>2012-06-16T09:57:44Z</time>
      </trkpt>
      <trkpt lat="45.41088" lon="5.68796">
        <ele>655.19995117188</ele>
        <time>2012-06-16T09:57:53Z</time>
      </trkpt>
      <trkpt lat="45.41106" lon="5.68782">
        <ele>655.80004882812</ele>
        <time>2012-06-16T09:57:58Z</time>
      </trkpt>
      <trkpt lat="45.41122" lon="5.68757">
        <ele>656.69995117188</ele>
        <time>2012-06-16T09:58:04Z</time>
      </trkpt>
      <trkpt lat="45.41143" lon="5.68731">
        <ele>657</ele>
        <time>2012-06-16T09:58:22Z</time>
      </trkpt>
      <trkpt lat="45.41161" lon="5.68725">
        <ele>656.19995117188</ele>
        <time>2012-06-16T09:58:35Z</time>
      </trkpt>
      <trkpt lat="45.41179" lon="5.68726">
        <ele>655.5</ele>
        <time>2012-06-16T09:58:47Z</time>
      </trkpt>
      <trkpt lat="45.41208" lon="5.68739">
        <ele>658.80004882812</ele>
        <time>2012-06-16T09:59:06Z</time>
      </trkpt>
      <trkpt lat="45.41227" lon="5.6875">
        <ele>654.19995117188</ele>
        <time>2012-06-16T09:59:15Z</time>
      </trkpt>
      <trkpt lat="45.41251" lon="5.68748">
        <ele>651.09997558594</ele>
        <time>2012-06-16T09:59:21Z</time>
      </trkpt>
      <trkpt lat="45.41276" lon="5.68743">
        <ele>651.19995117188</ele>
        <time>2012-06-16T09:59:27Z</time>
      </trkpt>
      <trkpt lat="45.41281" lon="5.68732">
        <ele>651.19995117188</ele>
        <time>2012-06-16T09:59:40Z</time>
      </trkpt>
      <trkpt lat="45.41281" lon="5.68719">
        <ele>652.19995117188</ele>
        <time>2012-06-16T09:59:46Z</time>
      </trkpt>
      <trkpt lat="45.41283" lon="5.68704">
        <ele>653.69995117188</ele>
        <time>2012-06-16T09:59:53Z</time>
      </trkpt>
      <trkpt lat="45.41284" lon="5.68691">
        <ele>654.90002441406</ele>
        <time>2012-06-16T09:59:59Z</time>
      </trkpt>
      <trkpt lat="45.41286" lon="5.68675">
        <ele>655.59997558594</ele>
        <time>2012-06-16T10:00:05Z</time>
      </trkpt>
      <trkpt lat="45.41287" lon="5.68663">
        <ele>656.80004882812</ele>
        <time>2012-06-16T10:00:10Z</time>
      </trkpt>
      <trkpt lat="45.41289" lon="5.68634">
        <ele>660.40002441406</ele>
        <time>2012-06-16T10:00:22Z</time>
      </trkpt>
      <trkpt lat="45.41298" lon="5.6861">
        <ele>661.09997558594</ele>
        <time>2012-06-16T10:00:37Z</time>
      </trkpt>
      <trkpt lat="45.41315" lon="5.68594">
        <ele>663.59997558594</ele>
        <time>2012-06-16T10:00:50Z</time>
      </trkpt>
      <trkpt lat="45.41334" lon="5.68585">
        <ele>664.19995117188</ele>
        <time>2012-06-16T10:01:00Z</time>
      </trkpt>
      <trkpt lat="45.41351" lon="5.68573">
        <ele>665.59997558594</ele>
        <time>2012-06-16T10:01:12Z</time>
      </trkpt>
      <trkpt lat="45.41366" lon="5.68557">
        <ele>665</ele>
        <time>2012-06-16T10:01:20Z</time>
      </trkpt>
      <trkpt lat="45.41371" lon="5.6853">
        <ele>664.80004882812</ele>
        <time>2012-06-16T10:01:32Z</time>
      </trkpt>
      <trkpt lat="45.41382" lon="5.68508">
        <ele>664.80004882812</ele>
        <time>2012-06-16T10:01:48Z</time>
      </trkpt>
      <trkpt lat="45.41398" lon="5.6849">
        <ele>664.19995117188</ele>
        <time>2012-06-16T10:02:04Z</time>
      </trkpt>
      <trkpt lat="45.41413" lon="5.68477">
        <ele>663.59997558594</ele>
        <time>2012-06-16T10:02:17Z</time>
      </trkpt>
      <trkpt lat="45.41429" lon="5.68463">
        <ele>662.90002441406</ele>
        <time>2012-06-16T10:02:30Z</time>
      </trkpt>
      <trkpt lat="45.41447" lon="5.68458">
        <ele>661.19995117188</ele>
        <time>2012-06-16T10:02:41Z</time>
      </trkpt>
      <trkpt lat="45.41478" lon="5.6847">
        <ele>660.09997558594</ele>
        <time>2012-06-16T10:03:06Z</time>
      </trkpt>
      <trkpt lat="45.41508" lon="5.68486">
        <ele>656</ele>
        <time>2012-06-16T10:03:26Z</time>
      </trkpt>
      <trkpt lat="45.41532" lon="5.68506">
        <ele>652.5</ele>
        <time>2012-06-16T10:03:42Z</time>
      </trkpt>
      <trkpt lat="45.41553" lon="5.68532">
        <ele>652.40002441406</ele>
        <time>2012-06-16T10:04:00Z</time>
      </trkpt>
      <trkpt lat="45.41567" lon="5.68548">
        <ele>654.09997558594</ele>
        <time>2012-06-16T10:04:11Z</time>
      </trkpt>
      <trkpt lat="45.41564" lon="5.68531">
        <ele>654.69995117188</ele>
        <time>2012-06-16T10:04:39Z</time>
      </trkpt>
      <trkpt lat="45.41562" lon="5.68505">
        <ele>657.69995117188</ele>
        <time>2012-06-16T10:04:54Z</time>
      </trkpt>
      <trkpt lat="45.41562" lon="5.68479">
        <ele>662.80004882812</ele>
        <time>2012-06-16T10:05:05Z</time>
      </trkpt>
      <trkpt lat="45.41576" lon="5.68444">
        <ele>667.30004882812</ele>
        <time>2012-06-16T10:05:25Z</time>
      </trkpt>
      <trkpt lat="45.41582" lon="5.68418">
        <ele>674</ele>
        <time>2012-06-16T10:05:39Z</time>
      </trkpt>
      <trkpt lat="45.41586" lon="5.68391">
        <ele>678.59997558594</ele>
        <time>2012-06-16T10:05:53Z</time>
      </trkpt>
      <trkpt lat="45.41598" lon="5.68368">
        <ele>679.5</ele>
        <time>2012-06-16T10:06:07Z</time>
      </trkpt>
      <trkpt lat="45.41614" lon="5.6835">
        <ele>680.19995117188</ele>
        <time>2012-06-16T10:06:21Z</time>
      </trkpt>
      <trkpt lat="45.41641" lon="5.68355">
        <ele>684</ele>
        <time>2012-06-16T10:06:46Z</time>
      </trkpt>
      <trkpt lat="45.41661" lon="5.68362">
        <ele>681.40002441406</ele>
        <time>2012-06-16T10:06:57Z</time>
      </trkpt>
      <trkpt lat="45.41682" lon="5.68393">
        <ele>684.80004882812</ele>
        <time>2012-06-16T10:07:19Z</time>
      </trkpt>
      <trkpt lat="45.41697" lon="5.68378">
        <ele>687</ele>
        <time>2012-06-16T10:07:44Z</time>
      </trkpt>
      <trkpt lat="45.41709" lon="5.68399">
        <ele>690</ele>
        <time>2012-06-16T10:08:06Z</time>
      </trkpt>
      <trkpt lat="45.41732" lon="5.68421">
        <ele>692.40002441406</ele>
        <time>2012-06-16T10:08:34Z</time>
      </trkpt>
      <trkpt lat="45.41748" lon="5.68435">
        <ele>693.80004882812</ele>
        <time>2012-06-16T10:08:51Z</time>
      </trkpt>
      <trkpt lat="45.41762" lon="5.68454">
        <ele>696.09997558594</ele>
        <time>2012-06-16T10:09:11Z</time>
      </trkpt>
      <trkpt lat="45.41775" lon="5.68473">
        <ele>701.19995117188</ele>
        <time>2012-06-16T10:09:30Z</time>
      </trkpt>
      <trkpt lat="45.41791" lon="5.68494">
        <ele>701.69995117188</ele>
        <time>2012-06-16T10:09:44Z</time>
      </trkpt>
      <trkpt lat="45.41809" lon="5.68515">
        <ele>700.80004882812</ele>
        <time>2012-06-16T10:09:50Z</time>
      </trkpt>
      <trkpt lat="45.41826" lon="5.68551">
        <ele>703.30004882812</ele>
        <time>2012-06-16T10:10:05Z</time>
      </trkpt>
      <trkpt lat="45.41841" lon="5.68585">
        <ele>705.30004882812</ele>
        <time>2012-06-16T10:10:26Z</time>
      </trkpt>
      <trkpt lat="45.41854" lon="5.68608">
        <ele>707.69995117188</ele>
        <time>2012-06-16T10:10:39Z</time>
      </trkpt>
      <trkpt lat="45.41866" lon="5.68629">
        <ele>710</ele>
        <time>2012-06-16T10:11:00Z</time>
      </trkpt>
      <trkpt lat="45.41883" lon="5.68644">
        <ele>711.69995117188</ele>
        <time>2012-06-16T10:11:14Z</time>
      </trkpt>
      <trkpt lat="45.41899" lon="5.6866">
        <ele>712.69995117188</ele>
        <time>2012-06-16T10:11:26Z</time>
      </trkpt>
      <trkpt lat="45.41917" lon="5.68692">
        <ele>715.69995117188</ele>
        <time>2012-06-16T10:11:47Z</time>
      </trkpt>
      <trkpt lat="45.41925" lon="5.68717">
        <ele>716.90002441406</ele>
        <time>2012-06-16T10:12:02Z</time>
      </trkpt>
      <trkpt lat="45.41936" lon="5.68738">
        <ele>719.40002441406</ele>
        <time>2012-06-16T10:12:21Z</time>
      </trkpt>
      <trkpt lat="45.41949" lon="5.68757">
        <ele>722</ele>
        <time>2012-06-16T10:12:35Z</time>
      </trkpt>
      <trkpt lat="45.41968" lon="5.68763">
        <ele>722</ele>
        <time>2012-06-16T10:12:53Z</time>
      </trkpt>
      <trkpt lat="45.41991" lon="5.68769">
        <ele>727.09997558594</ele>
        <time>2012-06-16T10:13:20Z</time>
      </trkpt>
      <trkpt lat="45.42022" lon="5.68773">
        <ele>734</ele>
        <time>2012-06-16T10:14:36Z</time>
      </trkpt>
      <trkpt lat="45.42039" lon="5.68785">
        <ele>735.69995117188</ele>
        <time>2012-06-16T10:15:01Z</time>
      </trkpt>
      <trkpt lat="45.42049" lon="5.68809">
        <ele>745.40002441406</ele>
        <time>2012-06-16T10:16:19Z</time>
      </trkpt>
      <trkpt lat="45.4204" lon="5.68833">
        <ele>746.59997558594</ele>
        <time>2012-06-16T10:16:39Z</time>
      </trkpt>
      <trkpt lat="45.42031" lon="5.68861">
        <ele>746</ele>
        <time>2012-06-16T10:17:00Z</time>
      </trkpt>
      <trkpt lat="45.4203" lon="5.68888">
        <ele>745.69995117188</ele>
        <time>2012-06-16T10:17:17Z</time>
      </trkpt>
      <trkpt lat="45.42036" lon="5.68914">
        <ele>745.69995117188</ele>
        <time>2012-06-16T10:17:32Z</time>
      </trkpt>
      <trkpt lat="45.42046" lon="5.68941">
        <ele>746.90002441406</ele>
        <time>2012-06-16T10:17:40Z</time>
      </trkpt>
      <trkpt lat="45.42062" lon="5.68969">
        <ele>746.5</ele>
        <time>2012-06-16T10:17:46Z</time>
      </trkpt>
      <trkpt lat="45.42085" lon="5.68996">
        <ele>746.09997558594</ele>
        <time>2012-06-16T10:17:55Z</time>
      </trkpt>
      <trkpt lat="45.421" lon="5.69014">
        <ele>747.40002441406</ele>
        <time>2012-06-16T10:18:05Z</time>
      </trkpt>
      <trkpt lat="45.42119" lon="5.69045">
        <ele>750.90002441406</ele>
        <time>2012-06-16T10:18:32Z</time>
      </trkpt>
      <trkpt lat="45.42148" lon="5.69049">
        <ele>754.80004882812</ele>
        <time>2012-06-16T10:18:59Z</time>
      </trkpt>
      <trkpt lat="45.42176" lon="5.69059">
        <ele>756.90002441406</ele>
        <time>2012-06-16T10:19:24Z</time>
      </trkpt>
      <trkpt lat="45.42205" lon="5.69067">
        <ele>763.30004882812</ele>
        <time>2012-06-16T10:19:46Z</time>
      </trkpt>
      <trkpt lat="45.42236" lon="5.69067">
        <ele>771.5</ele>
        <time>2012-06-16T10:20:16Z</time>
      </trkpt>
      <trkpt lat="45.42253" lon="5.69077">
        <ele>773.09997558594</ele>
        <time>2012-06-16T10:20:32Z</time>
      </trkpt>
      <trkpt lat="45.42271" lon="5.69084">
        <ele>775</ele>
        <time>2012-06-16T10:20:47Z</time>
      </trkpt>
      <trkpt lat="45.4229" lon="5.69091">
        <ele>780.19995117188</ele>
        <time>2012-06-16T10:21:02Z</time>
      </trkpt>
      <trkpt lat="45.42307" lon="5.69103">
        <ele>783.19995117188</ele>
        <time>2012-06-16T10:21:18Z</time>
      </trkpt>
      <trkpt lat="45.42324" lon="5.69113">
        <ele>785.90002441406</ele>
        <time>2012-06-16T10:21:32Z</time>
      </trkpt>
      <trkpt lat="45.42343" lon="5.69123">
        <ele>788.5</ele>
        <time>2012-06-16T10:21:45Z</time>
      </trkpt>
      <trkpt lat="45.42358" lon="5.6914">
        <ele>788.90002441406</ele>
        <time>2012-06-16T10:22:01Z</time>
      </trkpt>
      <trkpt lat="45.42373" lon="5.69156">
        <ele>789.69995117188</ele>
        <time>2012-06-16T10:22:14Z</time>
      </trkpt>
      <trkpt lat="45.42393" lon="5.69155">
        <ele>793.19995117188</ele>
        <time>2012-06-16T10:22:30Z</time>
      </trkpt>
      <trkpt lat="45.42411" lon="5.69146">
        <ele>795.69995117188</ele>
        <time>2012-06-16T10:22:44Z</time>
      </trkpt>
      <trkpt lat="45.42429" lon="5.69157">
        <ele>794.40002441406</ele>
        <time>2012-06-16T10:23:01Z</time>
      </trkpt>
      <trkpt lat="45.42443" lon="5.69175">
        <ele>795.09997558594</ele>
        <time>2012-06-16T10:23:14Z</time>
      </trkpt>
      <trkpt lat="45.42464" lon="5.69203">
        <ele>796.90002441406</ele>
        <time>2012-06-16T10:23:36Z</time>
      </trkpt>
      <trkpt lat="45.42479" lon="5.69219">
        <ele>798</ele>
        <time>2012-06-16T10:23:54Z</time>
      </trkpt>
      <trkpt lat="45.42497" lon="5.6923">
        <ele>799.09997558594</ele>
        <time>2012-06-16T10:24:12Z</time>
      </trkpt>
      <trkpt lat="45.42515" lon="5.69239">
        <ele>800.19995117188</ele>
        <time>2012-06-16T10:24:26Z</time>
      </trkpt>
      <trkpt lat="45.42543" lon="5.69249">
        <ele>801.59997558594</ele>
        <time>2012-06-16T10:24:44Z</time>
      </trkpt>
      <trkpt lat="45.42571" lon="5.69258">
        <ele>803.40002441406</ele>
        <time>2012-06-16T10:25:11Z</time>
      </trkpt>
      <trkpt lat="45.42599" lon="5.69272">
        <ele>803.69995117188</ele>
        <time>2012-06-16T10:25:29Z</time>
      </trkpt>
      <trkpt lat="45.42613" lon="5.6929">
        <ele>805</ele>
        <time>2012-06-16T10:25:40Z</time>
      </trkpt>
      <trkpt lat="45.42606" lon="5.69313">
        <ele>805.40002441406</ele>
        <time>2012-06-16T10:26:13Z</time>
      </trkpt>
      <trkpt lat="45.42597" lon="5.69337">
        <ele>804</ele>
        <time>2012-06-16T10:26:34Z</time>
      </trkpt>
      <trkpt lat="45.4259" lon="5.69361">
        <ele>799.40002441406</ele>
        <time>2012-06-16T10:26:51Z</time>
      </trkpt>
      <trkpt lat="45.42582" lon="5.69386">
        <ele>798</ele>
        <time>2012-06-16T10:27:04Z</time>
      </trkpt>
      <trkpt lat="45.42574" lon="5.6941">
        <ele>795.90002441406</ele>
        <time>2012-06-16T10:27:18Z</time>
      </trkpt>
      <trkpt lat="45.42566" lon="5.69436">
        <ele>798.19995117188</ele>
        <time>2012-06-16T10:27:34Z</time>
      </trkpt>
      <trkpt lat="45.42569" lon="5.69462">
        <ele>797.19995117188</ele>
        <time>2012-06-16T10:27:53Z</time>
      </trkpt>
      <trkpt lat="45.42578" lon="5.69488">
        <ele>792.40002441406</ele>
        <time>2012-06-16T10:28:07Z</time>
      </trkpt>
      <trkpt lat="45.42582" lon="5.69514">
        <ele>789.80004882812</ele>
        <time>2012-06-16T10:28:21Z</time>
      </trkpt>
      <trkpt lat="45.42598" lon="5.69545">
        <ele>789.30004882812</ele>
        <time>2012-06-16T10:28:40Z</time>
      </trkpt>
      <trkpt lat="45.4261" lon="5.69567">
        <ele>787.30004882812</ele>
        <time>2012-06-16T10:28:55Z</time>
      </trkpt>
      <trkpt lat="45.4262" lon="5.6959">
        <ele>787.19995117188</ele>
        <time>2012-06-16T10:29:11Z</time>
      </trkpt>
      <trkpt lat="45.42625" lon="5.69617">
        <ele>784.09997558594</ele>
        <time>2012-06-16T10:29:28Z</time>
      </trkpt>
      <trkpt lat="45.42633" lon="5.69653">
        <ele>778</ele>
        <time>2012-06-16T10:29:58Z</time>
      </trkpt>
      <trkpt lat="45.42642" lon="5.69677">
        <ele>779.09997558594</ele>
        <time>2012-06-16T10:30:13Z</time>
      </trkpt>
      <trkpt lat="45.42651" lon="5.69704">
        <ele>778.80004882812</ele>
        <time>2012-06-16T10:30:29Z</time>
      </trkpt>
      <trkpt lat="45.42659" lon="5.69727">
        <ele>779.90002441406</ele>
        <time>2012-06-16T10:30:44Z</time>
      </trkpt>
      <trkpt lat="45.4267" lon="5.69749">
        <ele>780.5</ele>
        <time>2012-06-16T10:30:59Z</time>
      </trkpt>
      <trkpt lat="45.42681" lon="5.6977">
        <ele>776.19995117188</ele>
        <time>2012-06-16T10:31:12Z</time>
      </trkpt>
      <trkpt lat="45.42694" lon="5.69789">
        <ele>775.5</ele>
        <time>2012-06-16T10:31:26Z</time>
      </trkpt>
      <trkpt lat="45.42705" lon="5.69813">
        <ele>775.69995117188</ele>
        <time>2012-06-16T10:31:41Z</time>
      </trkpt>
      <trkpt lat="45.42705" lon="5.69826">
        <ele>774.90002441406</ele>
        <time>2012-06-16T10:31:48Z</time>
      </trkpt>
      <trkpt lat="45.42711" lon="5.69853">
        <ele>774.5</ele>
        <time>2012-06-16T10:32:04Z</time>
      </trkpt>
      <trkpt lat="45.42722" lon="5.69874">
        <ele>773.90002441406</ele>
        <time>2012-06-16T10:32:19Z</time>
      </trkpt>
      <trkpt lat="45.42737" lon="5.69892">
        <ele>775</ele>
        <time>2012-06-16T10:32:35Z</time>
      </trkpt>
      <trkpt lat="45.42763" lon="5.6991">
        <ele>776.80004882812</ele>
        <time>2012-06-16T10:32:55Z</time>
      </trkpt>
      <trkpt lat="45.42778" lon="5.69945">
        <ele>773.59997558594</ele>
        <time>2012-06-16T10:33:19Z</time>
      </trkpt>
      <trkpt lat="45.42794" lon="5.69962">
        <ele>774</ele>
        <time>2012-06-16T10:33:32Z</time>
      </trkpt>
      <trkpt lat="45.42816" lon="5.69988">
        <ele>777.30004882812</ele>
        <time>2012-06-16T10:33:53Z</time>
      </trkpt>
      <trkpt lat="45.42839" lon="5.70011">
        <ele>776.90002441406</ele>
        <time>2012-06-16T10:34:13Z</time>
      </trkpt>
      <trkpt lat="45.42861" lon="5.70041">
        <ele>776.5</ele>
        <time>2012-06-16T10:34:29Z</time>
      </trkpt>
      <trkpt lat="45.42868" lon="5.70066">
        <ele>770.59997558594</ele>
        <time>2012-06-16T10:34:44Z</time>
      </trkpt>
      <trkpt lat="45.42881" lon="5.70088">
        <ele>770.30004882812</ele>
        <time>2012-06-16T10:34:58Z</time>
      </trkpt>
      <trkpt lat="45.42906" lon="5.70105">
        <ele>770.09997558594</ele>
        <time>2012-06-16T10:35:25Z</time>
      </trkpt>
      <trkpt lat="45.42906" lon="5.70113">
        <ele>761</ele>
        <time>2012-06-16T10:39:46Z</time>
      </trkpt>
      <trkpt lat="45.42922" lon="5.70128">
        <ele>763</ele>
        <time>2012-06-16T10:41:32Z</time>
      </trkpt>
      <trkpt lat="45.42868" lon="5.70691">
        <ele>658.69995117188</ele>
        <time>2012-06-16T11:46:08Z</time>
      </trkpt>
      <trkpt lat="45.42879" lon="5.7073">
        <ele>653.69995117188</ele>
        <time>2012-06-16T11:46:24Z</time>
      </trkpt>
      <trkpt lat="45.42876" lon="5.70765">
        <ele>653.80004882812</ele>
        <time>2012-06-16T11:47:29Z</time>
      </trkpt>
      <trkpt lat="45.42883" lon="5.70775">
        <ele>651.30004882812</ele>
        <time>2012-06-16T11:50:12Z</time>
      </trkpt>
      <trkpt lat="45.42873" lon="5.70776">
        <ele>649.5</ele>
        <time>2012-06-16T11:50:28Z</time>
      </trkpt>
      <trkpt lat="45.42855" lon="5.70765">
        <ele>650.90002441406</ele>
        <time>2012-06-16T11:50:42Z</time>
      </trkpt>
      <trkpt lat="45.42845" lon="5.7076">
        <ele>651.5</ele>
        <time>2012-06-16T11:50:49Z</time>
      </trkpt>
      <trkpt lat="45.42837" lon="5.70752">
        <ele>651.09997558594</ele>
        <time>2012-06-16T11:50:57Z</time>
      </trkpt>
      <trkpt lat="45.42829" lon="5.70745">
        <ele>651.19995117188</ele>
        <time>2012-06-16T11:51:04Z</time>
      </trkpt>
      <trkpt lat="45.42817" lon="5.70756">
        <ele>650</ele>
        <time>2012-06-16T11:51:24Z</time>
      </trkpt>
      <trkpt lat="45.42808" lon="5.7078">
        <ele>651</ele>
        <time>2012-06-16T11:51:52Z</time>
      </trkpt>
      <trkpt lat="45.42803" lon="5.70806">
        <ele>647.30004882812</ele>
        <time>2012-06-16T11:52:14Z</time>
      </trkpt>
      <trkpt lat="45.42798" lon="5.70827">
        <ele>645.80004882812</ele>
        <time>2012-06-16T11:52:47Z</time>
      </trkpt>
      <trkpt lat="45.42763" lon="5.70804">
        <ele>637.59997558594</ele>
        <time>2012-06-16T11:53:09Z</time>
      </trkpt>
      <trkpt lat="45.42744" lon="5.70807">
        <ele>631.19995117188</ele>
        <time>2012-06-16T11:53:29Z</time>
      </trkpt>
      <trkpt lat="45.42735" lon="5.7081">
        <ele>630</ele>
        <time>2012-06-16T11:53:38Z</time>
      </trkpt>
      <trkpt lat="45.42717" lon="5.70803">
        <ele>624.69995117188</ele>
        <time>2012-06-16T11:54:14Z</time>
      </trkpt>
      <trkpt lat="45.42697" lon="5.708">
        <ele>622.59997558594</ele>
        <time>2012-06-16T11:54:39Z</time>
      </trkpt>
      <trkpt lat="45.42676" lon="5.70812">
        <ele>617.09997558594</ele>
        <time>2012-06-16T11:55:20Z</time>
      </trkpt>
      <trkpt lat="45.42663" lon="5.70846">
        <ele>608.59997558594</ele>
        <time>2012-06-16T11:55:49Z</time>
      </trkpt>
      <trkpt lat="45.42649" lon="5.70867">
        <ele>602.09997558594</ele>
        <time>2012-06-16T11:56:54Z</time>
      </trkpt>
      <trkpt lat="45.42635" lon="5.70885">
        <ele>596.19995117188</ele>
        <time>2012-06-16T11:57:28Z</time>
      </trkpt>
      <trkpt lat="45.42619" lon="5.70897">
        <ele>591.09997558594</ele>
        <time>2012-06-16T11:57:46Z</time>
      </trkpt>
      <trkpt lat="45.42601" lon="5.70903">
        <ele>585.09997558594</ele>
        <time>2012-06-16T11:58:16Z</time>
      </trkpt>
      <trkpt lat="45.42589" lon="5.70922">
        <ele>582.40002441406</ele>
        <time>2012-06-16T11:58:35Z</time>
      </trkpt>
      <trkpt lat="45.42581" lon="5.70946">
        <ele>581.40002441406</ele>
        <time>2012-06-16T11:58:53Z</time>
      </trkpt>
      <trkpt lat="45.42573" lon="5.7097">
        <ele>579.30004882812</ele>
        <time>2012-06-16T11:59:08Z</time>
      </trkpt>
      <trkpt lat="45.42563" lon="5.70974">
        <ele>576.5</ele>
        <time>2012-06-16T11:59:15Z</time>
      </trkpt>
      <trkpt lat="45.42543" lon="5.70971">
        <ele>573.30004882812</ele>
        <time>2012-06-16T11:59:29Z</time>
      </trkpt>
      <trkpt lat="45.42523" lon="5.70968">
        <ele>571.09997558594</ele>
        <time>2012-06-16T11:59:45Z</time>
      </trkpt>
      <trkpt lat="45.42504" lon="5.70966">
        <ele>569.90002441406</ele>
        <time>2012-06-16T11:59:57Z</time>
      </trkpt>
      <trkpt lat="45.42485" lon="5.70962">
        <ele>565.09997558594</ele>
        <time>2012-06-16T12:00:13Z</time>
      </trkpt>
      <trkpt lat="45.42466" lon="5.70957">
        <ele>559.09997558594</ele>
        <time>2012-06-16T12:00:29Z</time>
      </trkpt>
      <trkpt lat="45.42448" lon="5.70967">
        <ele>556.09997558594</ele>
        <time>2012-06-16T12:00:42Z</time>
      </trkpt>
      <trkpt lat="45.42437" lon="5.70989">
        <ele>547.19995117188</ele>
        <time>2012-06-16T12:03:23Z</time>
      </trkpt>
      <trkpt lat="45.42419" lon="5.7098">
        <ele>547.19995117188</ele>
        <time>2012-06-16T12:03:44Z</time>
      </trkpt>
      <trkpt lat="45.4241" lon="5.70976">
        <ele>547.19995117188</ele>
        <time>2012-06-16T12:03:52Z</time>
      </trkpt>
      <trkpt lat="45.42393" lon="5.70986">
        <ele>545</ele>
        <time>2012-06-16T12:04:12Z</time>
      </trkpt>
      <trkpt lat="45.42388" lon="5.71013">
        <ele>544.19995117188</ele>
        <time>2012-06-16T12:04:27Z</time>
      </trkpt>
      <trkpt lat="45.42378" lon="5.71036">
        <ele>543.59997558594</ele>
        <time>2012-06-16T12:04:42Z</time>
      </trkpt>
      <trkpt lat="45.42372" lon="5.71047">
        <ele>542.40002441406</ele>
        <time>2012-06-16T12:04:50Z</time>
      </trkpt>
      <trkpt lat="45.42357" lon="5.7106">
        <ele>538.30004882812</ele>
        <time>2012-06-16T12:05:05Z</time>
      </trkpt>
      <trkpt lat="45.42338" lon="5.71067">
        <ele>536.59997558594</ele>
        <time>2012-06-16T12:05:19Z</time>
      </trkpt>
      <trkpt lat="45.42319" lon="5.71067">
        <ele>535.69995117188</ele>
        <time>2012-06-16T12:05:33Z</time>
      </trkpt>
      <trkpt lat="45.42303" lon="5.71081">
        <ele>532.69995117188</ele>
        <time>2012-06-16T12:05:49Z</time>
      </trkpt>
      <trkpt lat="45.42291" lon="5.71101">
        <ele>532.30004882812</ele>
        <time>2012-06-16T12:06:04Z</time>
      </trkpt>
      <trkpt lat="45.42281" lon="5.71123">
        <ele>531.40002441406</ele>
        <time>2012-06-16T12:06:17Z</time>
      </trkpt>
      <trkpt lat="45.42269" lon="5.71145">
        <ele>529.59997558594</ele>
        <time>2012-06-16T12:06:32Z</time>
      </trkpt>
      <trkpt lat="45.42258" lon="5.71167">
        <ele>529.40002441406</ele>
        <time>2012-06-16T12:06:46Z</time>
      </trkpt>
      <trkpt lat="45.42244" lon="5.71187">
        <ele>526.09997558594</ele>
        <time>2012-06-16T12:07:02Z</time>
      </trkpt>
      <trkpt lat="45.42229" lon="5.71202">
        <ele>520.5</ele>
        <time>2012-06-16T12:07:18Z</time>
      </trkpt>
      <trkpt lat="45.42213" lon="5.7122">
        <ele>516.79998779297</ele>
        <time>2012-06-16T12:07:34Z</time>
      </trkpt>
      <trkpt lat="45.42207" lon="5.7123">
        <ele>514.90002441406</ele>
        <time>2012-06-16T12:07:42Z</time>
      </trkpt>
      <trkpt lat="45.42201" lon="5.71242">
        <ele>512.5</ele>
        <time>2012-06-16T12:07:51Z</time>
      </trkpt>
      <trkpt lat="45.42197" lon="5.71253">
        <ele>512.40002441406</ele>
        <time>2012-06-16T12:07:58Z</time>
      </trkpt>
      <trkpt lat="45.4219" lon="5.71264">
        <ele>511.59997558594</ele>
        <time>2012-06-16T12:08:06Z</time>
      </trkpt>
      <trkpt lat="45.42187" lon="5.71276">
        <ele>508.70001220703</ele>
        <time>2012-06-16T12:08:13Z</time>
      </trkpt>
      <trkpt lat="45.4218" lon="5.71288">
        <ele>506.79998779297</ele>
        <time>2012-06-16T12:08:23Z</time>
      </trkpt>
      <trkpt lat="45.42175" lon="5.71297">
        <ele>505.79998779297</ele>
        <time>2012-06-16T12:08:31Z</time>
      </trkpt>
      <trkpt lat="45.42169" lon="5.71308">
        <ele>501.70001220703</ele>
        <time>2012-06-16T12:09:28Z</time>
      </trkpt>
      <trkpt lat="45.42162" lon="5.71317">
        <ele>501.09997558594</ele>
        <time>2012-06-16T12:09:35Z</time>
      </trkpt>
      <trkpt lat="45.42155" lon="5.71327">
        <ele>501</ele>
        <time>2012-06-16T12:09:42Z</time>
      </trkpt>
      <trkpt lat="45.42148" lon="5.71337">
        <ele>500.90002441406</ele>
        <time>2012-06-16T12:09:49Z</time>
      </trkpt>
      <trkpt lat="45.42141" lon="5.71346">
        <ele>500.20001220703</ele>
        <time>2012-06-16T12:09:56Z</time>
      </trkpt>
      <trkpt lat="45.42134" lon="5.71357">
        <ele>498.29998779297</ele>
        <time>2012-06-16T12:10:04Z</time>
      </trkpt>
      <trkpt lat="45.42127" lon="5.71366">
        <ele>497</ele>
        <time>2012-06-16T12:10:12Z</time>
      </trkpt>
      <trkpt lat="45.4212" lon="5.71376">
        <ele>495.20001220703</ele>
        <time>2012-06-16T12:10:20Z</time>
      </trkpt>
      <trkpt lat="45.42105" lon="5.71396">
        <ele>494.29998779297</ele>
        <time>2012-06-16T12:10:34Z</time>
      </trkpt>
      <trkpt lat="45.42092" lon="5.71416">
        <ele>494.79998779297</ele>
        <time>2012-06-16T12:10:48Z</time>
      </trkpt>
      <trkpt lat="45.4208" lon="5.71438">
        <ele>495.29998779297</ele>
        <time>2012-06-16T12:11:02Z</time>
      </trkpt>
      <trkpt lat="45.42068" lon="5.7146">
        <ele>491.5</ele>
        <time>2012-06-16T12:12:26Z</time>
      </trkpt>
      <trkpt lat="45.4207" lon="5.71488">
        <ele>491.5</ele>
        <time>2012-06-16T12:12:36Z</time>
      </trkpt>
      <trkpt lat="45.42085" lon="5.71508">
        <ele>491.90002441406</ele>
        <time>2012-06-16T12:12:48Z</time>
      </trkpt>
      <trkpt lat="45.42096" lon="5.71532">
        <ele>495</ele>
        <time>2012-06-16T12:13:04Z</time>
      </trkpt>
      <trkpt lat="45.42106" lon="5.71554">
        <ele>496.09997558594</ele>
        <time>2012-06-16T12:13:15Z</time>
      </trkpt>
      <trkpt lat="45.42114" lon="5.71592">
        <ele>499.09997558594</ele>
        <time>2012-06-16T12:13:35Z</time>
      </trkpt>
      <trkpt lat="45.42113" lon="5.71634">
        <ele>498.40002441406</ele>
        <time>2012-06-16T12:13:55Z</time>
      </trkpt>
      <trkpt lat="45.42113" lon="5.71674">
        <ele>505.70001220703</ele>
        <time>2012-06-16T12:14:14Z</time>
      </trkpt>
      <trkpt lat="45.42121" lon="5.717">
        <ele>512.40002441406</ele>
        <time>2012-06-16T12:14:30Z</time>
      </trkpt>
      <trkpt lat="45.42106" lon="5.71716">
        <ele>512.59997558594</ele>
        <time>2012-06-16T12:14:40Z</time>
      </trkpt>
      <trkpt lat="45.42086" lon="5.71745">
        <ele>516.90002441406</ele>
        <time>2012-06-16T12:14:59Z</time>
      </trkpt>
      <trkpt lat="45.4207" lon="5.71782">
        <ele>517.59997558594</ele>
        <time>2012-06-16T12:15:11Z</time>
      </trkpt>
      <trkpt lat="45.42061" lon="5.71808">
        <ele>518.59997558594</ele>
        <time>2012-06-16T12:15:15Z</time>
      </trkpt>
      <trkpt lat="45.42055" lon="5.71839">
        <ele>520.09997558594</ele>
        <time>2012-06-16T12:15:19Z</time>
      </trkpt>
      <trkpt lat="45.4205" lon="5.71875">
        <ele>523.59997558594</ele>
        <time>2012-06-16T12:15:23Z</time>
      </trkpt>
      <trkpt lat="45.4204" lon="5.71915">
        <ele>528.80004882812</ele>
        <time>2012-06-16T12:15:35Z</time>
      </trkpt>
      <trkpt lat="45.42027" lon="5.71952">
        <ele>534.59997558594</ele>
        <time>2012-06-16T12:15:56Z</time>
      </trkpt>
      <trkpt lat="45.4202" lon="5.71993">
        <ele>541.59997558594</ele>
        <time>2012-06-16T12:16:20Z</time>
      </trkpt>
      <trkpt lat="45.42009" lon="5.72016">
        <ele>543.09997558594</ele>
        <time>2012-06-16T12:16:36Z</time>
      </trkpt>
      <trkpt lat="45.41999" lon="5.72039">
        <ele>544.30004882812</ele>
        <time>2012-06-16T12:16:47Z</time>
      </trkpt>
      <trkpt lat="45.41993" lon="5.72066">
        <ele>547.80004882812</ele>
        <time>2012-06-16T12:16:58Z</time>
      </trkpt>
      <trkpt lat="45.41985" lon="5.72093">
        <ele>551.90002441406</ele>
        <time>2012-06-16T12:17:10Z</time>
      </trkpt>
      <trkpt lat="45.41979" lon="5.72119">
        <ele>556.09997558594</ele>
        <time>2012-06-16T12:17:20Z</time>
      </trkpt>
      <trkpt lat="45.41971" lon="5.72145">
        <ele>558.5</ele>
        <time>2012-06-16T12:17:28Z</time>
      </trkpt>
      <trkpt lat="45.41964" lon="5.72173">
        <ele>564.19995117188</ele>
        <time>2012-06-16T12:17:38Z</time>
      </trkpt>
      <trkpt lat="45.41956" lon="5.72196">
        <ele>567.40002441406</ele>
        <time>2012-06-16T12:17:50Z</time>
      </trkpt>
      <trkpt lat="45.41946" lon="5.72219">
        <ele>569.40002441406</ele>
        <time>2012-06-16T12:18:02Z</time>
      </trkpt>
      <trkpt lat="45.41936" lon="5.72244">
        <ele>574.40002441406</ele>
        <time>2012-06-16T12:18:15Z</time>
      </trkpt>
      <trkpt lat="45.41938" lon="5.72268">
        <ele>578.30004882812</ele>
        <time>2012-06-16T12:18:35Z</time>
      </trkpt>
      <trkpt lat="45.41956" lon="5.72276">
        <ele>578.80004882812</ele>
        <time>2012-06-16T12:18:50Z</time>
      </trkpt>
      <trkpt lat="45.41974" lon="5.72285">
        <ele>578.90002441406</ele>
        <time>2012-06-16T12:19:05Z</time>
      </trkpt>
      <trkpt lat="45.41993" lon="5.72295">
        <ele>579.40002441406</ele>
        <time>2012-06-16T12:19:18Z</time>
      </trkpt>
      <trkpt lat="45.4201" lon="5.72309">
        <ele>582.30004882812</ele>
        <time>2012-06-16T12:19:33Z</time>
      </trkpt>
      <trkpt lat="45.42026" lon="5.72326">
        <ele>581.30004882812</ele>
        <time>2012-06-16T12:19:44Z</time>
      </trkpt>
      <trkpt lat="45.4204" lon="5.72344">
        <ele>581.30004882812</ele>
        <time>2012-06-16T12:19:53Z</time>
      </trkpt>
      <trkpt lat="45.42056" lon="5.72364">
        <ele>581.80004882812</ele>
        <time>2012-06-16T12:20:03Z</time>
      </trkpt>
      <trkpt lat="45.42072" lon="5.72383">
        <ele>582.19995117188</ele>
        <time>2012-06-16T12:20:14Z</time>
      </trkpt>
      <trkpt lat="45.42086" lon="5.72402">
        <ele>582.80004882812</ele>
        <time>2012-06-16T12:20:26Z</time>
      </trkpt>
      <trkpt lat="45.42104" lon="5.72413">
        <ele>581.90002441406</ele>
        <time>2012-06-16T12:20:44Z</time>
      </trkpt>
      <trkpt lat="45.42121" lon="5.72434">
        <ele>579.90002441406</ele>
        <time>2012-06-16T12:20:54Z</time>
      </trkpt>
      <trkpt lat="45.42132" lon="5.72456">
        <ele>576.40002441406</ele>
        <time>2012-06-16T12:21:03Z</time>
      </trkpt>
      <trkpt lat="45.42143" lon="5.72481">
        <ele>573.69995117188</ele>
        <time>2012-06-16T12:21:13Z</time>
      </trkpt>
      <trkpt lat="45.4215" lon="5.72504">
        <ele>573.30004882812</ele>
        <time>2012-06-16T12:21:22Z</time>
      </trkpt>
      <trkpt lat="45.42157" lon="5.72528">
        <ele>574.30004882812</ele>
        <time>2012-06-16T12:22:03Z</time>
      </trkpt>
      <trkpt lat="45.42169" lon="5.72547">
        <ele>575.19995117188</ele>
        <time>2012-06-16T12:22:16Z</time>
      </trkpt>
      <trkpt lat="45.42178" lon="5.72572">
        <ele>573.90002441406</ele>
        <time>2012-06-16T12:22:28Z</time>
      </trkpt>
      <trkpt lat="45.42184" lon="5.726">
        <ele>573.40002441406</ele>
        <time>2012-06-16T12:22:42Z</time>
      </trkpt>
      <trkpt lat="45.42185" lon="5.72629">
        <ele>572</ele>
        <time>2012-06-16T12:22:58Z</time>
      </trkpt>
      <trkpt lat="45.42188" lon="5.72655">
        <ele>573.19995117188</ele>
        <time>2012-06-16T12:23:10Z</time>
      </trkpt>
      <trkpt lat="45.4219" lon="5.72682">
        <ele>576.80004882812</ele>
        <time>2012-06-16T12:23:20Z</time>
      </trkpt>
      <trkpt lat="45.42191" lon="5.72709">
        <ele>578.19995117188</ele>
        <time>2012-06-16T12:23:33Z</time>
      </trkpt>
      <trkpt lat="45.42195" lon="5.72737">
        <ele>578.09997558594</ele>
        <time>2012-06-16T12:23:48Z</time>
      </trkpt>
      <trkpt lat="45.42193" lon="5.72779">
        <ele>582</ele>
        <time>2012-06-16T12:24:05Z</time>
      </trkpt>
      <trkpt lat="45.42198" lon="5.72819">
        <ele>577.30004882812</ele>
        <time>2012-06-16T12:24:23Z</time>
      </trkpt>
      <trkpt lat="45.42205" lon="5.72862">
        <ele>573.30004882812</ele>
        <time>2012-06-16T12:24:46Z</time>
      </trkpt>
      <trkpt lat="45.42218" lon="5.72898">
        <ele>567.5</ele>
        <time>2012-06-16T12:25:05Z</time>
      </trkpt>
      <trkpt lat="45.42224" lon="5.72926">
        <ele>567.80004882812</ele>
        <time>2012-06-16T12:25:21Z</time>
      </trkpt>
      <trkpt lat="45.4223" lon="5.72954">
        <ele>563.80004882812</ele>
        <time>2012-06-16T12:25:30Z</time>
      </trkpt>
      <trkpt lat="45.42236" lon="5.72981">
        <ele>563</ele>
        <time>2012-06-16T12:25:42Z</time>
      </trkpt>
      <trkpt lat="45.42252" lon="5.73015">
        <ele>560.09997558594</ele>
        <time>2012-06-16T12:26:03Z</time>
      </trkpt>
      <trkpt lat="45.42272" lon="5.73047">
        <ele>557.80004882812</ele>
        <time>2012-06-16T12:26:23Z</time>
      </trkpt>
      <trkpt lat="45.42283" lon="5.73071">
        <ele>553.80004882812</ele>
        <time>2012-06-16T12:26:33Z</time>
      </trkpt>
      <trkpt lat="45.42297" lon="5.73092">
        <ele>551</ele>
        <time>2012-06-16T12:26:43Z</time>
      </trkpt>
      <trkpt lat="45.4231" lon="5.73114">
        <ele>551.30004882812</ele>
        <time>2012-06-16T12:26:59Z</time>
      </trkpt>
      <trkpt lat="45.42325" lon="5.7315">
        <ele>551.19995117188</ele>
        <time>2012-06-16T12:27:14Z</time>
      </trkpt>
      <trkpt lat="45.4235" lon="5.7318">
        <ele>550.30004882812</ele>
        <time>2012-06-16T12:27:33Z</time>
      </trkpt>
      <trkpt lat="45.42361" lon="5.73205">
        <ele>549.90002441406</ele>
        <time>2012-06-16T12:27:43Z</time>
      </trkpt>
      <trkpt lat="45.42378" lon="5.73236">
        <ele>555.19995117188</ele>
        <time>2012-06-16T12:28:04Z</time>
      </trkpt>
      <trkpt lat="45.42388" lon="5.73277">
        <ele>552.80004882812</ele>
        <time>2012-06-16T12:28:24Z</time>
      </trkpt>
      <trkpt lat="45.42402" lon="5.73316">
        <ele>548.30004882812</ele>
        <time>2012-06-16T12:28:43Z</time>
      </trkpt>
      <trkpt lat="45.42417" lon="5.73351">
        <ele>547.90002441406</ele>
        <time>2012-06-16T12:29:31Z</time>
      </trkpt>
      <trkpt lat="45.42422" lon="5.73377">
        <ele>543.80004882812</ele>
        <time>2012-06-16T12:29:48Z</time>
      </trkpt>
      <trkpt lat="45.42436" lon="5.73414">
        <ele>541.40002441406</ele>
        <time>2012-06-16T12:29:57Z</time>
      </trkpt>
      <trkpt lat="45.42451" lon="5.73454">
        <ele>540.69995117188</ele>
        <time>2012-06-16T12:30:04Z</time>
      </trkpt>
      <trkpt lat="45.42464" lon="5.73487">
        <ele>539.69995117188</ele>
        <time>2012-06-16T12:30:10Z</time>
      </trkpt>
      <trkpt lat="45.42476" lon="5.73518">
        <ele>540.90002441406</ele>
        <time>2012-06-16T12:30:16Z</time>
      </trkpt>
      <trkpt lat="45.42486" lon="5.73543">
        <ele>542</ele>
        <time>2012-06-16T12:30:24Z</time>
      </trkpt>
      <trkpt lat="45.42491" lon="5.73555">
        <ele>543.19995117188</ele>
        <time>2012-06-16T12:30:30Z</time>
      </trkpt>
      <trkpt lat="45.42496" lon="5.73566">
        <ele>544</ele>
        <time>2012-06-16T12:30:35Z</time>
      </trkpt>
      <trkpt lat="45.42499" lon="5.73578">
        <ele>545</ele>
        <time>2012-06-16T12:30:41Z</time>
      </trkpt>
      <trkpt lat="45.42503" lon="5.7359">
        <ele>544.40002441406</ele>
        <time>2012-06-16T12:30:47Z</time>
      </trkpt>
      <trkpt lat="45.42506" lon="5.73602">
        <ele>545</ele>
        <time>2012-06-16T12:30:53Z</time>
      </trkpt>
      <trkpt lat="45.42512" lon="5.73613">
        <ele>545.90002441406</ele>
        <time>2012-06-16T12:30:59Z</time>
      </trkpt>
      <trkpt lat="45.42515" lon="5.73627">
        <ele>546</ele>
        <time>2012-06-16T12:31:06Z</time>
      </trkpt>
      <trkpt lat="45.42517" lon="5.73641">
        <ele>545.40002441406</ele>
        <time>2012-06-16T12:31:14Z</time>
      </trkpt>
      <trkpt lat="45.4252" lon="5.73653">
        <ele>545.5</ele>
        <time>2012-06-16T12:31:21Z</time>
      </trkpt>
      <trkpt lat="45.42522" lon="5.73669">
        <ele>545.59997558594</ele>
        <time>2012-06-16T12:31:27Z</time>
      </trkpt>
      <trkpt lat="45.42523" lon="5.73684">
        <ele>544.90002441406</ele>
        <time>2012-06-16T12:31:32Z</time>
      </trkpt>
      <trkpt lat="45.42525" lon="5.73699">
        <ele>544.80004882812</ele>
        <time>2012-06-16T12:31:37Z</time>
      </trkpt>
      <trkpt lat="45.42525" lon="5.73712">
        <ele>545.19995117188</ele>
        <time>2012-06-16T12:31:44Z</time>
      </trkpt>
      <trkpt lat="45.42527" lon="5.73725">
        <ele>545.59997558594</ele>
        <time>2012-06-16T12:31:51Z</time>
      </trkpt>
      <trkpt lat="45.42543" lon="5.73735">
        <ele>545.80004882812</ele>
        <time>2012-06-16T12:32:05Z</time>
      </trkpt>
      <trkpt lat="45.42563" lon="5.7374">
        <ele>545.30004882812</ele>
        <time>2012-06-16T12:32:18Z</time>
      </trkpt>
      <trkpt lat="45.42583" lon="5.73742">
        <ele>544.30004882812</ele>
        <time>2012-06-16T12:32:31Z</time>
      </trkpt>
      <trkpt lat="45.42594" lon="5.73742">
        <ele>542.09997558594</ele>
        <time>2012-06-16T12:32:37Z</time>
      </trkpt>
      <trkpt lat="45.42604" lon="5.73742">
        <ele>540</ele>
        <time>2012-06-16T12:32:43Z</time>
      </trkpt>
      <trkpt lat="45.42615" lon="5.73742">
        <ele>539</ele>
        <time>2012-06-16T12:32:49Z</time>
      </trkpt>
      <trkpt lat="45.42623" lon="5.73749">
        <ele>538.09997558594</ele>
        <time>2012-06-16T12:32:56Z</time>
      </trkpt>
      <trkpt lat="45.42626" lon="5.73762">
        <ele>536.80004882812</ele>
        <time>2012-06-16T12:33:02Z</time>
      </trkpt>
      <trkpt lat="45.42626" lon="5.73775">
        <ele>535.80004882812</ele>
        <time>2012-06-16T12:33:08Z</time>
      </trkpt>
      <trkpt lat="45.42627" lon="5.73789">
        <ele>535.30004882812</ele>
        <time>2012-06-16T12:33:14Z</time>
      </trkpt>
      <trkpt lat="45.42629" lon="5.73803">
        <ele>534.69995117188</ele>
        <time>2012-06-16T12:33:21Z</time>
      </trkpt>
      <trkpt lat="45.42631" lon="5.73816">
        <ele>533.80004882812</ele>
        <time>2012-06-16T12:33:27Z</time>
      </trkpt>
      <trkpt lat="45.42632" lon="5.73829">
        <ele>533.59997558594</ele>
        <time>2012-06-16T12:33:33Z</time>
      </trkpt>
      <trkpt lat="45.42632" lon="5.73844">
        <ele>533.09997558594</ele>
        <time>2012-06-16T12:33:40Z</time>
      </trkpt>
      <trkpt lat="45.42632" lon="5.73857">
        <ele>532.5</ele>
        <time>2012-06-16T12:33:46Z</time>
      </trkpt>
      <trkpt lat="45.42631" lon="5.73872">
        <ele>531.80004882812</ele>
        <time>2012-06-16T12:33:52Z</time>
      </trkpt>
      <trkpt lat="45.42631" lon="5.73886">
        <ele>531.5</ele>
        <time>2012-06-16T12:33:58Z</time>
      </trkpt>
      <trkpt lat="45.42632" lon="5.739">
        <ele>531.19995117188</ele>
        <time>2012-06-16T12:34:04Z</time>
      </trkpt>
      <trkpt lat="45.42635" lon="5.73914">
        <ele>531.09997558594</ele>
        <time>2012-06-16T12:34:10Z</time>
      </trkpt>
      <trkpt lat="45.42636" lon="5.73928">
        <ele>530.19995117188</ele>
        <time>2012-06-16T12:34:16Z</time>
      </trkpt>
      <trkpt lat="45.42637" lon="5.73942">
        <ele>529</ele>
        <time>2012-06-16T12:34:22Z</time>
      </trkpt>
      <trkpt lat="45.42638" lon="5.73956">
        <ele>527.80004882812</ele>
        <time>2012-06-16T12:34:28Z</time>
      </trkpt>
      <trkpt lat="45.42639" lon="5.73969">
        <ele>527.19995117188</ele>
        <time>2012-06-16T12:34:34Z</time>
      </trkpt>
      <trkpt lat="45.42642" lon="5.73982">
        <ele>526.19995117188</ele>
        <time>2012-06-16T12:34:40Z</time>
      </trkpt>
      <trkpt lat="45.42644" lon="5.73995">
        <ele>525.59997558594</ele>
        <time>2012-06-16T12:34:46Z</time>
      </trkpt>
      <trkpt lat="45.42651" lon="5.7402">
        <ele>525.19995117188</ele>
        <time>2012-06-16T12:34:59Z</time>
      </trkpt>
      <trkpt lat="45.42657" lon="5.74045">
        <ele>524.69995117188</ele>
        <time>2012-06-16T12:35:13Z</time>
      </trkpt>
      <trkpt lat="45.4267" lon="5.74084">
        <ele>526.30004882812</ele>
        <time>2012-06-16T12:35:35Z</time>
      </trkpt>
      <trkpt lat="45.42678" lon="5.74108">
        <ele>525.19995117188</ele>
        <time>2012-06-16T12:35:48Z</time>
      </trkpt>
      <trkpt lat="45.42689" lon="5.74133">
        <ele>523</ele>
        <time>2012-06-16T12:36:01Z</time>
      </trkpt>
      <trkpt lat="45.42701" lon="5.74157">
        <ele>520.5</ele>
        <time>2012-06-16T12:36:12Z</time>
      </trkpt>
      <trkpt lat="45.42711" lon="5.74182">
        <ele>518.29998779297</ele>
        <time>2012-06-16T12:36:21Z</time>
      </trkpt>
      <trkpt lat="45.42721" lon="5.74206">
        <ele>517.40002441406</ele>
        <time>2012-06-16T12:36:33Z</time>
      </trkpt>
      <trkpt lat="45.42733" lon="5.74229">
        <ele>515.70001220703</ele>
        <time>2012-06-16T12:36:44Z</time>
      </trkpt>
      <trkpt lat="45.42743" lon="5.7425">
        <ele>513.5</ele>
        <time>2012-06-16T12:36:55Z</time>
      </trkpt>
      <trkpt lat="45.42752" lon="5.74273">
        <ele>510.59997558594</ele>
        <time>2012-06-16T12:37:07Z</time>
      </trkpt>
      <trkpt lat="45.42755" lon="5.74285">
        <ele>509.70001220703</ele>
        <time>2012-06-16T12:37:13Z</time>
      </trkpt>
      <trkpt lat="45.4276" lon="5.74298">
        <ele>509.5</ele>
        <time>2012-06-16T12:37:20Z</time>
      </trkpt>
      <trkpt lat="45.42769" lon="5.74321">
        <ele>508.20001220703</ele>
        <time>2012-06-16T12:37:32Z</time>
      </trkpt>
      <trkpt lat="45.42786" lon="5.74339">
        <ele>506.79998779297</ele>
        <time>2012-06-16T12:37:46Z</time>
      </trkpt>
      <trkpt lat="45.42793" lon="5.74347">
        <ele>505.70001220703</ele>
        <time>2012-06-16T12:37:52Z</time>
      </trkpt>
      <trkpt lat="45.42803" lon="5.74352">
        <ele>504.90002441406</ele>
        <time>2012-06-16T12:37:59Z</time>
      </trkpt>
      <trkpt lat="45.42812" lon="5.74356">
        <ele>504</ele>
        <time>2012-06-16T12:38:06Z</time>
      </trkpt>
      <trkpt lat="45.42821" lon="5.74355">
        <ele>503.79998779297</ele>
        <time>2012-06-16T12:38:13Z</time>
      </trkpt>
      <trkpt lat="45.42836" lon="5.74339">
        <ele>504.5</ele>
        <time>2012-06-16T12:38:26Z</time>
      </trkpt>
      <trkpt lat="45.42854" lon="5.74328">
        <ele>504.40002441406</ele>
        <time>2012-06-16T12:38:41Z</time>
      </trkpt>
      <trkpt lat="45.42883" lon="5.74336">
        <ele>502.79998779297</ele>
        <time>2012-06-16T12:39:01Z</time>
      </trkpt>
      <trkpt lat="45.42911" lon="5.74333">
        <ele>499.59997558594</ele>
        <time>2012-06-16T12:39:22Z</time>
      </trkpt>
      <trkpt lat="45.42939" lon="5.74343">
        <ele>492</ele>
        <time>2012-06-16T12:39:41Z</time>
      </trkpt>
      <trkpt lat="45.42965" lon="5.74362">
        <ele>482.70001220703</ele>
        <time>2012-06-16T12:40:06Z</time>
      </trkpt>
      <trkpt lat="45.42974" lon="5.74386">
        <ele>476.40002441406</ele>
        <time>2012-06-16T12:40:18Z</time>
      </trkpt>
      <trkpt lat="45.43" lon="5.74378">
        <ele>470.29998779297</ele>
        <time>2012-06-16T12:40:56Z</time>
      </trkpt>
      <trkpt lat="45.43011" lon="5.74394">
        <ele>461.20001220703</ele>
        <time>2012-06-16T12:41:06Z</time>
      </trkpt>
      <trkpt lat="45.43007" lon="5.7442">
        <ele>459.09997558594</ele>
        <time>2012-06-16T12:41:18Z</time>
      </trkpt>
      <trkpt lat="45.43005" lon="5.74433">
        <ele>458.40002441406</ele>
        <time>2012-06-16T12:41:24Z</time>
      </trkpt>
      <trkpt lat="45.42998" lon="5.7446">
        <ele>456.59997558594</ele>
        <time>2012-06-16T12:41:37Z</time>
      </trkpt>
      <trkpt lat="45.42988" lon="5.74483">
        <ele>453.79998779297</ele>
        <time>2012-06-16T12:41:50Z</time>
      </trkpt>
      <trkpt lat="45.42981" lon="5.74508">
        <ele>449.09997558594</ele>
        <time>2012-06-16T12:42:02Z</time>
      </trkpt>
      <trkpt lat="45.42988" lon="5.74532">
        <ele>447.70001220703</ele>
        <time>2012-06-16T12:42:14Z</time>
      </trkpt>
      <trkpt lat="45.42991" lon="5.74559">
        <ele>444.59997558594</ele>
        <time>2012-06-16T12:42:27Z</time>
      </trkpt>
      <trkpt lat="45.42988" lon="5.74572">
        <ele>443.29998779297</ele>
        <time>2012-06-16T12:42:33Z</time>
      </trkpt>
      <trkpt lat="45.42983" lon="5.74599">
        <ele>443.70001220703</ele>
        <time>2012-06-16T12:42:46Z</time>
      </trkpt>
      <trkpt lat="45.42979" lon="5.74612">
        <ele>443.40002441406</ele>
        <time>2012-06-16T12:42:52Z</time>
      </trkpt>
      <trkpt lat="45.42974" lon="5.74622">
        <ele>442.70001220703</ele>
        <time>2012-06-16T12:42:56Z</time>
      </trkpt>
      <trkpt lat="45.42971" lon="5.74636">
        <ele>442.70001220703</ele>
        <time>2012-06-16T12:43:00Z</time>
      </trkpt>
      <trkpt lat="45.42973" lon="5.7465">
        <ele>442</ele>
        <time>2012-06-16T12:43:04Z</time>
      </trkpt>
      <trkpt lat="45.42975" lon="5.74663">
        <ele>441.79998779297</ele>
        <time>2012-06-16T12:43:09Z</time>
      </trkpt>
      <trkpt lat="45.42985" lon="5.74687">
        <ele>444.20001220703</ele>
        <time>2012-06-16T12:43:21Z</time>
      </trkpt>
      <trkpt lat="45.42987" lon="5.74699">
        <ele>443.70001220703</ele>
        <time>2012-06-16T12:43:27Z</time>
      </trkpt>
      <trkpt lat="45.42993" lon="5.7471">
        <ele>445.40002441406</ele>
        <time>2012-06-16T12:43:33Z</time>
      </trkpt>
      <trkpt lat="45.42998" lon="5.74721">
        <ele>445.79998779297</ele>
        <time>2012-06-16T12:43:39Z</time>
      </trkpt>
      <trkpt lat="45.43004" lon="5.74732">
        <ele>447.79998779297</ele>
        <time>2012-06-16T12:43:45Z</time>
      </trkpt>
      <trkpt lat="45.43007" lon="5.74745">
        <ele>448.09997558594</ele>
        <time>2012-06-16T12:43:51Z</time>
      </trkpt>
      <trkpt lat="45.43011" lon="5.74759">
        <ele>447.70001220703</ele>
        <time>2012-06-16T12:43:58Z</time>
      </trkpt>
      <trkpt lat="45.43015" lon="5.7477">
        <ele>447.29998779297</ele>
        <time>2012-06-16T12:44:02Z</time>
      </trkpt>
      <trkpt lat="45.43021" lon="5.74784">
        <ele>447.29998779297</ele>
        <time>2012-06-16T12:44:06Z</time>
      </trkpt>
      <trkpt lat="45.43028" lon="5.74794">
        <ele>447.90002441406</ele>
        <time>2012-06-16T12:44:11Z</time>
      </trkpt>
      <trkpt lat="45.43033" lon="5.74806">
        <ele>448.59997558594</ele>
        <time>2012-06-16T12:44:17Z</time>
      </trkpt>
      <trkpt lat="45.43041" lon="5.7483">
        <ele>448.59997558594</ele>
        <time>2012-06-16T12:44:30Z</time>
      </trkpt>
      <trkpt lat="45.43046" lon="5.74841">
        <ele>448.20001220703</ele>
        <time>2012-06-16T12:44:36Z</time>
      </trkpt>
      <trkpt lat="45.43053" lon="5.74852">
        <ele>449.70001220703</ele>
        <time>2012-06-16T12:44:42Z</time>
      </trkpt>
      <trkpt lat="45.43058" lon="5.74864">
        <ele>449.40002441406</ele>
        <time>2012-06-16T12:44:49Z</time>
      </trkpt>
      <trkpt lat="45.43063" lon="5.74879">
        <ele>449.40002441406</ele>
        <time>2012-06-16T12:44:55Z</time>
      </trkpt>
      <trkpt lat="45.43069" lon="5.74891">
        <ele>449.09997558594</ele>
        <time>2012-06-16T12:44:59Z</time>
      </trkpt>
      <trkpt lat="45.43075" lon="5.74902">
        <ele>449.40002441406</ele>
        <time>2012-06-16T12:45:04Z</time>
      </trkpt>
      <trkpt lat="45.43081" lon="5.74913">
        <ele>449.29998779297</ele>
        <time>2012-06-16T12:45:12Z</time>
      </trkpt>
      <trkpt lat="45.43086" lon="5.74925">
        <ele>448.70001220703</ele>
        <time>2012-06-16T12:45:19Z</time>
      </trkpt>
      <trkpt lat="45.43091" lon="5.74938">
        <ele>448.70001220703</ele>
        <time>2012-06-16T12:45:26Z</time>
      </trkpt>
      <trkpt lat="45.43099" lon="5.74963">
        <ele>446.5</ele>
        <time>2012-06-16T12:45:39Z</time>
      </trkpt>
      <trkpt lat="45.43103" lon="5.74976">
        <ele>446.29998779297</ele>
        <time>2012-06-16T12:45:46Z</time>
      </trkpt>
      <trkpt lat="45.43107" lon="5.74988">
        <ele>445.79998779297</ele>
        <time>2012-06-16T12:45:53Z</time>
      </trkpt>
      <trkpt lat="45.43112" lon="5.75">
        <ele>445.79998779297</ele>
        <time>2012-06-16T12:45:59Z</time>
      </trkpt>
      <trkpt lat="45.43116" lon="5.75013">
        <ele>445.29998779297</ele>
        <time>2012-06-16T12:46:06Z</time>
      </trkpt>
      <trkpt lat="45.43121" lon="5.75026">
        <ele>445.5</ele>
        <time>2012-06-16T12:46:13Z</time>
      </trkpt>
      <trkpt lat="45.43126" lon="5.75038">
        <ele>444.5</ele>
        <time>2012-06-16T12:46:20Z</time>
      </trkpt>
      <trkpt lat="45.43132" lon="5.75049">
        <ele>446.20001220703</ele>
        <time>2012-06-16T12:46:26Z</time>
      </trkpt>
      <trkpt lat="45.43136" lon="5.75062">
        <ele>445.79998779297</ele>
        <time>2012-06-16T12:46:33Z</time>
      </trkpt>
      <trkpt lat="45.43148" lon="5.75085">
        <ele>445.29998779297</ele>
        <time>2012-06-16T12:46:45Z</time>
      </trkpt>
      <trkpt lat="45.43162" lon="5.75103">
        <ele>445.79998779297</ele>
        <time>2012-06-16T12:46:53Z</time>
      </trkpt>
      <trkpt lat="45.43179" lon="5.75112">
        <ele>446.40002441406</ele>
        <time>2012-06-16T12:47:02Z</time>
      </trkpt>
      <trkpt lat="45.43198" lon="5.75121">
        <ele>447.79998779297</ele>
        <time>2012-06-16T12:47:15Z</time>
      </trkpt>
      <trkpt lat="45.43215" lon="5.75132">
        <ele>447.90002441406</ele>
        <time>2012-06-16T12:47:28Z</time>
      </trkpt>
      <trkpt lat="45.43224" lon="5.75138">
        <ele>447.5</ele>
        <time>2012-06-16T12:47:34Z</time>
      </trkpt>
      <trkpt lat="45.43234" lon="5.75143">
        <ele>449</ele>
        <time>2012-06-16T12:47:40Z</time>
      </trkpt>
      <trkpt lat="45.43242" lon="5.75152">
        <ele>448.5</ele>
        <time>2012-06-16T12:47:48Z</time>
      </trkpt>
      <trkpt lat="45.43249" lon="5.75161">
        <ele>447.5</ele>
        <time>2012-06-16T12:47:53Z</time>
      </trkpt>
      <trkpt lat="45.4326" lon="5.75168">
        <ele>448.5</ele>
        <time>2012-06-16T12:47:59Z</time>
      </trkpt>
      <trkpt lat="45.43268" lon="5.75176">
        <ele>449.09997558594</ele>
        <time>2012-06-16T12:48:05Z</time>
      </trkpt>
      <trkpt lat="45.43274" lon="5.75187">
        <ele>447.70001220703</ele>
        <time>2012-06-16T12:48:12Z</time>
      </trkpt>
      <trkpt lat="45.43279" lon="5.75199">
        <ele>446.70001220703</ele>
        <time>2012-06-16T12:48:19Z</time>
      </trkpt>
      <trkpt lat="45.43286" lon="5.75209">
        <ele>445.70001220703</ele>
        <time>2012-06-16T12:48:26Z</time>
      </trkpt>
      <trkpt lat="45.43293" lon="5.75219">
        <ele>445.79998779297</ele>
        <time>2012-06-16T12:48:40Z</time>
      </trkpt>
      <trkpt lat="45.43298" lon="5.75244">
        <ele>445.29998779297</ele>
        <time>2012-06-16T12:48:52Z</time>
      </trkpt>
      <trkpt lat="45.43302" lon="5.75256">
        <ele>444.90002441406</ele>
        <time>2012-06-16T12:48:58Z</time>
      </trkpt>
      <trkpt lat="45.43307" lon="5.75281">
        <ele>443.29998779297</ele>
        <time>2012-06-16T12:49:10Z</time>
      </trkpt>
      <trkpt lat="45.43312" lon="5.75292">
        <ele>443.20001220703</ele>
        <time>2012-06-16T12:49:16Z</time>
      </trkpt>
      <trkpt lat="45.43317" lon="5.75304">
        <ele>442.5</ele>
        <time>2012-06-16T12:49:22Z</time>
      </trkpt>
      <trkpt lat="45.43325" lon="5.75328">
        <ele>441</ele>
        <time>2012-06-16T12:49:34Z</time>
      </trkpt>
      <trkpt lat="45.43337" lon="5.75348">
        <ele>437.59997558594</ele>
        <time>2012-06-16T12:49:47Z</time>
      </trkpt>
      <trkpt lat="45.43348" lon="5.7537">
        <ele>435.90002441406</ele>
        <time>2012-06-16T12:50:01Z</time>
      </trkpt>
      <trkpt lat="45.43354" lon="5.75396">
        <ele>434.90002441406</ele>
        <time>2012-06-16T12:50:13Z</time>
      </trkpt>
      <trkpt lat="45.43359" lon="5.75424">
        <ele>434.59997558594</ele>
        <time>2012-06-16T12:50:27Z</time>
      </trkpt>
      <trkpt lat="45.43365" lon="5.75464">
        <ele>435.29998779297</ele>
        <time>2012-06-16T12:50:47Z</time>
      </trkpt>
      <trkpt lat="45.4337" lon="5.75491">
        <ele>436.09997558594</ele>
        <time>2012-06-16T12:50:59Z</time>
      </trkpt>
      <trkpt lat="45.43377" lon="5.75529">
        <ele>437.40002441406</ele>
        <time>2012-06-16T12:51:21Z</time>
      </trkpt>
      <trkpt lat="45.43368" lon="5.75569">
        <ele>437.79998779297</ele>
        <time>2012-06-16T12:51:37Z</time>
      </trkpt>
      <trkpt lat="45.43357" lon="5.7561">
        <ele>440.40002441406</ele>
        <time>2012-06-16T12:51:52Z</time>
      </trkpt>
      <trkpt lat="45.43364" lon="5.75649">
        <ele>442</ele>
        <time>2012-06-16T12:52:14Z</time>
      </trkpt>
      <trkpt lat="45.43372" lon="5.75673">
        <ele>440.79998779297</ele>
        <time>2012-06-16T12:52:27Z</time>
      </trkpt>
      <trkpt lat="45.43377" lon="5.75698">
        <ele>440.40002441406</ele>
        <time>2012-06-16T12:52:39Z</time>
      </trkpt>
      <trkpt lat="45.43385" lon="5.75723">
        <ele>440.29998779297</ele>
        <time>2012-06-16T12:52:49Z</time>
      </trkpt>
      <trkpt lat="45.43394" lon="5.75747">
        <ele>440</ele>
        <time>2012-06-16T12:53:01Z</time>
      </trkpt>
      <trkpt lat="45.43397" lon="5.7576">
        <ele>439.40002441406</ele>
        <time>2012-06-16T12:53:07Z</time>
      </trkpt>
      <trkpt lat="45.434" lon="5.75773">
        <ele>439.40002441406</ele>
        <time>2012-06-16T12:53:13Z</time>
      </trkpt>
      <trkpt lat="45.43403" lon="5.75786">
        <ele>439.59997558594</ele>
        <time>2012-06-16T12:53:20Z</time>
      </trkpt>
      <trkpt lat="45.43406" lon="5.75813">
        <ele>441.70001220703</ele>
        <time>2012-06-16T12:53:34Z</time>
      </trkpt>
      <trkpt lat="45.43415" lon="5.75841">
        <ele>442.09997558594</ele>
        <time>2012-06-16T12:53:42Z</time>
      </trkpt>
      <trkpt lat="45.43422" lon="5.75868">
        <ele>443.59997558594</ele>
        <time>2012-06-16T12:53:49Z</time>
      </trkpt>
      <trkpt lat="45.43413" lon="5.75893">
        <ele>445.09997558594</ele>
        <time>2012-06-16T12:54:00Z</time>
      </trkpt>
      <trkpt lat="45.43402" lon="5.75918">
        <ele>446.70001220703</ele>
        <time>2012-06-16T12:54:44Z</time>
      </trkpt>
      <trkpt lat="45.43397" lon="5.7593">
        <ele>446.70001220703</ele>
        <time>2012-06-16T12:54:51Z</time>
      </trkpt>
      <trkpt lat="45.43393" lon="5.75941">
        <ele>446</ele>
        <time>2012-06-16T12:54:57Z</time>
      </trkpt>
      <trkpt lat="45.43389" lon="5.75953">
        <ele>445.79998779297</ele>
        <time>2012-06-16T12:55:03Z</time>
      </trkpt>
      <trkpt lat="45.43384" lon="5.75966">
        <ele>445.70001220703</ele>
        <time>2012-06-16T12:55:10Z</time>
      </trkpt>
      <trkpt lat="45.4338" lon="5.75979">
        <ele>445.70001220703</ele>
        <time>2012-06-16T12:55:15Z</time>
      </trkpt>
      <trkpt lat="45.43375" lon="5.75991">
        <ele>445.5</ele>
        <time>2012-06-16T12:55:21Z</time>
      </trkpt>
      <trkpt lat="45.4337" lon="5.76004">
        <ele>444.79998779297</ele>
        <time>2012-06-16T12:55:28Z</time>
      </trkpt>
      <trkpt lat="45.43362" lon="5.76029">
        <ele>445.09997558594</ele>
        <time>2012-06-16T12:55:41Z</time>
      </trkpt>
      <trkpt lat="45.43358" lon="5.76041">
        <ele>445.59997558594</ele>
        <time>2012-06-16T12:55:48Z</time>
      </trkpt>
      <trkpt lat="45.43349" lon="5.76066">
        <ele>445.09997558594</ele>
        <time>2012-06-16T12:56:00Z</time>
      </trkpt>
      <trkpt lat="45.4334" lon="5.76092">
        <ele>445.20001220703</ele>
        <time>2012-06-16T12:56:08Z</time>
      </trkpt>
      <trkpt lat="45.43331" lon="5.76117">
        <ele>445.79998779297</ele>
        <time>2012-06-16T12:56:17Z</time>
      </trkpt>
      <trkpt lat="45.4332" lon="5.76142">
        <ele>446.5</ele>
        <time>2012-06-16T12:56:31Z</time>
      </trkpt>
      <trkpt lat="45.43313" lon="5.76153">
        <ele>446.40002441406</ele>
        <time>2012-06-16T12:56:38Z</time>
      </trkpt>
      <trkpt lat="45.43309" lon="5.76165">
        <ele>446.20001220703</ele>
        <time>2012-06-16T12:56:44Z</time>
      </trkpt>
      <trkpt lat="45.43305" lon="5.76177">
        <ele>445.79998779297</ele>
        <time>2012-06-16T12:56:50Z</time>
      </trkpt>
      <trkpt lat="45.433" lon="5.76187">
        <ele>446.20001220703</ele>
        <time>2012-06-16T12:56:56Z</time>
      </trkpt>
      <trkpt lat="45.43291" lon="5.76212">
        <ele>447.09997558594</ele>
        <time>2012-06-16T12:57:07Z</time>
      </trkpt>
      <trkpt lat="45.43283" lon="5.76237">
        <ele>445.90002441406</ele>
        <time>2012-06-16T12:57:18Z</time>
      </trkpt>
      <trkpt lat="45.43279" lon="5.76249">
        <ele>445.59997558594</ele>
        <time>2012-06-16T12:57:25Z</time>
      </trkpt>
      <trkpt lat="45.43274" lon="5.76263">
        <ele>445.40002441406</ele>
        <time>2012-06-16T12:57:32Z</time>
      </trkpt>
      <trkpt lat="45.43269" lon="5.76276">
        <ele>445.59997558594</ele>
        <time>2012-06-16T12:57:39Z</time>
      </trkpt>
      <trkpt lat="45.43266" lon="5.76287">
        <ele>445.70001220703</ele>
        <time>2012-06-16T12:57:45Z</time>
      </trkpt>
      <trkpt lat="45.43263" lon="5.76301">
        <ele>446.29998779297</ele>
        <time>2012-06-16T12:57:52Z</time>
      </trkpt>
      <trkpt lat="45.43258" lon="5.76314">
        <ele>446</ele>
        <time>2012-06-16T12:57:59Z</time>
      </trkpt>
      <trkpt lat="45.43254" lon="5.76326">
        <ele>445.59997558594</ele>
        <time>2012-06-16T12:58:05Z</time>
      </trkpt>
      <trkpt lat="45.4325" lon="5.76339">
        <ele>445.09997558594</ele>
        <time>2012-06-16T12:58:12Z</time>
      </trkpt>
      <trkpt lat="45.43244" lon="5.76365">
        <ele>445.20001220703</ele>
        <time>2012-06-16T12:58:25Z</time>
      </trkpt>
      <trkpt lat="45.43242" lon="5.76393">
        <ele>445.20001220703</ele>
        <time>2012-06-16T12:58:38Z</time>
      </trkpt>
      <trkpt lat="45.43251" lon="5.7642">
        <ele>445.70001220703</ele>
        <time>2012-06-16T12:58:47Z</time>
      </trkpt>
      <trkpt lat="45.43257" lon="5.76447">
        <ele>445.79998779297</ele>
        <time>2012-06-16T12:58:56Z</time>
      </trkpt>
      <trkpt lat="45.43252" lon="5.76472">
        <ele>445.90002441406</ele>
        <time>2012-06-16T12:59:09Z</time>
      </trkpt>
      <trkpt lat="45.43243" lon="5.76498">
        <ele>446.09997558594</ele>
        <time>2012-06-16T12:59:19Z</time>
      </trkpt>
      <trkpt lat="45.43234" lon="5.76524">
        <ele>446.59997558594</ele>
        <time>2012-06-16T12:59:28Z</time>
      </trkpt>
      <trkpt lat="45.4323" lon="5.76537">
        <ele>446.29998779297</ele>
        <time>2012-06-16T12:59:35Z</time>
      </trkpt>
      <trkpt lat="45.43228" lon="5.7655">
        <ele>446.20001220703</ele>
        <time>2012-06-16T12:59:41Z</time>
      </trkpt>
      <trkpt lat="45.43225" lon="5.76578">
        <ele>446.09997558594</ele>
        <time>2012-06-16T12:59:54Z</time>
      </trkpt>
      <trkpt lat="45.43223" lon="5.76606">
        <ele>446.59997558594</ele>
        <time>2012-06-16T13:00:07Z</time>
      </trkpt>
      <trkpt lat="45.43221" lon="5.76619">
        <ele>446.40002441406</ele>
        <time>2012-06-16T13:00:13Z</time>
      </trkpt>
      <trkpt lat="45.43219" lon="5.76633">
        <ele>446</ele>
        <time>2012-06-16T13:00:20Z</time>
      </trkpt>
      <trkpt lat="45.43217" lon="5.76662">
        <ele>446.20001220703</ele>
        <time>2012-06-16T13:00:28Z</time>
      </trkpt>
      <trkpt lat="45.43215" lon="5.76691">
        <ele>446.70001220703</ele>
        <time>2012-06-16T13:00:36Z</time>
      </trkpt>
      <trkpt lat="45.43215" lon="5.7672">
        <ele>446.90002441406</ele>
        <time>2012-06-16T13:00:46Z</time>
      </trkpt>
      <trkpt lat="45.4321" lon="5.76753">
        <ele>447.40002441406</ele>
        <time>2012-06-16T13:00:54Z</time>
      </trkpt>
      <trkpt lat="45.43202" lon="5.7678">
        <ele>447.29998779297</ele>
        <time>2012-06-16T13:01:01Z</time>
      </trkpt>
      <trkpt lat="45.43197" lon="5.76794">
        <ele>448</ele>
        <time>2012-06-16T13:01:05Z</time>
      </trkpt>
      <trkpt lat="45.43189" lon="5.7682">
        <ele>448.09997558594</ele>
        <time>2012-06-16T13:01:11Z</time>
      </trkpt>
      <trkpt lat="45.43186" lon="5.76832">
        <ele>447.90002441406</ele>
        <time>2012-06-16T13:01:14Z</time>
      </trkpt>
      <trkpt lat="45.43179" lon="5.76859">
        <ele>447.90002441406</ele>
        <time>2012-06-16T13:01:20Z</time>
      </trkpt>
      <trkpt lat="45.43175" lon="5.76872">
        <ele>447.90002441406</ele>
        <time>2012-06-16T13:01:23Z</time>
      </trkpt>
      <trkpt lat="45.43166" lon="5.76899">
        <ele>448.20001220703</ele>
        <time>2012-06-16T13:01:30Z</time>
      </trkpt>
      <trkpt lat="45.4315" lon="5.76911">
        <ele>448.5</ele>
        <time>2012-06-16T13:01:41Z</time>
      </trkpt>
      <trkpt lat="45.43143" lon="5.76921">
        <ele>448.5</ele>
        <time>2012-06-16T13:01:47Z</time>
      </trkpt>
      <trkpt lat="45.43135" lon="5.76946">
        <ele>447.90002441406</ele>
        <time>2012-06-16T13:02:00Z</time>
      </trkpt>
      <trkpt lat="45.43132" lon="5.76958">
        <ele>448</ele>
        <time>2012-06-16T13:02:06Z</time>
      </trkpt>
      <trkpt lat="45.43127" lon="5.76971">
        <ele>447.5</ele>
        <time>2012-06-16T13:02:13Z</time>
      </trkpt>
      <trkpt lat="45.43124" lon="5.76985">
        <ele>447.79998779297</ele>
        <time>2012-06-16T13:02:20Z</time>
      </trkpt>
      <trkpt lat="45.43121" lon="5.77">
        <ele>448.40002441406</ele>
        <time>2012-06-16T13:02:28Z</time>
      </trkpt>
      <trkpt lat="45.43112" lon="5.7703">
        <ele>448.70001220703</ele>
        <time>2012-06-16T13:02:35Z</time>
      </trkpt>
      <trkpt lat="45.43108" lon="5.77044">
        <ele>448.79998779297</ele>
        <time>2012-06-16T13:02:38Z</time>
      </trkpt>
      <trkpt lat="45.43103" lon="5.77059">
        <ele>449.09997558594</ele>
        <time>2012-06-16T13:02:41Z</time>
      </trkpt>
      <trkpt lat="45.43098" lon="5.77076">
        <ele>449.5</ele>
        <time>2012-06-16T13:02:44Z</time>
      </trkpt>
      <trkpt lat="45.43093" lon="5.77087">
        <ele>449.59997558594</ele>
        <time>2012-06-16T13:02:46Z</time>
      </trkpt>
      <trkpt lat="45.43086" lon="5.77112">
        <ele>449.79998779297</ele>
        <time>2012-06-16T13:02:50Z</time>
      </trkpt>
      <trkpt lat="45.43082" lon="5.77137">
        <ele>449.90002441406</ele>
        <time>2012-06-16T13:02:54Z</time>
      </trkpt>
      <trkpt lat="45.43083" lon="5.77166">
        <ele>450</ele>
        <time>2012-06-16T13:02:58Z</time>
      </trkpt>
      <trkpt lat="45.43086" lon="5.77197">
        <ele>449.79998779297</ele>
        <time>2012-06-16T13:03:02Z</time>
      </trkpt>
      <trkpt lat="45.43094" lon="5.77226">
        <ele>449.79998779297</ele>
        <time>2012-06-16T13:03:06Z</time>
      </trkpt>
      <trkpt lat="45.431" lon="5.77254">
        <ele>449.40002441406</ele>
        <time>2012-06-16T13:03:10Z</time>
      </trkpt>
      <trkpt lat="45.43097" lon="5.77286">
        <ele>450.09997558594</ele>
        <time>2012-06-16T13:03:16Z</time>
      </trkpt>
      <trkpt lat="45.43088" lon="5.7731">
        <ele>450.40002441406</ele>
        <time>2012-06-16T13:03:30Z</time>
      </trkpt>
      <trkpt lat="45.43079" lon="5.77336">
        <ele>450.40002441406</ele>
        <time>2012-06-16T13:03:43Z</time>
      </trkpt>
      <trkpt lat="45.4307" lon="5.77361">
        <ele>452.09997558594</ele>
        <time>2012-06-16T13:03:56Z</time>
      </trkpt>
      <trkpt lat="45.43059" lon="5.77399">
        <ele>454.70001220703</ele>
        <time>2012-06-16T13:04:22Z</time>
      </trkpt>
      <trkpt lat="45.43068" lon="5.77424">
        <ele>454.79998779297</ele>
        <time>2012-06-16T13:04:35Z</time>
      </trkpt>
      <trkpt lat="45.43081" lon="5.77448">
        <ele>456.79998779297</ele>
        <time>2012-06-16T13:04:48Z</time>
      </trkpt>
      <trkpt lat="45.43103" lon="5.77472">
        <ele>461.79998779297</ele>
        <time>2012-06-16T13:05:10Z</time>
      </trkpt>
      <trkpt lat="45.43116" lon="5.77509">
        <ele>462.70001220703</ele>
        <time>2012-06-16T13:05:29Z</time>
      </trkpt>
      <trkpt lat="45.43135" lon="5.77541">
        <ele>465.59997558594</ele>
        <time>2012-06-16T13:05:51Z</time>
      </trkpt>
      <trkpt lat="45.43159" lon="5.7756">
        <ele>468.70001220703</ele>
        <time>2012-06-16T13:06:24Z</time>
      </trkpt>
      <trkpt lat="45.43182" lon="5.7758">
        <ele>469.70001220703</ele>
        <time>2012-06-16T13:06:54Z</time>
      </trkpt>
      <trkpt lat="45.432" lon="5.77606">
        <ele>473.40002441406</ele>
        <time>2012-06-16T13:07:16Z</time>
      </trkpt>
      <trkpt lat="45.43225" lon="5.77629">
        <ele>469.59997558594</ele>
        <time>2012-06-16T13:07:33Z</time>
      </trkpt>
      <trkpt lat="45.4324" lon="5.77643">
        <ele>469.20001220703</ele>
        <time>2012-06-16T13:07:46Z</time>
      </trkpt>
      <trkpt lat="45.43253" lon="5.77662">
        <ele>466.90002441406</ele>
        <time>2012-06-16T13:08:00Z</time>
      </trkpt>
      <trkpt lat="45.43269" lon="5.77675">
        <ele>470.29998779297</ele>
        <time>2012-06-16T13:08:20Z</time>
      </trkpt>
      <trkpt lat="45.43298" lon="5.7768">
        <ele>474.40002441406</ele>
        <time>2012-06-16T13:08:43Z</time>
      </trkpt>
      <trkpt lat="45.43317" lon="5.77715">
        <ele>471.09997558594</ele>
        <time>2012-06-16T13:08:57Z</time>
      </trkpt>
      <trkpt lat="45.43335" lon="5.77748">
        <ele>465</ele>
        <time>2012-06-16T13:09:13Z</time>
      </trkpt>
      <trkpt lat="45.43349" lon="5.77768">
        <ele>462.40002441406</ele>
        <time>2012-06-16T13:09:23Z</time>
      </trkpt>
      <trkpt lat="45.43364" lon="5.77787">
        <ele>463.09997558594</ele>
        <time>2012-06-16T13:09:35Z</time>
      </trkpt>
      <trkpt lat="45.43382" lon="5.778">
        <ele>466.09997558594</ele>
        <time>2012-06-16T13:09:49Z</time>
      </trkpt>
      <trkpt lat="45.434" lon="5.7781">
        <ele>468.59997558594</ele>
        <time>2012-06-16T13:10:03Z</time>
      </trkpt>
      <trkpt lat="45.43423" lon="5.77835">
        <ele>467.70001220703</ele>
        <time>2012-06-16T13:10:23Z</time>
      </trkpt>
      <trkpt lat="45.43451" lon="5.77852">
        <ele>467</ele>
        <time>2012-06-16T13:10:38Z</time>
      </trkpt>
      <trkpt lat="45.43469" lon="5.77859">
        <ele>467.59997558594</ele>
        <time>2012-06-16T13:10:47Z</time>
      </trkpt>
      <trkpt lat="45.43487" lon="5.77868">
        <ele>469.20001220703</ele>
        <time>2012-06-16T13:10:58Z</time>
      </trkpt>
      <trkpt lat="45.43506" lon="5.77875">
        <ele>469.40002441406</ele>
        <time>2012-06-16T13:11:15Z</time>
      </trkpt>
      <trkpt lat="45.43524" lon="5.77882">
        <ele>469.59997558594</ele>
        <time>2012-06-16T13:11:30Z</time>
      </trkpt>
      <trkpt lat="45.43538" lon="5.779">
        <ele>469.09997558594</ele>
        <time>2012-06-16T13:11:46Z</time>
      </trkpt>
      <trkpt lat="45.43564" lon="5.77912">
        <ele>470.90002441406</ele>
        <time>2012-06-16T13:12:05Z</time>
      </trkpt>
      <trkpt lat="45.43594" lon="5.77914">
        <ele>468.59997558594</ele>
        <time>2012-06-16T13:12:23Z</time>
      </trkpt>
      <trkpt lat="45.43612" lon="5.77906">
        <ele>466.59997558594</ele>
        <time>2012-06-16T13:12:37Z</time>
      </trkpt>
      <trkpt lat="45.43626" lon="5.77881">
        <ele>464.79998779297</ele>
        <time>2012-06-16T13:12:46Z</time>
      </trkpt>
      <trkpt lat="45.43631" lon="5.77854">
        <ele>463.90002441406</ele>
        <time>2012-06-16T13:12:55Z</time>
      </trkpt>
      <trkpt lat="45.43639" lon="5.77827">
        <ele>463.40002441406</ele>
        <time>2012-06-16T13:13:08Z</time>
      </trkpt>
      <trkpt lat="45.43645" lon="5.77817">
        <ele>464.20001220703</ele>
        <time>2012-06-16T13:13:20Z</time>
      </trkpt>
      <trkpt lat="45.43654" lon="5.77823">
        <ele>462.70001220703</ele>
        <time>2012-06-16T13:13:27Z</time>
      </trkpt>
      <trkpt lat="45.43656" lon="5.77838">
        <ele>461.79998779297</ele>
        <time>2012-06-16T13:13:31Z</time>
      </trkpt>
      <trkpt lat="45.43655" lon="5.77853">
        <ele>460.59997558594</ele>
        <time>2012-06-16T13:13:37Z</time>
      </trkpt>
      <trkpt lat="45.43651" lon="5.77865">
        <ele>459.20001220703</ele>
        <time>2012-06-16T13:13:44Z</time>
      </trkpt>
      <trkpt lat="45.43648" lon="5.77878">
        <ele>458.5</ele>
        <time>2012-06-16T13:13:51Z</time>
      </trkpt>
      <trkpt lat="45.43645" lon="5.77892">
        <ele>457.90002441406</ele>
        <time>2012-06-16T13:13:57Z</time>
      </trkpt>
      <trkpt lat="45.43643" lon="5.77905">
        <ele>457.59997558594</ele>
        <time>2012-06-16T13:14:03Z</time>
      </trkpt>
      <trkpt lat="45.4364" lon="5.77919">
        <ele>457.70001220703</ele>
        <time>2012-06-16T13:14:10Z</time>
      </trkpt>
      <trkpt lat="45.43637" lon="5.77933">
        <ele>457.5</ele>
        <time>2012-06-16T13:14:16Z</time>
      </trkpt>
      <trkpt lat="45.43635" lon="5.77946">
        <ele>457.90002441406</ele>
        <time>2012-06-16T13:14:23Z</time>
      </trkpt>
      <trkpt lat="45.4365" lon="5.77977">
        <ele>459.40002441406</ele>
        <time>2012-06-16T13:14:47Z</time>
      </trkpt>
      <trkpt lat="45.43669" lon="5.77987">
        <ele>461.70001220703</ele>
        <time>2012-06-16T13:15:01Z</time>
      </trkpt>
      <trkpt lat="45.43695" lon="5.78003">
        <ele>465.20001220703</ele>
        <time>2012-06-16T13:15:22Z</time>
      </trkpt>
      <trkpt lat="45.43722" lon="5.78016">
        <ele>468.5</ele>
        <time>2012-06-16T13:15:41Z</time>
      </trkpt>
      <trkpt lat="45.43749" lon="5.78024">
        <ele>470.79998779297</ele>
        <time>2012-06-16T13:15:58Z</time>
      </trkpt>
      <trkpt lat="45.43777" lon="5.78015">
        <ele>471.90002441406</ele>
        <time>2012-06-16T13:16:17Z</time>
      </trkpt>
      <trkpt lat="45.43795" lon="5.78008">
        <ele>472.40002441406</ele>
        <time>2012-06-16T13:16:29Z</time>
      </trkpt>
      <trkpt lat="45.43814" lon="5.78">
        <ele>471.5</ele>
        <time>2012-06-16T13:16:41Z</time>
      </trkpt>
      <trkpt lat="45.43842" lon="5.78009">
        <ele>473.29998779297</ele>
        <time>2012-06-16T13:17:02Z</time>
      </trkpt>
      <trkpt lat="45.4387" lon="5.7802">
        <ele>472.5</ele>
        <time>2012-06-16T13:17:22Z</time>
      </trkpt>
      <trkpt lat="45.43898" lon="5.78029">
        <ele>472.90002441406</ele>
        <time>2012-06-16T13:17:43Z</time>
      </trkpt>
      <trkpt lat="45.43923" lon="5.78048">
        <ele>472.5</ele>
        <time>2012-06-16T13:18:00Z</time>
      </trkpt>
      <trkpt lat="45.43941" lon="5.78059">
        <ele>471.70001220703</ele>
        <time>2012-06-16T13:18:10Z</time>
      </trkpt>
      <trkpt lat="45.4396" lon="5.78067">
        <ele>471.5</ele>
        <time>2012-06-16T13:18:22Z</time>
      </trkpt>
      <trkpt lat="45.43986" lon="5.78082">
        <ele>470.5</ele>
        <time>2012-06-16T13:18:38Z</time>
      </trkpt>
      <trkpt lat="45.44002" lon="5.78097">
        <ele>472.09997558594</ele>
        <time>2012-06-16T13:18:50Z</time>
      </trkpt>
      <trkpt lat="45.4401" lon="5.78106">
        <ele>471.09997558594</ele>
        <time>2012-06-16T13:18:57Z</time>
      </trkpt>
      <trkpt lat="45.44019" lon="5.78115">
        <ele>471.09997558594</ele>
        <time>2012-06-16T13:19:04Z</time>
      </trkpt>
      <trkpt lat="45.44035" lon="5.78131">
        <ele>472.09997558594</ele>
        <time>2012-06-16T13:19:17Z</time>
      </trkpt>
      <trkpt lat="45.44045" lon="5.78137">
        <ele>472.90002441406</ele>
        <time>2012-06-16T13:19:24Z</time>
      </trkpt>
      <trkpt lat="45.44063" lon="5.78147">
        <ele>474.40002441406</ele>
        <time>2012-06-16T13:19:41Z</time>
      </trkpt>
      <trkpt lat="45.4408" lon="5.78158">
        <ele>474.29998779297</ele>
        <time>2012-06-16T13:19:54Z</time>
      </trkpt>
      <trkpt lat="45.4409" lon="5.78163">
        <ele>474.40002441406</ele>
        <time>2012-06-16T13:20:01Z</time>
      </trkpt>
      <trkpt lat="45.44099" lon="5.78167">
        <ele>474.79998779297</ele>
        <time>2012-06-16T13:20:07Z</time>
      </trkpt>
      <trkpt lat="45.44108" lon="5.78172">
        <ele>475.40002441406</ele>
        <time>2012-06-16T13:20:12Z</time>
      </trkpt>
      <trkpt lat="45.44126" lon="5.78183">
        <ele>475.70001220703</ele>
        <time>2012-06-16T13:20:25Z</time>
      </trkpt>
      <trkpt lat="45.44146" lon="5.78187">
        <ele>474.20001220703</ele>
        <time>2012-06-16T13:20:40Z</time>
      </trkpt>
      <trkpt lat="45.44165" lon="5.78201">
        <ele>472.70001220703</ele>
        <time>2012-06-16T13:21:50Z</time>
      </trkpt>
      <trkpt lat="45.44179" lon="5.7822">
        <ele>472.79998779297</ele>
        <time>2012-06-16T13:22:04Z</time>
      </trkpt>
      <trkpt lat="45.44195" lon="5.78236">
        <ele>473.40002441406</ele>
        <time>2012-06-16T13:22:17Z</time>
      </trkpt>
      <trkpt lat="45.44217" lon="5.7826">
        <ele>473.90002441406</ele>
        <time>2012-06-16T13:22:36Z</time>
      </trkpt>
      <trkpt lat="45.44237" lon="5.78268">
        <ele>475.20001220703</ele>
        <time>2012-06-16T13:22:47Z</time>
      </trkpt>
      <trkpt lat="45.44254" lon="5.78275">
        <ele>473.5</ele>
        <time>2012-06-16T13:23:03Z</time>
      </trkpt>
      <trkpt lat="45.44272" lon="5.78267">
        <ele>472.70001220703</ele>
        <time>2012-06-16T13:23:15Z</time>
      </trkpt>
      <trkpt lat="45.44286" lon="5.78247">
        <ele>473.29998779297</ele>
        <time>2012-06-16T13:23:29Z</time>
      </trkpt>
      <trkpt lat="45.44303" lon="5.78236">
        <ele>474.79998779297</ele>
        <time>2012-06-16T13:23:43Z</time>
      </trkpt>
      <trkpt lat="45.44324" lon="5.78237">
        <ele>473.90002441406</ele>
        <time>2012-06-16T13:23:57Z</time>
      </trkpt>
      <trkpt lat="45.44343" lon="5.78238">
        <ele>474</ele>
        <time>2012-06-16T13:24:08Z</time>
      </trkpt>
      <trkpt lat="45.44371" lon="5.78243">
        <ele>476.20001220703</ele>
        <time>2012-06-16T13:24:29Z</time>
      </trkpt>
      <trkpt lat="45.44391" lon="5.78249">
        <ele>477</ele>
        <time>2012-06-16T13:24:41Z</time>
      </trkpt>
      <trkpt lat="45.44409" lon="5.78255">
        <ele>478</ele>
        <time>2012-06-16T13:24:54Z</time>
      </trkpt>
      <trkpt lat="45.44439" lon="5.78258">
        <ele>479.29998779297</ele>
        <time>2012-06-16T13:25:13Z</time>
      </trkpt>
      <trkpt lat="45.44453" lon="5.78273">
        <ele>479.09997558594</ele>
        <time>2012-06-16T13:25:23Z</time>
      </trkpt>
      <trkpt lat="45.44479" lon="5.78295">
        <ele>477</ele>
        <time>2012-06-16T13:25:43Z</time>
      </trkpt>
      <trkpt lat="45.44498" lon="5.78305">
        <ele>478.79998779297</ele>
        <time>2012-06-16T13:25:57Z</time>
      </trkpt>
      <trkpt lat="45.44526" lon="5.78318">
        <ele>481.90002441406</ele>
        <time>2012-06-16T13:26:16Z</time>
      </trkpt>
      <trkpt lat="45.44544" lon="5.78327">
        <ele>482.40002441406</ele>
        <time>2012-06-16T13:26:30Z</time>
      </trkpt>
      <trkpt lat="45.44571" lon="5.78343">
        <ele>483.79998779297</ele>
        <time>2012-06-16T13:26:51Z</time>
      </trkpt>
      <trkpt lat="45.44589" lon="5.78356">
        <ele>485.59997558594</ele>
        <time>2012-06-16T13:27:03Z</time>
      </trkpt>
      <trkpt lat="45.44609" lon="5.78383">
        <ele>484.5</ele>
        <time>2012-06-16T13:27:24Z</time>
      </trkpt>
      <trkpt lat="45.44621" lon="5.78404">
        <ele>483.90002441406</ele>
        <time>2012-06-16T13:27:35Z</time>
      </trkpt>
      <trkpt lat="45.44645" lon="5.78427">
        <ele>487.79998779297</ele>
        <time>2012-06-16T13:28:04Z</time>
      </trkpt>
      <trkpt lat="45.44668" lon="5.7845">
        <ele>490</ele>
        <time>2012-06-16T13:28:27Z</time>
      </trkpt>
      <trkpt lat="45.44692" lon="5.78471">
        <ele>496</ele>
        <time>2012-06-16T13:28:58Z</time>
      </trkpt>
      <trkpt lat="45.4472" lon="5.78484">
        <ele>500.90002441406</ele>
        <time>2012-06-16T13:29:18Z</time>
      </trkpt>
      <trkpt lat="45.4475" lon="5.78494">
        <ele>503.90002441406</ele>
        <time>2012-06-16T13:29:37Z</time>
      </trkpt>
      <trkpt lat="45.44776" lon="5.78514">
        <ele>505.40002441406</ele>
        <time>2012-06-16T13:30:00Z</time>
      </trkpt>
      <trkpt lat="45.448" lon="5.78531">
        <ele>506</ele>
        <time>2012-06-16T13:30:24Z</time>
      </trkpt>
      <trkpt lat="45.45062" lon="5.79001">
        <ele>536.40002441406</ele>
        <time>2012-06-16T13:38:12Z</time>
      </trkpt>
      <trkpt lat="45.4513" lon="5.79126">
        <ele>544.5</ele>
        <time>2012-06-16T13:39:25Z</time>
      </trkpt>
      <trkpt lat="45.45174" lon="5.79149">
        <ele>568.90002441406</ele>
        <time>2012-06-16T13:40:32Z</time>
      </trkpt>
      <trkpt lat="45.45221" lon="5.79156">
        <ele>578.40002441406</ele>
        <time>2012-06-16T13:41:04Z</time>
      </trkpt>
      <trkpt lat="45.4531" lon="5.79163">
        <ele>566.09997558594</ele>
        <time>2012-06-16T13:42:04Z</time>
      </trkpt>
      <trkpt lat="45.45343" lon="5.79179">
        <ele>554.09997558594</ele>
        <time>2012-06-16T13:42:34Z</time>
      </trkpt>
      <trkpt lat="45.45379" lon="5.792">
        <ele>563.59997558594</ele>
        <time>2012-06-16T13:59:15Z</time>
      </trkpt>
      <trkpt lat="45.45396" lon="5.79252">
        <ele>566.09997558594</ele>
        <time>2012-06-16T13:59:27Z</time>
      </trkpt>
      <trkpt lat="45.45333" lon="5.79855">
        <ele>605.59997558594</ele>
        <time>2012-06-16T14:03:05Z</time>
      </trkpt>
      <trkpt lat="45.45285" lon="5.79911">
        <ele>608.09997558594</ele>
        <time>2012-06-16T14:03:47Z</time>
      </trkpt>
      <trkpt lat="45.45291" lon="5.79977">
        <ele>609.90002441406</ele>
        <time>2012-06-16T14:04:15Z</time>
      </trkpt>
      <trkpt lat="45.45295" lon="5.80017">
        <ele>612.40002441406</ele>
        <time>2012-06-16T14:04:33Z</time>
      </trkpt>
      <trkpt lat="45.45304" lon="5.80057">
        <ele>613.30004882812</ele>
        <time>2012-06-16T14:04:55Z</time>
      </trkpt>
      <trkpt lat="45.45318" lon="5.80092">
        <ele>616</ele>
        <time>2012-06-16T14:05:15Z</time>
      </trkpt>
      <trkpt lat="45.4533" lon="5.8013">
        <ele>617</ele>
        <time>2012-06-16T14:05:34Z</time>
      </trkpt>
      <trkpt lat="45.45403" lon="5.80213">
        <ele>618.5</ele>
        <time>2012-06-16T14:06:04Z</time>
      </trkpt>
      <trkpt lat="45.45414" lon="5.80236">
        <ele>618.40002441406</ele>
        <time>2012-06-16T14:06:17Z</time>
      </trkpt>
      <trkpt lat="45.45465" lon="5.80329">
        <ele>623.59997558594</ele>
        <time>2012-06-16T14:07:21Z</time>
      </trkpt>
      <trkpt lat="45.45489" lon="5.80351">
        <ele>627.40002441406</ele>
        <time>2012-06-16T14:07:38Z</time>
      </trkpt>
      <trkpt lat="45.45515" lon="5.80366">
        <ele>631.40002441406</ele>
        <time>2012-06-16T14:08:00Z</time>
      </trkpt>
      <trkpt lat="45.45542" lon="5.80385">
        <ele>634.59997558594</ele>
        <time>2012-06-16T14:08:25Z</time>
      </trkpt>
      <trkpt lat="45.45577" lon="5.80406">
        <ele>637.5</ele>
        <time>2012-06-16T14:08:55Z</time>
      </trkpt>
      <trkpt lat="45.45598" lon="5.80437">
        <ele>639.30004882812</ele>
        <time>2012-06-16T14:09:10Z</time>
      </trkpt>
      <trkpt lat="45.45726" lon="5.80662">
        <ele>661.09997558594</ele>
        <time>2012-06-16T14:12:09Z</time>
      </trkpt>
      <trkpt lat="45.45729" lon="5.80727">
        <ele>666.19995117188</ele>
        <time>2012-06-16T14:12:49Z</time>
      </trkpt>
      <trkpt lat="45.45789" lon="5.8082">
        <ele>665.19995117188</ele>
        <time>2012-06-16T14:13:51Z</time>
      </trkpt>
      <trkpt lat="45.45822" lon="5.80869">
        <ele>664.80004882812</ele>
        <time>2012-06-16T14:14:35Z</time>
      </trkpt>
      <trkpt lat="45.45874" lon="5.80925">
        <ele>670.5</ele>
        <time>2012-06-16T14:15:34Z</time>
      </trkpt>
      <trkpt lat="45.45913" lon="5.80962">
        <ele>670.90002441406</ele>
        <time>2012-06-16T14:16:02Z</time>
      </trkpt>
      <trkpt lat="45.45953" lon="5.81">
        <ele>670</ele>
        <time>2012-06-16T14:16:36Z</time>
      </trkpt>
      <trkpt lat="45.45975" lon="5.81026">
        <ele>672.5</ele>
        <time>2012-06-16T14:16:54Z</time>
      </trkpt>
      <trkpt lat="45.45976" lon="5.81095">
        <ele>663.30004882812</ele>
        <time>2012-06-16T14:17:29Z</time>
      </trkpt>
      <trkpt lat="45.45971" lon="5.81149">
        <ele>658.80004882812</ele>
        <time>2012-06-16T14:17:54Z</time>
      </trkpt>
      <trkpt lat="45.45967" lon="5.81191">
        <ele>657</ele>
        <time>2012-06-16T14:18:15Z</time>
      </trkpt>
      <trkpt lat="45.46" lon="5.8131">
        <ele>655.40002441406</ele>
        <time>2012-06-16T14:19:31Z</time>
      </trkpt>
      <trkpt lat="45.46024" lon="5.81329">
        <ele>656.19995117188</ele>
        <time>2012-06-16T14:19:58Z</time>
      </trkpt>
      <trkpt lat="45.4605" lon="5.81349">
        <ele>655.5</ele>
        <time>2012-06-16T14:20:20Z</time>
      </trkpt>
      <trkpt lat="45.46077" lon="5.81361">
        <ele>655</ele>
        <time>2012-06-16T14:20:40Z</time>
      </trkpt>
      <trkpt lat="45.46105" lon="5.81376">
        <ele>656.09997558594</ele>
        <time>2012-06-16T14:21:03Z</time>
      </trkpt>
      <trkpt lat="45.46122" lon="5.81387">
        <ele>656</ele>
        <time>2012-06-16T14:21:17Z</time>
      </trkpt>
      <trkpt lat="45.46204" lon="5.81465">
        <ele>653.69995117188</ele>
        <time>2012-06-16T14:22:27Z</time>
      </trkpt>
      <trkpt lat="45.46229" lon="5.81488">
        <ele>653.80004882812</ele>
        <time>2012-06-16T14:22:48Z</time>
      </trkpt>
      <trkpt lat="45.46245" lon="5.81504">
        <ele>654</ele>
        <time>2012-06-16T14:23:02Z</time>
      </trkpt>
      <trkpt lat="45.46262" lon="5.81517">
        <ele>653.90002441406</ele>
        <time>2012-06-16T14:23:17Z</time>
      </trkpt>
      <trkpt lat="45.4627" lon="5.81523">
        <ele>654.19995117188</ele>
        <time>2012-06-16T14:23:24Z</time>
      </trkpt>
      <trkpt lat="45.46279" lon="5.81529">
        <ele>655.19995117188</ele>
        <time>2012-06-16T14:23:31Z</time>
      </trkpt>
      <trkpt lat="45.46287" lon="5.81535">
        <ele>655.90002441406</ele>
        <time>2012-06-16T14:23:38Z</time>
      </trkpt>
      <trkpt lat="45.46297" lon="5.81539">
        <ele>657</ele>
        <time>2012-06-16T14:23:46Z</time>
      </trkpt>
      <trkpt lat="45.46306" lon="5.81541">
        <ele>658.30004882812</ele>
        <time>2012-06-16T14:23:53Z</time>
      </trkpt>
      <trkpt lat="45.46315" lon="5.81542">
        <ele>660.30004882812</ele>
        <time>2012-06-16T14:24:00Z</time>
      </trkpt>
      <trkpt lat="45.46334" lon="5.81542">
        <ele>665.09997558594</ele>
        <time>2012-06-16T14:24:15Z</time>
      </trkpt>
      <trkpt lat="45.46362" lon="5.81537">
        <ele>671.59997558594</ele>
        <time>2012-06-16T14:24:41Z</time>
      </trkpt>
      <trkpt lat="45.4652" lon="5.8165">
        <ele>680</ele>
        <time>2012-06-16T14:26:51Z</time>
      </trkpt>
      <trkpt lat="45.46561" lon="5.81685">
        <ele>683.59997558594</ele>
        <time>2012-06-16T14:27:25Z</time>
      </trkpt>
      <trkpt lat="45.46608" lon="5.81692">
        <ele>688.69995117188</ele>
        <time>2012-06-16T14:28:01Z</time>
      </trkpt>
      <trkpt lat="45.46655" lon="5.81699">
        <ele>687</ele>
        <time>2012-06-16T14:28:39Z</time>
      </trkpt>
      <trkpt lat="45.46671" lon="5.81713">
        <ele>687.19995117188</ele>
        <time>2012-06-16T14:28:53Z</time>
      </trkpt>
      <trkpt lat="45.46687" lon="5.8173">
        <ele>687.30004882812</ele>
        <time>2012-06-16T14:29:09Z</time>
      </trkpt>
      <trkpt lat="45.46702" lon="5.81746">
        <ele>686.40002441406</ele>
        <time>2012-06-16T14:29:22Z</time>
      </trkpt>
      <trkpt lat="45.46716" lon="5.81764">
        <ele>686.40002441406</ele>
        <time>2012-06-16T14:29:39Z</time>
      </trkpt>
      <trkpt lat="45.46733" lon="5.81778">
        <ele>686.40002441406</ele>
        <time>2012-06-16T14:29:54Z</time>
      </trkpt>
      <trkpt lat="45.46756" lon="5.81801">
        <ele>686.40002441406</ele>
        <time>2012-06-16T14:30:15Z</time>
      </trkpt>
      <trkpt lat="45.46771" lon="5.81818">
        <ele>684.90002441406</ele>
        <time>2012-06-16T14:30:29Z</time>
      </trkpt>
      <trkpt lat="45.46783" lon="5.81839">
        <ele>683.30004882812</ele>
        <time>2012-06-16T14:30:44Z</time>
      </trkpt>
      <trkpt lat="45.46757" lon="5.81855">
        <ele>681.69995117188</ele>
        <time>2012-06-16T14:31:06Z</time>
      </trkpt>
      <trkpt lat="45.46738" lon="5.81865">
        <ele>681.80004882812</ele>
        <time>2012-06-16T14:31:21Z</time>
      </trkpt>
      <trkpt lat="45.46721" lon="5.81876">
        <ele>681.80004882812</ele>
        <time>2012-06-16T14:31:33Z</time>
      </trkpt>
      <trkpt lat="45.467" lon="5.81906">
        <ele>681.80004882812</ele>
        <time>2012-06-16T14:31:54Z</time>
      </trkpt>
      <trkpt lat="45.4669" lon="5.81932">
        <ele>682.59997558594</ele>
        <time>2012-06-16T14:32:08Z</time>
      </trkpt>
      <trkpt lat="45.46681" lon="5.81956">
        <ele>684.59997558594</ele>
        <time>2012-06-16T14:32:22Z</time>
      </trkpt>
      <trkpt lat="45.4667" lon="5.81977">
        <ele>686.30004882812</ele>
        <time>2012-06-16T14:32:37Z</time>
      </trkpt>
      <trkpt lat="45.47537" lon="5.82697">
        <ele>656.59997558594</ele>
        <time>2012-06-16T14:55:40Z</time>
      </trkpt>
      <trkpt lat="45.47557" lon="5.82705">
        <ele>651.09997558594</ele>
        <time>2012-06-16T14:55:52Z</time>
      </trkpt>
      <trkpt lat="45.47569" lon="5.82712">
        <ele>650.90002441406</ele>
        <time>2012-06-16T14:56:04Z</time>
      </trkpt>
      <trkpt lat="45.47579" lon="5.82717">
        <ele>651.19995117188</ele>
        <time>2012-06-16T14:56:12Z</time>
      </trkpt>
      <trkpt lat="45.47597" lon="5.82726">
        <ele>654.19995117188</ele>
        <time>2012-06-16T14:56:28Z</time>
      </trkpt>
      <trkpt lat="45.47626" lon="5.82734">
        <ele>656.09997558594</ele>
        <time>2012-06-16T14:56:53Z</time>
      </trkpt>
      <trkpt lat="45.47641" lon="5.82749">
        <ele>653.80004882812</ele>
        <time>2012-06-16T14:57:13Z</time>
      </trkpt>
      <trkpt lat="45.47666" lon="5.82769">
        <ele>652.09997558594</ele>
        <time>2012-06-16T14:57:42Z</time>
      </trkpt>
      <trkpt lat="45.47682" lon="5.82784">
        <ele>651.59997558594</ele>
        <time>2012-06-16T14:57:56Z</time>
      </trkpt>
      <trkpt lat="45.47707" lon="5.82807">
        <ele>649.90002441406</ele>
        <time>2012-06-16T14:58:19Z</time>
      </trkpt>
      <trkpt lat="45.47724" lon="5.82823">
        <ele>647.80004882812</ele>
        <time>2012-06-16T14:58:34Z</time>
      </trkpt>
      <trkpt lat="45.47741" lon="5.82851">
        <ele>642.90002441406</ele>
        <time>2012-06-16T14:59:07Z</time>
      </trkpt>
      <trkpt lat="45.47727" lon="5.82877">
        <ele>645.19995117188</ele>
        <time>2012-06-16T14:59:15Z</time>
      </trkpt>
      <trkpt lat="45.47715" lon="5.82901">
        <ele>646.80004882812</ele>
        <time>2012-06-16T14:59:23Z</time>
      </trkpt>
      <trkpt lat="45.47709" lon="5.82913">
        <ele>648.30004882812</ele>
        <time>2012-06-16T14:59:27Z</time>
      </trkpt>
      <trkpt lat="45.47703" lon="5.82924">
        <ele>649.69995117188</ele>
        <time>2012-06-16T14:59:35Z</time>
      </trkpt>
      <trkpt lat="45.47697" lon="5.82935">
        <ele>651.69995117188</ele>
        <time>2012-06-16T14:59:42Z</time>
      </trkpt>
      <trkpt lat="45.47691" lon="5.82945">
        <ele>653.19995117188</ele>
        <time>2012-06-16T14:59:49Z</time>
      </trkpt>
      <trkpt lat="45.47686" lon="5.82957">
        <ele>655</ele>
        <time>2012-06-16T14:59:57Z</time>
      </trkpt>
      <trkpt lat="45.47681" lon="5.82968">
        <ele>657.59997558594</ele>
        <time>2012-06-16T15:00:05Z</time>
      </trkpt>
      <trkpt lat="45.47675" lon="5.82978">
        <ele>658.80004882812</ele>
        <time>2012-06-16T15:00:13Z</time>
      </trkpt>
      <trkpt lat="45.4767" lon="5.82989">
        <ele>660.40002441406</ele>
        <time>2012-06-16T15:00:21Z</time>
      </trkpt>
      <trkpt lat="45.47662" lon="5.83013">
        <ele>663.30004882812</ele>
        <time>2012-06-16T15:00:41Z</time>
      </trkpt>
      <trkpt lat="45.47645" lon="5.83041">
        <ele>666.59997558594</ele>
        <time>2012-06-16T15:01:06Z</time>
      </trkpt>
      <trkpt lat="45.47627" lon="5.83045">
        <ele>668.59997558594</ele>
        <time>2012-06-16T15:01:21Z</time>
      </trkpt>
      <trkpt lat="45.47599" lon="5.83033">
        <ele>673.69995117188</ele>
        <time>2012-06-16T15:01:44Z</time>
      </trkpt>
      <trkpt lat="45.47569" lon="5.83034">
        <ele>677.09997558594</ele>
        <time>2012-06-16T15:02:06Z</time>
      </trkpt>
      <trkpt lat="45.47538" lon="5.83037">
        <ele>679.69995117188</ele>
        <time>2012-06-16T15:02:20Z</time>
      </trkpt>
      <trkpt lat="45.47507" lon="5.83035">
        <ele>685.59997558594</ele>
        <time>2012-06-16T15:02:46Z</time>
      </trkpt>
      <trkpt lat="45.47488" lon="5.83041">
        <ele>689.80004882812</ele>
        <time>2012-06-16T15:03:00Z</time>
      </trkpt>
      <trkpt lat="45.4746" lon="5.83064">
        <ele>710.19995117188</ele>
        <time>2012-06-16T15:04:24Z</time>
      </trkpt>
      <trkpt lat="45.47478" lon="5.83073">
        <ele>713.40002441406</ele>
        <time>2012-06-16T15:04:43Z</time>
      </trkpt>
      <trkpt lat="45.47494" lon="5.83087">
        <ele>715.5</ele>
        <time>2012-06-16T15:04:55Z</time>
      </trkpt>
      <trkpt lat="45.47525" lon="5.83122">
        <ele>719.40002441406</ele>
        <time>2012-06-16T15:05:16Z</time>
      </trkpt>
      <trkpt lat="45.47526" lon="5.83162">
        <ele>727.59997558594</ele>
        <time>2012-06-16T15:05:34Z</time>
      </trkpt>
      <trkpt lat="45.4755" lon="5.83185">
        <ele>726.5</ele>
        <time>2012-06-16T15:05:56Z</time>
      </trkpt>
      <trkpt lat="45.47561" lon="5.83226">
        <ele>727.09997558594</ele>
        <time>2012-06-16T15:06:13Z</time>
      </trkpt>
      <trkpt lat="45.47574" lon="5.83262">
        <ele>729.09997558594</ele>
        <time>2012-06-16T15:06:30Z</time>
      </trkpt>
      <trkpt lat="45.47602" lon="5.83271">
        <ele>727</ele>
        <time>2012-06-16T15:06:54Z</time>
      </trkpt>
      <trkpt lat="45.4762" lon="5.83277">
        <ele>727.09997558594</ele>
        <time>2012-06-16T15:07:09Z</time>
      </trkpt>
      <trkpt lat="45.47649" lon="5.83287">
        <ele>724.80004882812</ele>
        <time>2012-06-16T15:07:29Z</time>
      </trkpt>
      <trkpt lat="45.47676" lon="5.83301">
        <ele>722.59997558594</ele>
        <time>2012-06-16T15:07:49Z</time>
      </trkpt>
      <trkpt lat="45.47703" lon="5.83313">
        <ele>718.90002441406</ele>
        <time>2012-06-16T15:08:11Z</time>
      </trkpt>
      <trkpt lat="45.47738" lon="5.83341">
        <ele>713.19995117188</ele>
        <time>2012-06-16T15:08:41Z</time>
      </trkpt>
      <trkpt lat="45.47762" lon="5.8336">
        <ele>713.19995117188</ele>
        <time>2012-06-16T15:09:03Z</time>
      </trkpt>
      <trkpt lat="45.47793" lon="5.83366">
        <ele>705.19995117188</ele>
        <time>2012-06-16T15:10:00Z</time>
      </trkpt>
      <trkpt lat="45.47818" lon="5.83343">
        <ele>704.09997558594</ele>
        <time>2012-06-16T15:10:39Z</time>
      </trkpt>
      <trkpt lat="45.47838" lon="5.83342">
        <ele>698</ele>
        <time>2012-06-16T15:11:05Z</time>
      </trkpt>
      <trkpt lat="45.47891" lon="5.83357">
        <ele>690.19995117188</ele>
        <time>2012-06-16T15:11:57Z</time>
      </trkpt>
      <trkpt lat="45.47918" lon="5.83362">
        <ele>686.80004882812</ele>
        <time>2012-06-16T15:12:42Z</time>
      </trkpt>
      <trkpt lat="45.4795" lon="5.83353">
        <ele>681.80004882812</ele>
        <time>2012-06-16T15:13:21Z</time>
      </trkpt>
      <trkpt lat="45.47979" lon="5.83353">
        <ele>680.30004882812</ele>
        <time>2012-06-16T15:13:46Z</time>
      </trkpt>
      <trkpt lat="45.48005" lon="5.83364">
        <ele>680.90002441406</ele>
        <time>2012-06-16T15:14:06Z</time>
      </trkpt>
      <trkpt lat="45.48022" lon="5.83396">
        <ele>682.90002441406</ele>
        <time>2012-06-16T15:14:23Z</time>
      </trkpt>
      <trkpt lat="45.48033" lon="5.83433">
        <ele>682.5</ele>
        <time>2012-06-16T15:14:43Z</time>
      </trkpt>
      <trkpt lat="45.48058" lon="5.83492">
        <ele>677.90002441406</ele>
        <time>2012-06-16T15:15:19Z</time>
      </trkpt>
      <trkpt lat="45.48071" lon="5.83513">
        <ele>677.09997558594</ele>
        <time>2012-06-16T15:15:35Z</time>
      </trkpt>
      <trkpt lat="45.48103" lon="5.83565">
        <ele>664.5</ele>
        <time>2012-06-16T15:16:07Z</time>
      </trkpt>
      <trkpt lat="45.48157" lon="5.83613">
        <ele>657.5</ele>
        <time>2012-06-16T15:16:46Z</time>
      </trkpt>
      <trkpt lat="45.48272" lon="5.83675">
        <ele>653.19995117188</ele>
        <time>2012-06-16T15:18:16Z</time>
      </trkpt>
      <trkpt lat="45.48301" lon="5.83706">
        <ele>648</ele>
        <time>2012-06-16T15:18:41Z</time>
      </trkpt>
      <trkpt lat="45.48329" lon="5.83712">
        <ele>644.09997558594</ele>
        <time>2012-06-16T15:19:04Z</time>
      </trkpt>
      <trkpt lat="45.48357" lon="5.83713">
        <ele>638.90002441406</ele>
        <time>2012-06-16T15:19:34Z</time>
      </trkpt>
      <trkpt lat="45.48377" lon="5.83741">
        <ele>636.80004882812</ele>
        <time>2012-06-16T15:19:52Z</time>
      </trkpt>
      <trkpt lat="45.48402" lon="5.83757">
        <ele>636.30004882812</ele>
        <time>2012-06-16T15:20:15Z</time>
      </trkpt>
      <trkpt lat="45.4843" lon="5.83768">
        <ele>636.19995117188</ele>
        <time>2012-06-16T15:20:35Z</time>
      </trkpt>
      <trkpt lat="45.48459" lon="5.83773">
        <ele>638.40002441406</ele>
        <time>2012-06-16T15:20:57Z</time>
      </trkpt>
      <trkpt lat="45.48496" lon="5.83769">
        <ele>640</ele>
        <time>2012-06-16T15:21:24Z</time>
      </trkpt>
      <trkpt lat="45.48511" lon="5.83805">
        <ele>641.80004882812</ele>
        <time>2012-06-16T15:22:02Z</time>
      </trkpt>
      <trkpt lat="45.48536" lon="5.83861">
        <ele>646.80004882812</ele>
        <time>2012-06-16T15:22:39Z</time>
      </trkpt>
      <trkpt lat="45.48621" lon="5.83917">
        <ele>655.69995117188</ele>
        <time>2012-06-16T15:24:03Z</time>
      </trkpt>
      <trkpt lat="45.48668" lon="5.83899">
        <ele>660.59997558594</ele>
        <time>2012-06-16T15:24:35Z</time>
      </trkpt>
      <trkpt lat="45.48687" lon="5.83905">
        <ele>659.09997558594</ele>
        <time>2012-06-16T15:24:46Z</time>
      </trkpt>
      <trkpt lat="45.48701" lon="5.83927">
        <ele>658.30004882812</ele>
        <time>2012-06-16T15:24:59Z</time>
      </trkpt>
      <trkpt lat="45.48777" lon="5.83979">
        <ele>657.80004882812</ele>
        <time>2012-06-16T15:25:56Z</time>
      </trkpt>
      <trkpt lat="45.48841" lon="5.84017">
        <ele>655.09997558594</ele>
        <time>2012-06-16T15:26:47Z</time>
      </trkpt>
      <trkpt lat="45.48907" lon="5.84022">
        <ele>654.30004882812</ele>
        <time>2012-06-16T15:27:36Z</time>
      </trkpt>
      <trkpt lat="45.48946" lon="5.84021">
        <ele>653.80004882812</ele>
        <time>2012-06-16T15:28:04Z</time>
      </trkpt>
      <trkpt lat="45.49087" lon="5.84171">
        <ele>644</ele>
        <time>2012-06-16T15:30:13Z</time>
      </trkpt>
      <trkpt lat="45.4934" lon="5.84302">
        <ele>639.80004882812</ele>
        <time>2012-06-16T15:32:56Z</time>
      </trkpt>
      <trkpt lat="45.49365" lon="5.84324">
        <ele>640.19995117188</ele>
        <time>2012-06-16T15:33:09Z</time>
      </trkpt>
      <trkpt lat="45.49384" lon="5.84354">
        <ele>640.69995117188</ele>
        <time>2012-06-16T15:33:37Z</time>
      </trkpt>
      <trkpt lat="45.49399" lon="5.84377">
        <ele>640.19995117188</ele>
        <time>2012-06-16T15:33:48Z</time>
      </trkpt>
      <trkpt lat="45.49417" lon="5.84389">
        <ele>644.90002441406</ele>
        <time>2012-06-16T15:34:03Z</time>
      </trkpt>
      <trkpt lat="45.4944" lon="5.84414">
        <ele>642.80004882812</ele>
        <time>2012-06-16T15:34:27Z</time>
      </trkpt>
      <trkpt lat="45.49602" lon="5.84514">
        <ele>642</ele>
        <time>2012-06-16T15:36:35Z</time>
      </trkpt>
      <trkpt lat="45.49733" lon="5.84588">
        <ele>646.59997558594</ele>
        <time>2012-06-16T15:38:00Z</time>
      </trkpt>
      <trkpt lat="45.49746" lon="5.84607">
        <ele>645</ele>
        <time>2012-06-16T15:38:14Z</time>
      </trkpt>
      <trkpt lat="45.49763" lon="5.84624">
        <ele>647.59997558594</ele>
        <time>2012-06-16T15:38:30Z</time>
      </trkpt>
      <trkpt lat="45.49805" lon="5.8466">
        <ele>652.90002441406</ele>
        <time>2012-06-16T15:39:39Z</time>
      </trkpt>
      <trkpt lat="45.49852" lon="5.84663">
        <ele>654.69995117188</ele>
        <time>2012-06-16T15:40:51Z</time>
      </trkpt>
      <trkpt lat="45.49953" lon="5.84681">
        <ele>636.40002441406</ele>
        <time>2012-06-16T15:42:21Z</time>
      </trkpt>
      <trkpt lat="45.49973" lon="5.84652">
        <ele>626.40002441406</ele>
        <time>2012-06-16T15:42:46Z</time>
      </trkpt>
      <trkpt lat="45.49996" lon="5.84627">
        <ele>618.5</ele>
        <time>2012-06-16T15:43:10Z</time>
      </trkpt>
      <trkpt lat="45.50005" lon="5.8459">
        <ele>610.19995117188</ele>
        <time>2012-06-16T15:43:39Z</time>
      </trkpt>
      <trkpt lat="45.50016" lon="5.84567">
        <ele>605.59997558594</ele>
        <time>2012-06-16T15:43:55Z</time>
      </trkpt>
      <trkpt lat="45.50032" lon="5.84535">
        <ele>595.80004882812</ele>
        <time>2012-06-16T15:44:26Z</time>
      </trkpt>
      <trkpt lat="45.50046" lon="5.8452">
        <ele>586</ele>
        <time>2012-06-16T15:44:47Z</time>
      </trkpt>
      <trkpt lat="45.50063" lon="5.84519">
        <ele>577.19995117188</ele>
        <time>2012-06-16T15:45:22Z</time>
      </trkpt>
      <trkpt lat="45.50072" lon="5.84517">
        <ele>574.40002441406</ele>
        <time>2012-06-16T15:45:29Z</time>
      </trkpt>
      <trkpt lat="45.50081" lon="5.84511">
        <ele>572.30004882812</ele>
        <time>2012-06-16T15:45:40Z</time>
      </trkpt>
      <trkpt lat="45.50108" lon="5.84515">
        <ele>569.5</ele>
        <time>2012-06-16T15:46:02Z</time>
      </trkpt>
      <trkpt lat="45.50126" lon="5.84525">
        <ele>566.59997558594</ele>
        <time>2012-06-16T15:46:15Z</time>
      </trkpt>
      <trkpt lat="45.50152" lon="5.84544">
        <ele>565</ele>
        <time>2012-06-16T15:46:35Z</time>
      </trkpt>
      <trkpt lat="45.50179" lon="5.84556">
        <ele>563.69995117188</ele>
        <time>2012-06-16T15:46:58Z</time>
      </trkpt>
      <trkpt lat="45.50193" lon="5.84538">
        <ele>561.59997558594</ele>
        <time>2012-06-16T15:47:11Z</time>
      </trkpt>
      <trkpt lat="45.50209" lon="5.84524">
        <ele>556</ele>
        <time>2012-06-16T15:47:30Z</time>
      </trkpt>
      <trkpt lat="45.50218" lon="5.84518">
        <ele>556.19995117188</ele>
        <time>2012-06-16T15:47:56Z</time>
      </trkpt>
      <trkpt lat="45.50227" lon="5.8451">
        <ele>556.40002441406</ele>
        <time>2012-06-16T15:48:02Z</time>
      </trkpt>
      <trkpt lat="45.50241" lon="5.84527">
        <ele>553.30004882812</ele>
        <time>2012-06-16T15:48:16Z</time>
      </trkpt>
      <trkpt lat="45.50262" lon="5.84556">
        <ele>551.19995117188</ele>
        <time>2012-06-16T15:48:35Z</time>
      </trkpt>
      <trkpt lat="45.50277" lon="5.84575">
        <ele>551.30004882812</ele>
        <time>2012-06-16T15:48:48Z</time>
      </trkpt>
      <trkpt lat="45.5029" lon="5.84594">
        <ele>551.59997558594</ele>
        <time>2012-06-16T15:49:01Z</time>
      </trkpt>
      <trkpt lat="45.50267" lon="5.84615">
        <ele>551.69995117188</ele>
        <time>2012-06-16T15:49:47Z</time>
      </trkpt>
      <trkpt lat="45.50262" lon="5.84655">
        <ele>552.80004882812</ele>
        <time>2012-06-16T15:50:08Z</time>
      </trkpt>
      <trkpt lat="45.50262" lon="5.84697">
        <ele>556.69995117188</ele>
        <time>2012-06-16T15:50:30Z</time>
      </trkpt>
      <trkpt lat="45.50241" lon="5.84739">
        <ele>560.69995117188</ele>
        <time>2012-06-16T15:51:47Z</time>
      </trkpt>
      <trkpt lat="45.50231" lon="5.84742">
        <ele>561.80004882812</ele>
        <time>2012-06-16T15:53:44Z</time>
      </trkpt>
      <trkpt lat="45.50208" lon="5.84717">
        <ele>567.30004882812</ele>
        <time>2012-06-16T15:55:48Z</time>
      </trkpt>
      <trkpt lat="45.50211" lon="5.84729">
        <ele>572.09997558594</ele>
        <time>2012-06-16T15:59:44Z</time>
      </trkpt>
      <trkpt lat="45.50209" lon="5.84723">
        <ele>567.80004882812</ele>
        <time>2012-06-16T16:01:28Z</time>
      </trkpt>
    </trkseg>
  </trk>
</gpx>